<?xml version="1.0" encoding="UTF-8" standalone="no" ?>
<gpx xmlns="http://www.topografix.com/GPX/1/1" xmlns:xsi="http://www.w3.org/2001/XMLSchema-instance" xsi:schemaLocation="http://www.topografix.com/GPX/1/1 http://www.topografix.com/GPX/1/1/gpx.xsd" version="1.1" creator="VisuGPX - https://www.visugpx.com">
  <metadata>
    <name>83 - M - REBOUILLON - col de la Grange</name>
  </metadata>
  <wpt lat="43.55973" lon="6.42512">
    <ele>250</ele>
    <name><![CDATA[Point de passage 1]]></name>
    <type><![CDATA[GENERIC]]></type>
  </wpt>
  <wpt lat="43.56013" lon="6.4252">
    <ele>249</ele>
    <name><![CDATA[Point de passage 2]]></name>
    <type><![CDATA[GENERIC]]></type>
  </wpt>
  <trk>
    <name><![CDATA[Rebouillon,  col de la grange. Mercredi ]]></name>
    <trkseg>
      <trkpt lat="43.55973" lon="6.42512">
        <ele>250</ele>
        <time>2026-02-25T07:29:03.000Z</time>
      </trkpt>
      <trkpt lat="43.55973" lon="6.42511">
        <ele>250</ele>
        <time>2026-02-25T07:29:06.000Z</time>
      </trkpt>
      <trkpt lat="43.55979" lon="6.42503">
        <ele>258</ele>
        <time>2026-02-25T07:30:27.000Z</time>
      </trkpt>
      <trkpt lat="43.55987" lon="6.42497">
        <ele>258</ele>
        <time>2026-02-25T07:30:39.000Z</time>
      </trkpt>
      <trkpt lat="43.55997" lon="6.42498">
        <ele>255</ele>
        <time>2026-02-25T07:30:48.000Z</time>
      </trkpt>
      <trkpt lat="43.56006" lon="6.42504">
        <ele>256</ele>
        <time>2026-02-25T07:30:58.000Z</time>
      </trkpt>
      <trkpt lat="43.56011" lon="6.42514">
        <ele>257</ele>
        <time>2026-02-25T07:31:07.000Z</time>
      </trkpt>
      <trkpt lat="43.56016" lon="6.42526">
        <ele>257</ele>
        <time>2026-02-25T07:31:16.000Z</time>
      </trkpt>
      <trkpt lat="43.56022" lon="6.4254">
        <ele>257</ele>
        <time>2026-02-25T07:31:28.000Z</time>
      </trkpt>
      <trkpt lat="43.56029" lon="6.42549">
        <ele>257</ele>
        <time>2026-02-25T07:31:37.000Z</time>
      </trkpt>
      <trkpt lat="43.56038" lon="6.42555">
        <ele>257</ele>
        <time>2026-02-25T07:31:46.000Z</time>
      </trkpt>
      <trkpt lat="43.56048" lon="6.42557">
        <ele>257</ele>
        <time>2026-02-25T07:31:55.000Z</time>
      </trkpt>
      <trkpt lat="43.56057" lon="6.42551">
        <ele>257</ele>
        <time>2026-02-25T07:32:13.000Z</time>
      </trkpt>
      <trkpt lat="43.56067" lon="6.42548">
        <ele>257</ele>
        <time>2026-02-25T07:32:22.000Z</time>
      </trkpt>
      <trkpt lat="43.56078" lon="6.42544">
        <ele>256</ele>
        <time>2026-02-25T07:32:31.000Z</time>
      </trkpt>
      <trkpt lat="43.56087" lon="6.42541">
        <ele>256</ele>
        <time>2026-02-25T07:32:46.000Z</time>
      </trkpt>
      <trkpt lat="43.56092" lon="6.42532">
        <ele>256</ele>
        <time>2026-02-25T07:33:34.000Z</time>
      </trkpt>
      <trkpt lat="43.56099" lon="6.42525">
        <ele>256</ele>
        <time>2026-02-25T07:33:43.000Z</time>
      </trkpt>
      <trkpt lat="43.56107" lon="6.42517">
        <ele>256</ele>
        <time>2026-02-25T07:33:52.000Z</time>
      </trkpt>
      <trkpt lat="43.56115" lon="6.42508">
        <ele>254</ele>
        <time>2026-02-25T07:34:01.000Z</time>
      </trkpt>
      <trkpt lat="43.56121" lon="6.42496">
        <ele>254</ele>
        <time>2026-02-25T07:34:10.000Z</time>
      </trkpt>
      <trkpt lat="43.56127" lon="6.42487">
        <ele>255</ele>
        <time>2026-02-25T07:34:16.000Z</time>
      </trkpt>
      <trkpt lat="43.56134" lon="6.42477">
        <ele>255</ele>
        <time>2026-02-25T07:34:25.000Z</time>
      </trkpt>
      <trkpt lat="43.56142" lon="6.42467">
        <ele>256</ele>
        <time>2026-02-25T07:34:34.000Z</time>
      </trkpt>
      <trkpt lat="43.56149" lon="6.42459">
        <ele>256</ele>
        <time>2026-02-25T07:34:43.000Z</time>
      </trkpt>
      <trkpt lat="43.56154" lon="6.42448">
        <ele>256</ele>
        <time>2026-02-25T07:34:49.000Z</time>
      </trkpt>
      <trkpt lat="43.56161" lon="6.42441">
        <ele>256</ele>
        <time>2026-02-25T07:34:55.000Z</time>
      </trkpt>
      <trkpt lat="43.5617" lon="6.42435">
        <ele>257</ele>
        <time>2026-02-25T07:35:02.000Z</time>
      </trkpt>
      <trkpt lat="43.56178" lon="6.42426">
        <ele>257</ele>
        <time>2026-02-25T07:35:11.000Z</time>
      </trkpt>
      <trkpt lat="43.56186" lon="6.42419">
        <ele>257</ele>
        <time>2026-02-25T07:35:20.000Z</time>
      </trkpt>
      <trkpt lat="43.56195" lon="6.42412">
        <ele>257</ele>
        <time>2026-02-25T07:35:29.000Z</time>
      </trkpt>
      <trkpt lat="43.56202" lon="6.42405">
        <ele>257</ele>
        <time>2026-02-25T07:35:38.000Z</time>
      </trkpt>
      <trkpt lat="43.5621" lon="6.42396">
        <ele>257</ele>
        <time>2026-02-25T07:35:47.000Z</time>
      </trkpt>
      <trkpt lat="43.56216" lon="6.42385">
        <ele>257</ele>
        <time>2026-02-25T07:35:56.000Z</time>
      </trkpt>
      <trkpt lat="43.56222" lon="6.42374">
        <ele>257</ele>
        <time>2026-02-25T07:36:05.000Z</time>
      </trkpt>
      <trkpt lat="43.56229" lon="6.42363">
        <ele>257</ele>
        <time>2026-02-25T07:36:14.000Z</time>
      </trkpt>
      <trkpt lat="43.56236" lon="6.42353">
        <ele>258</ele>
        <time>2026-02-25T07:36:23.000Z</time>
      </trkpt>
      <trkpt lat="43.56243" lon="6.42344">
        <ele>258</ele>
        <time>2026-02-25T07:36:32.000Z</time>
      </trkpt>
      <trkpt lat="43.56253" lon="6.42337">
        <ele>258</ele>
        <time>2026-02-25T07:36:41.000Z</time>
      </trkpt>
      <trkpt lat="43.56261" lon="6.42331">
        <ele>258</ele>
        <time>2026-02-25T07:36:50.000Z</time>
      </trkpt>
      <trkpt lat="43.5627" lon="6.42321">
        <ele>258</ele>
        <time>2026-02-25T07:37:02.000Z</time>
      </trkpt>
      <trkpt lat="43.56277" lon="6.42311">
        <ele>257</ele>
        <time>2026-02-25T07:37:11.000Z</time>
      </trkpt>
      <trkpt lat="43.56283" lon="6.42301">
        <ele>257</ele>
        <time>2026-02-25T07:37:17.000Z</time>
      </trkpt>
      <trkpt lat="43.56287" lon="6.42288">
        <ele>256</ele>
        <time>2026-02-25T07:37:26.000Z</time>
      </trkpt>
      <trkpt lat="43.56291" lon="6.42274">
        <ele>257</ele>
        <time>2026-02-25T07:37:35.000Z</time>
      </trkpt>
      <trkpt lat="43.56297" lon="6.42264">
        <ele>257</ele>
        <time>2026-02-25T07:37:44.000Z</time>
      </trkpt>
      <trkpt lat="43.56301" lon="6.42252">
        <ele>258</ele>
        <time>2026-02-25T07:37:53.000Z</time>
      </trkpt>
      <trkpt lat="43.56306" lon="6.42239">
        <ele>259</ele>
        <time>2026-02-25T07:38:02.000Z</time>
      </trkpt>
      <trkpt lat="43.56313" lon="6.42227">
        <ele>259</ele>
        <time>2026-02-25T07:38:11.000Z</time>
      </trkpt>
      <trkpt lat="43.56321" lon="6.42216">
        <ele>260</ele>
        <time>2026-02-25T07:38:20.000Z</time>
      </trkpt>
      <trkpt lat="43.56329" lon="6.42204">
        <ele>260</ele>
        <time>2026-02-25T07:38:29.000Z</time>
      </trkpt>
      <trkpt lat="43.56335" lon="6.4219">
        <ele>260</ele>
        <time>2026-02-25T07:38:38.000Z</time>
      </trkpt>
      <trkpt lat="43.56343" lon="6.42178">
        <ele>260</ele>
        <time>2026-02-25T07:38:47.000Z</time>
      </trkpt>
      <trkpt lat="43.56353" lon="6.42167">
        <ele>260</ele>
        <time>2026-02-25T07:38:56.000Z</time>
      </trkpt>
      <trkpt lat="43.56362" lon="6.42157">
        <ele>259</ele>
        <time>2026-02-25T07:39:08.000Z</time>
      </trkpt>
      <trkpt lat="43.56369" lon="6.42149">
        <ele>259</ele>
        <time>2026-02-25T07:39:20.000Z</time>
      </trkpt>
      <trkpt lat="43.56378" lon="6.42144">
        <ele>259</ele>
        <time>2026-02-25T07:39:32.000Z</time>
      </trkpt>
      <trkpt lat="43.5639" lon="6.42142">
        <ele>259</ele>
        <time>2026-02-25T07:39:41.000Z</time>
      </trkpt>
      <trkpt lat="43.56401" lon="6.42142">
        <ele>259</ele>
        <time>2026-02-25T07:39:50.000Z</time>
      </trkpt>
      <trkpt lat="43.56412" lon="6.42144">
        <ele>259</ele>
        <time>2026-02-25T07:39:56.000Z</time>
      </trkpt>
      <trkpt lat="43.56422" lon="6.42149">
        <ele>259</ele>
        <time>2026-02-25T07:40:05.000Z</time>
      </trkpt>
      <trkpt lat="43.56432" lon="6.42158">
        <ele>259</ele>
        <time>2026-02-25T07:40:14.000Z</time>
      </trkpt>
      <trkpt lat="43.5644" lon="6.42166">
        <ele>259</ele>
        <time>2026-02-25T07:40:23.000Z</time>
      </trkpt>
      <trkpt lat="43.56448" lon="6.42175">
        <ele>259</ele>
        <time>2026-02-25T07:40:32.000Z</time>
      </trkpt>
      <trkpt lat="43.56453" lon="6.42188">
        <ele>259</ele>
        <time>2026-02-25T07:40:41.000Z</time>
      </trkpt>
      <trkpt lat="43.5646" lon="6.42201">
        <ele>259</ele>
        <time>2026-02-25T07:40:50.000Z</time>
      </trkpt>
      <trkpt lat="43.56465" lon="6.42214">
        <ele>259</ele>
        <time>2026-02-25T07:40:59.000Z</time>
      </trkpt>
      <trkpt lat="43.56468" lon="6.42228">
        <ele>259</ele>
        <time>2026-02-25T07:41:08.000Z</time>
      </trkpt>
      <trkpt lat="43.5647" lon="6.42242">
        <ele>259</ele>
        <time>2026-02-25T07:41:17.000Z</time>
      </trkpt>
      <trkpt lat="43.56475" lon="6.42255">
        <ele>259</ele>
        <time>2026-02-25T07:41:26.000Z</time>
      </trkpt>
      <trkpt lat="43.56483" lon="6.42262">
        <ele>260</ele>
        <time>2026-02-25T07:41:35.000Z</time>
      </trkpt>
      <trkpt lat="43.56493" lon="6.42267">
        <ele>260</ele>
        <time>2026-02-25T07:41:44.000Z</time>
      </trkpt>
      <trkpt lat="43.56502" lon="6.42269">
        <ele>261</ele>
        <time>2026-02-25T07:41:53.000Z</time>
      </trkpt>
      <trkpt lat="43.56513" lon="6.42268">
        <ele>261</ele>
        <time>2026-02-25T07:42:02.000Z</time>
      </trkpt>
      <trkpt lat="43.56523" lon="6.42269">
        <ele>261</ele>
        <time>2026-02-25T07:42:11.000Z</time>
      </trkpt>
      <trkpt lat="43.56533" lon="6.42269">
        <ele>261</ele>
        <time>2026-02-25T07:42:20.000Z</time>
      </trkpt>
      <trkpt lat="43.56543" lon="6.42269">
        <ele>261</ele>
        <time>2026-02-25T07:42:29.000Z</time>
      </trkpt>
      <trkpt lat="43.56554" lon="6.42268">
        <ele>261</ele>
        <time>2026-02-25T07:42:38.000Z</time>
      </trkpt>
      <trkpt lat="43.56564" lon="6.42266">
        <ele>261</ele>
        <time>2026-02-25T07:42:47.000Z</time>
      </trkpt>
      <trkpt lat="43.56574" lon="6.42262">
        <ele>261</ele>
        <time>2026-02-25T07:42:59.000Z</time>
      </trkpt>
      <trkpt lat="43.56584" lon="6.42257">
        <ele>261</ele>
        <time>2026-02-25T07:43:08.000Z</time>
      </trkpt>
      <trkpt lat="43.56593" lon="6.42249">
        <ele>260</ele>
        <time>2026-02-25T07:43:17.000Z</time>
      </trkpt>
      <trkpt lat="43.56601" lon="6.42241">
        <ele>261</ele>
        <time>2026-02-25T07:43:26.000Z</time>
      </trkpt>
      <trkpt lat="43.5661" lon="6.42233">
        <ele>261</ele>
        <time>2026-02-25T07:43:35.000Z</time>
      </trkpt>
      <trkpt lat="43.5662" lon="6.42225">
        <ele>261</ele>
        <time>2026-02-25T07:43:44.000Z</time>
      </trkpt>
      <trkpt lat="43.56627" lon="6.42217">
        <ele>261</ele>
        <time>2026-02-25T07:43:53.000Z</time>
      </trkpt>
      <trkpt lat="43.56635" lon="6.4221">
        <ele>261</ele>
        <time>2026-02-25T07:44:02.000Z</time>
      </trkpt>
      <trkpt lat="43.56643" lon="6.42201">
        <ele>261</ele>
        <time>2026-02-25T07:44:11.000Z</time>
      </trkpt>
      <trkpt lat="43.56649" lon="6.42191">
        <ele>262</ele>
        <time>2026-02-25T07:44:20.000Z</time>
      </trkpt>
      <trkpt lat="43.56656" lon="6.42183">
        <ele>263</ele>
        <time>2026-02-25T07:44:29.000Z</time>
      </trkpt>
      <trkpt lat="43.56666" lon="6.42176">
        <ele>263</ele>
        <time>2026-02-25T07:44:41.000Z</time>
      </trkpt>
      <trkpt lat="43.56675" lon="6.42172">
        <ele>264</ele>
        <time>2026-02-25T07:44:50.000Z</time>
      </trkpt>
      <trkpt lat="43.56684" lon="6.42167">
        <ele>265</ele>
        <time>2026-02-25T07:44:59.000Z</time>
      </trkpt>
      <trkpt lat="43.56693" lon="6.4216">
        <ele>266</ele>
        <time>2026-02-25T07:45:08.000Z</time>
      </trkpt>
      <trkpt lat="43.56703" lon="6.42154">
        <ele>266</ele>
        <time>2026-02-25T07:45:17.000Z</time>
      </trkpt>
      <trkpt lat="43.56713" lon="6.42146">
        <ele>267</ele>
        <time>2026-02-25T07:45:32.000Z</time>
      </trkpt>
      <trkpt lat="43.56723" lon="6.42136">
        <ele>267</ele>
        <time>2026-02-25T07:45:41.000Z</time>
      </trkpt>
      <trkpt lat="43.56729" lon="6.42125">
        <ele>267</ele>
        <time>2026-02-25T07:45:50.000Z</time>
      </trkpt>
      <trkpt lat="43.56737" lon="6.42112">
        <ele>266</ele>
        <time>2026-02-25T07:46:02.000Z</time>
      </trkpt>
      <trkpt lat="43.56743" lon="6.42102">
        <ele>266</ele>
        <time>2026-02-25T07:46:11.000Z</time>
      </trkpt>
      <trkpt lat="43.56747" lon="6.42091">
        <ele>266</ele>
        <time>2026-02-25T07:46:23.000Z</time>
      </trkpt>
      <trkpt lat="43.56755" lon="6.42083">
        <ele>267</ele>
        <time>2026-02-25T07:46:33.000Z</time>
      </trkpt>
      <trkpt lat="43.56763" lon="6.42073">
        <ele>267</ele>
        <time>2026-02-25T07:46:42.000Z</time>
      </trkpt>
      <trkpt lat="43.56771" lon="6.42065">
        <ele>267</ele>
        <time>2026-02-25T07:46:51.000Z</time>
      </trkpt>
      <trkpt lat="43.56779" lon="6.42056">
        <ele>267</ele>
        <time>2026-02-25T07:46:57.000Z</time>
      </trkpt>
      <trkpt lat="43.56788" lon="6.42047">
        <ele>268</ele>
        <time>2026-02-25T07:47:09.000Z</time>
      </trkpt>
      <trkpt lat="43.56796" lon="6.42037">
        <ele>268</ele>
        <time>2026-02-25T07:47:20.000Z</time>
      </trkpt>
      <trkpt lat="43.56805" lon="6.42026">
        <ele>270</ele>
        <time>2026-02-25T07:47:35.000Z</time>
      </trkpt>
      <trkpt lat="43.56813" lon="6.4202">
        <ele>271</ele>
        <time>2026-02-25T07:47:41.000Z</time>
      </trkpt>
      <trkpt lat="43.56822" lon="6.42012">
        <ele>272</ele>
        <time>2026-02-25T07:47:50.000Z</time>
      </trkpt>
      <trkpt lat="43.56832" lon="6.42004">
        <ele>274</ele>
        <time>2026-02-25T07:47:59.000Z</time>
      </trkpt>
      <trkpt lat="43.56839" lon="6.41997">
        <ele>276</ele>
        <time>2026-02-25T07:48:50.000Z</time>
      </trkpt>
      <trkpt lat="43.56838" lon="6.41985">
        <ele>279</ele>
        <time>2026-02-25T07:49:08.000Z</time>
      </trkpt>
      <trkpt lat="43.56838" lon="6.41973">
        <ele>281</ele>
        <time>2026-02-25T07:49:38.000Z</time>
      </trkpt>
      <trkpt lat="43.56843" lon="6.41962">
        <ele>283</ele>
        <time>2026-02-25T07:49:53.000Z</time>
      </trkpt>
      <trkpt lat="43.56847" lon="6.41951">
        <ele>285</ele>
        <time>2026-02-25T07:50:05.000Z</time>
      </trkpt>
      <trkpt lat="43.56845" lon="6.41939">
        <ele>286</ele>
        <time>2026-02-25T07:50:32.000Z</time>
      </trkpt>
      <trkpt lat="43.56848" lon="6.41928">
        <ele>287</ele>
        <time>2026-02-25T07:50:53.000Z</time>
      </trkpt>
      <trkpt lat="43.56856" lon="6.41922">
        <ele>289</ele>
        <time>2026-02-25T07:51:05.000Z</time>
      </trkpt>
      <trkpt lat="43.56865" lon="6.41916">
        <ele>292</ele>
        <time>2026-02-25T07:51:14.000Z</time>
      </trkpt>
      <trkpt lat="43.56875" lon="6.4191">
        <ele>294</ele>
        <time>2026-02-25T07:51:23.000Z</time>
      </trkpt>
      <trkpt lat="43.5688" lon="6.419">
        <ele>297</ele>
        <time>2026-02-25T07:51:44.000Z</time>
      </trkpt>
      <trkpt lat="43.5688" lon="6.41888">
        <ele>299</ele>
        <time>2026-02-25T07:52:11.000Z</time>
      </trkpt>
      <trkpt lat="43.56885" lon="6.41878">
        <ele>302</ele>
        <time>2026-02-25T07:52:53.000Z</time>
      </trkpt>
      <trkpt lat="43.56891" lon="6.41869">
        <ele>304</ele>
        <time>2026-02-25T07:54:26.000Z</time>
      </trkpt>
      <trkpt lat="43.56895" lon="6.41857">
        <ele>307</ele>
        <time>2026-02-25T07:54:38.000Z</time>
      </trkpt>
      <trkpt lat="43.56899" lon="6.41846">
        <ele>310</ele>
        <time>2026-02-25T07:54:50.000Z</time>
      </trkpt>
      <trkpt lat="43.56901" lon="6.41834">
        <ele>313</ele>
        <time>2026-02-25T07:55:02.000Z</time>
      </trkpt>
      <trkpt lat="43.56897" lon="6.41824">
        <ele>316</ele>
        <time>2026-02-25T07:55:20.000Z</time>
      </trkpt>
      <trkpt lat="43.56893" lon="6.41813">
        <ele>318</ele>
        <time>2026-02-25T07:55:44.000Z</time>
      </trkpt>
      <trkpt lat="43.56893" lon="6.418">
        <ele>321</ele>
        <time>2026-02-25T07:56:00.000Z</time>
      </trkpt>
      <trkpt lat="43.56896" lon="6.41788">
        <ele>323</ele>
        <time>2026-02-25T07:56:15.000Z</time>
      </trkpt>
      <trkpt lat="43.56893" lon="6.41778">
        <ele>325</ele>
        <time>2026-02-25T07:56:33.000Z</time>
      </trkpt>
      <trkpt lat="43.56898" lon="6.41767">
        <ele>327</ele>
        <time>2026-02-25T07:57:36.000Z</time>
      </trkpt>
      <trkpt lat="43.56903" lon="6.41755">
        <ele>328</ele>
        <time>2026-02-25T07:57:51.000Z</time>
      </trkpt>
      <trkpt lat="43.56907" lon="6.41742">
        <ele>330</ele>
        <time>2026-02-25T07:58:00.000Z</time>
      </trkpt>
      <trkpt lat="43.56912" lon="6.41729">
        <ele>332</ele>
        <time>2026-02-25T07:58:23.000Z</time>
      </trkpt>
      <trkpt lat="43.56918" lon="6.41716">
        <ele>334</ele>
        <time>2026-02-25T07:58:35.000Z</time>
      </trkpt>
      <trkpt lat="43.56923" lon="6.41705">
        <ele>336</ele>
        <time>2026-02-25T07:58:47.000Z</time>
      </trkpt>
      <trkpt lat="43.56921" lon="6.41693">
        <ele>339</ele>
        <time>2026-02-25T07:59:08.000Z</time>
      </trkpt>
      <trkpt lat="43.56915" lon="6.41682">
        <ele>342</ele>
        <time>2026-02-25T07:59:32.000Z</time>
      </trkpt>
      <trkpt lat="43.56911" lon="6.41671">
        <ele>344</ele>
        <time>2026-02-25T07:59:50.000Z</time>
      </trkpt>
      <trkpt lat="43.56912" lon="6.41659">
        <ele>347</ele>
        <time>2026-02-25T08:00:35.000Z</time>
      </trkpt>
      <trkpt lat="43.56919" lon="6.41652">
        <ele>349</ele>
        <time>2026-02-25T08:02:50.000Z</time>
      </trkpt>
      <trkpt lat="43.56927" lon="6.41643">
        <ele>352</ele>
        <time>2026-02-25T08:03:17.000Z</time>
      </trkpt>
      <trkpt lat="43.56935" lon="6.41638">
        <ele>353</ele>
        <time>2026-02-25T08:03:38.000Z</time>
      </trkpt>
      <trkpt lat="43.56943" lon="6.41633">
        <ele>355</ele>
        <time>2026-02-25T08:03:50.000Z</time>
      </trkpt>
      <trkpt lat="43.56953" lon="6.41629">
        <ele>356</ele>
        <time>2026-02-25T08:04:17.000Z</time>
      </trkpt>
      <trkpt lat="43.56963" lon="6.41628">
        <ele>357</ele>
        <time>2026-02-25T08:04:29.000Z</time>
      </trkpt>
      <trkpt lat="43.56972" lon="6.41628">
        <ele>358</ele>
        <time>2026-02-25T08:04:38.000Z</time>
      </trkpt>
      <trkpt lat="43.56981" lon="6.41634">
        <ele>359</ele>
        <time>2026-02-25T08:04:50.000Z</time>
      </trkpt>
      <trkpt lat="43.56986" lon="6.41645">
        <ele>361</ele>
        <time>2026-02-25T08:05:05.000Z</time>
      </trkpt>
      <trkpt lat="43.56994" lon="6.41644">
        <ele>363</ele>
        <time>2026-02-25T08:05:29.000Z</time>
      </trkpt>
      <trkpt lat="43.57001" lon="6.41648">
        <ele>365</ele>
        <time>2026-02-25T08:05:41.000Z</time>
      </trkpt>
      <trkpt lat="43.57008" lon="6.41642">
        <ele>367</ele>
        <time>2026-02-25T08:05:59.000Z</time>
      </trkpt>
      <trkpt lat="43.57015" lon="6.41634">
        <ele>369</ele>
        <time>2026-02-25T08:06:11.000Z</time>
      </trkpt>
      <trkpt lat="43.57022" lon="6.41625">
        <ele>371</ele>
        <time>2026-02-25T08:06:38.000Z</time>
      </trkpt>
      <trkpt lat="43.57031" lon="6.41618">
        <ele>373</ele>
        <time>2026-02-25T08:06:56.000Z</time>
      </trkpt>
      <trkpt lat="43.57042" lon="6.41612">
        <ele>376</ele>
        <time>2026-02-25T08:07:14.000Z</time>
      </trkpt>
      <trkpt lat="43.57051" lon="6.41604">
        <ele>379</ele>
        <time>2026-02-25T08:07:32.000Z</time>
      </trkpt>
      <trkpt lat="43.57056" lon="6.41592">
        <ele>382</ele>
        <time>2026-02-25T08:07:53.000Z</time>
      </trkpt>
      <trkpt lat="43.57053" lon="6.41581">
        <ele>386</ele>
        <time>2026-02-25T08:08:11.000Z</time>
      </trkpt>
      <trkpt lat="43.57049" lon="6.41568">
        <ele>389</ele>
        <time>2026-02-25T08:08:44.000Z</time>
      </trkpt>
      <trkpt lat="43.57049" lon="6.41555">
        <ele>392</ele>
        <time>2026-02-25T08:09:03.000Z</time>
      </trkpt>
      <trkpt lat="43.57054" lon="6.41545">
        <ele>395</ele>
        <time>2026-02-25T08:09:24.000Z</time>
      </trkpt>
      <trkpt lat="43.57058" lon="6.41534">
        <ele>398</ele>
        <time>2026-02-25T08:09:45.000Z</time>
      </trkpt>
      <trkpt lat="43.57062" lon="6.41523">
        <ele>400</ele>
        <time>2026-02-25T08:10:03.000Z</time>
      </trkpt>
      <trkpt lat="43.57064" lon="6.41511">
        <ele>403</ele>
        <time>2026-02-25T08:10:24.000Z</time>
      </trkpt>
      <trkpt lat="43.57066" lon="6.41499">
        <ele>406</ele>
        <time>2026-02-25T08:10:48.000Z</time>
      </trkpt>
      <trkpt lat="43.57067" lon="6.41487">
        <ele>409</ele>
        <time>2026-02-25T08:11:12.000Z</time>
      </trkpt>
      <trkpt lat="43.57072" lon="6.41476">
        <ele>411</ele>
        <time>2026-02-25T08:11:27.000Z</time>
      </trkpt>
      <trkpt lat="43.57076" lon="6.41464">
        <ele>414</ele>
        <time>2026-02-25T08:11:51.000Z</time>
      </trkpt>
      <trkpt lat="43.5708" lon="6.41453">
        <ele>416</ele>
        <time>2026-02-25T08:12:12.000Z</time>
      </trkpt>
      <trkpt lat="43.57086" lon="6.41444">
        <ele>419</ele>
        <time>2026-02-25T08:12:24.000Z</time>
      </trkpt>
      <trkpt lat="43.57091" lon="6.41433">
        <ele>421</ele>
        <time>2026-02-25T08:12:45.000Z</time>
      </trkpt>
      <trkpt lat="43.57091" lon="6.4142">
        <ele>424</ele>
        <time>2026-02-25T08:13:06.000Z</time>
      </trkpt>
      <trkpt lat="43.57091" lon="6.41407">
        <ele>427</ele>
        <time>2026-02-25T08:13:39.000Z</time>
      </trkpt>
      <trkpt lat="43.57094" lon="6.41394">
        <ele>430</ele>
        <time>2026-02-25T08:13:57.000Z</time>
      </trkpt>
      <trkpt lat="43.57097" lon="6.4138">
        <ele>432</ele>
        <time>2026-02-25T08:14:15.000Z</time>
      </trkpt>
      <trkpt lat="43.57099" lon="6.41368">
        <ele>434</ele>
        <time>2026-02-25T08:14:54.000Z</time>
      </trkpt>
      <trkpt lat="43.57104" lon="6.41356">
        <ele>436</ele>
        <time>2026-02-25T08:15:15.000Z</time>
      </trkpt>
      <trkpt lat="43.57105" lon="6.41344">
        <ele>439</ele>
        <time>2026-02-25T08:15:54.000Z</time>
      </trkpt>
      <trkpt lat="43.57104" lon="6.41331">
        <ele>440</ele>
        <time>2026-02-25T08:16:15.000Z</time>
      </trkpt>
      <trkpt lat="43.57109" lon="6.4132">
        <ele>441</ele>
        <time>2026-02-25T08:16:39.000Z</time>
      </trkpt>
      <trkpt lat="43.57114" lon="6.41306">
        <ele>442</ele>
        <time>2026-02-25T08:16:51.000Z</time>
      </trkpt>
      <trkpt lat="43.57118" lon="6.41294">
        <ele>442</ele>
        <time>2026-02-25T08:18:51.000Z</time>
      </trkpt>
      <trkpt lat="43.57124" lon="6.41284">
        <ele>443</ele>
        <time>2026-02-25T08:19:48.000Z</time>
      </trkpt>
      <trkpt lat="43.5713" lon="6.41273">
        <ele>444</ele>
        <time>2026-02-25T08:19:57.000Z</time>
      </trkpt>
      <trkpt lat="43.57137" lon="6.41263">
        <ele>444</ele>
        <time>2026-02-25T08:20:06.000Z</time>
      </trkpt>
      <trkpt lat="43.57143" lon="6.41251">
        <ele>445</ele>
        <time>2026-02-25T08:20:21.000Z</time>
      </trkpt>
      <trkpt lat="43.5714" lon="6.41238">
        <ele>446</ele>
        <time>2026-02-25T08:20:39.000Z</time>
      </trkpt>
      <trkpt lat="43.57134" lon="6.41229">
        <ele>448</ele>
        <time>2026-02-25T08:20:51.000Z</time>
      </trkpt>
      <trkpt lat="43.57133" lon="6.41216">
        <ele>449</ele>
        <time>2026-02-25T08:21:00.000Z</time>
      </trkpt>
      <trkpt lat="43.57136" lon="6.41204">
        <ele>450</ele>
        <time>2026-02-25T08:21:15.000Z</time>
      </trkpt>
      <trkpt lat="43.57138" lon="6.4119">
        <ele>451</ele>
        <time>2026-02-25T08:21:30.000Z</time>
      </trkpt>
      <trkpt lat="43.57142" lon="6.41178">
        <ele>452</ele>
        <time>2026-02-25T08:21:42.000Z</time>
      </trkpt>
      <trkpt lat="43.57149" lon="6.41168">
        <ele>452</ele>
        <time>2026-02-25T08:21:54.000Z</time>
      </trkpt>
      <trkpt lat="43.57154" lon="6.41157">
        <ele>453</ele>
        <time>2026-02-25T08:22:03.000Z</time>
      </trkpt>
      <trkpt lat="43.57157" lon="6.41145">
        <ele>454</ele>
        <time>2026-02-25T08:22:12.000Z</time>
      </trkpt>
      <trkpt lat="43.57159" lon="6.41132">
        <ele>454</ele>
        <time>2026-02-25T08:22:27.000Z</time>
      </trkpt>
      <trkpt lat="43.57161" lon="6.41119">
        <ele>455</ele>
        <time>2026-02-25T08:22:36.000Z</time>
      </trkpt>
      <trkpt lat="43.57164" lon="6.41106">
        <ele>455</ele>
        <time>2026-02-25T08:22:48.000Z</time>
      </trkpt>
      <trkpt lat="43.57167" lon="6.41092">
        <ele>456</ele>
        <time>2026-02-25T08:23:00.000Z</time>
      </trkpt>
      <trkpt lat="43.57169" lon="6.41079">
        <ele>456</ele>
        <time>2026-02-25T08:23:09.000Z</time>
      </trkpt>
      <trkpt lat="43.57174" lon="6.41068">
        <ele>457</ele>
        <time>2026-02-25T08:23:18.000Z</time>
      </trkpt>
      <trkpt lat="43.57179" lon="6.41059">
        <ele>458</ele>
        <time>2026-02-25T08:23:27.000Z</time>
      </trkpt>
      <trkpt lat="43.57182" lon="6.41048">
        <ele>459</ele>
        <time>2026-02-25T08:23:36.000Z</time>
      </trkpt>
      <trkpt lat="43.57184" lon="6.41036">
        <ele>460</ele>
        <time>2026-02-25T08:23:45.000Z</time>
      </trkpt>
      <trkpt lat="43.57189" lon="6.41025">
        <ele>461</ele>
        <time>2026-02-25T08:23:54.000Z</time>
      </trkpt>
      <trkpt lat="43.57187" lon="6.41015">
        <ele>462</ele>
        <time>2026-02-25T08:24:12.000Z</time>
      </trkpt>
      <trkpt lat="43.5718" lon="6.41019">
        <ele>464</ele>
        <time>2026-02-25T08:24:24.000Z</time>
      </trkpt>
      <trkpt lat="43.57171" lon="6.41017">
        <ele>466</ele>
        <time>2026-02-25T08:24:42.000Z</time>
      </trkpt>
      <trkpt lat="43.57163" lon="6.4101">
        <ele>467</ele>
        <time>2026-02-25T08:25:09.000Z</time>
      </trkpt>
      <trkpt lat="43.57156" lon="6.41004">
        <ele>468</ele>
        <time>2026-02-25T08:25:39.000Z</time>
      </trkpt>
      <trkpt lat="43.57149" lon="6.41008">
        <ele>469</ele>
        <time>2026-02-25T08:26:36.000Z</time>
      </trkpt>
      <trkpt lat="43.57146" lon="6.4102">
        <ele>470</ele>
        <time>2026-02-25T08:26:48.000Z</time>
      </trkpt>
      <trkpt lat="43.57142" lon="6.41031">
        <ele>471</ele>
        <time>2026-02-25T08:26:57.000Z</time>
      </trkpt>
      <trkpt lat="43.57134" lon="6.4104">
        <ele>473</ele>
        <time>2026-02-25T08:27:09.000Z</time>
      </trkpt>
      <trkpt lat="43.57124" lon="6.41047">
        <ele>474</ele>
        <time>2026-02-25T08:27:24.000Z</time>
      </trkpt>
      <trkpt lat="43.57114" lon="6.41049">
        <ele>475</ele>
        <time>2026-02-25T08:27:39.000Z</time>
      </trkpt>
      <trkpt lat="43.57104" lon="6.41045">
        <ele>475</ele>
        <time>2026-02-25T08:27:57.000Z</time>
      </trkpt>
      <trkpt lat="43.57094" lon="6.41043">
        <ele>476</ele>
        <time>2026-02-25T08:28:15.000Z</time>
      </trkpt>
      <trkpt lat="43.57083" lon="6.41042">
        <ele>477</ele>
        <time>2026-02-25T08:28:27.000Z</time>
      </trkpt>
      <trkpt lat="43.57074" lon="6.41048">
        <ele>478</ele>
        <time>2026-02-25T08:28:36.000Z</time>
      </trkpt>
      <trkpt lat="43.57065" lon="6.41054">
        <ele>479</ele>
        <time>2026-02-25T08:28:48.000Z</time>
      </trkpt>
      <trkpt lat="43.57058" lon="6.41056">
        <ele>480</ele>
        <time>2026-02-25T08:28:57.000Z</time>
      </trkpt>
      <trkpt lat="43.57058" lon="6.41045">
        <ele>481</ele>
        <time>2026-02-25T08:29:15.000Z</time>
      </trkpt>
      <trkpt lat="43.5705" lon="6.41044">
        <ele>483</ele>
        <time>2026-02-25T08:29:48.000Z</time>
      </trkpt>
      <trkpt lat="43.57042" lon="6.41048">
        <ele>484</ele>
        <time>2026-02-25T08:30:00.000Z</time>
      </trkpt>
      <trkpt lat="43.57034" lon="6.41053">
        <ele>485</ele>
        <time>2026-02-25T08:30:12.000Z</time>
      </trkpt>
      <trkpt lat="43.57024" lon="6.41055">
        <ele>487</ele>
        <time>2026-02-25T08:30:27.000Z</time>
      </trkpt>
      <trkpt lat="43.57015" lon="6.41057">
        <ele>488</ele>
        <time>2026-02-25T08:30:51.000Z</time>
      </trkpt>
      <trkpt lat="43.57006" lon="6.41057">
        <ele>488</ele>
        <time>2026-02-25T08:31:33.000Z</time>
      </trkpt>
      <trkpt lat="43.56998" lon="6.41055">
        <ele>489</ele>
        <time>2026-02-25T08:31:54.000Z</time>
      </trkpt>
      <trkpt lat="43.56991" lon="6.41049">
        <ele>489</ele>
        <time>2026-02-25T08:32:12.000Z</time>
      </trkpt>
      <trkpt lat="43.56981" lon="6.41046">
        <ele>490</ele>
        <time>2026-02-25T08:32:24.000Z</time>
      </trkpt>
      <trkpt lat="43.5697" lon="6.41047">
        <ele>490</ele>
        <time>2026-02-25T08:32:39.000Z</time>
      </trkpt>
      <trkpt lat="43.56959" lon="6.41047">
        <ele>491</ele>
        <time>2026-02-25T08:32:48.000Z</time>
      </trkpt>
      <trkpt lat="43.56948" lon="6.41043">
        <ele>492</ele>
        <time>2026-02-25T08:33:00.000Z</time>
      </trkpt>
      <trkpt lat="43.56938" lon="6.41043">
        <ele>493</ele>
        <time>2026-02-25T08:33:27.000Z</time>
      </trkpt>
      <trkpt lat="43.56928" lon="6.41045">
        <ele>494</ele>
        <time>2026-02-25T08:33:45.000Z</time>
      </trkpt>
      <trkpt lat="43.56918" lon="6.41046">
        <ele>494</ele>
        <time>2026-02-25T08:34:03.000Z</time>
      </trkpt>
      <trkpt lat="43.5691" lon="6.4105">
        <ele>495</ele>
        <time>2026-02-25T08:34:15.000Z</time>
      </trkpt>
      <trkpt lat="43.569" lon="6.41054">
        <ele>495</ele>
        <time>2026-02-25T08:34:27.000Z</time>
      </trkpt>
      <trkpt lat="43.5689" lon="6.41057">
        <ele>496</ele>
        <time>2026-02-25T08:34:36.000Z</time>
      </trkpt>
      <trkpt lat="43.56881" lon="6.4106">
        <ele>497</ele>
        <time>2026-02-25T08:34:48.000Z</time>
      </trkpt>
      <trkpt lat="43.56872" lon="6.41062">
        <ele>499</ele>
        <time>2026-02-25T08:34:57.000Z</time>
      </trkpt>
      <trkpt lat="43.56861" lon="6.41064">
        <ele>501</ele>
        <time>2026-02-25T08:35:09.000Z</time>
      </trkpt>
      <trkpt lat="43.56851" lon="6.41063">
        <ele>503</ele>
        <time>2026-02-25T08:35:24.000Z</time>
      </trkpt>
      <trkpt lat="43.56841" lon="6.41061">
        <ele>505</ele>
        <time>2026-02-25T08:35:39.000Z</time>
      </trkpt>
      <trkpt lat="43.56831" lon="6.41059">
        <ele>506</ele>
        <time>2026-02-25T08:35:54.000Z</time>
      </trkpt>
      <trkpt lat="43.56821" lon="6.41056">
        <ele>508</ele>
        <time>2026-02-25T08:36:06.000Z</time>
      </trkpt>
      <trkpt lat="43.56812" lon="6.41053">
        <ele>509</ele>
        <time>2026-02-25T08:36:18.000Z</time>
      </trkpt>
      <trkpt lat="43.56803" lon="6.41048">
        <ele>510</ele>
        <time>2026-02-25T08:36:33.000Z</time>
      </trkpt>
      <trkpt lat="43.56795" lon="6.41042">
        <ele>511</ele>
        <time>2026-02-25T08:36:48.000Z</time>
      </trkpt>
      <trkpt lat="43.56786" lon="6.41036">
        <ele>512</ele>
        <time>2026-02-25T08:36:57.000Z</time>
      </trkpt>
      <trkpt lat="43.56777" lon="6.41033">
        <ele>514</ele>
        <time>2026-02-25T08:37:06.000Z</time>
      </trkpt>
      <trkpt lat="43.56769" lon="6.41028">
        <ele>515</ele>
        <time>2026-02-25T08:37:18.000Z</time>
      </trkpt>
      <trkpt lat="43.56759" lon="6.41022">
        <ele>516</ele>
        <time>2026-02-25T08:37:30.000Z</time>
      </trkpt>
      <trkpt lat="43.56751" lon="6.41015">
        <ele>517</ele>
        <time>2026-02-25T08:37:39.000Z</time>
      </trkpt>
      <trkpt lat="43.56745" lon="6.41006">
        <ele>518</ele>
        <time>2026-02-25T08:37:51.000Z</time>
      </trkpt>
      <trkpt lat="43.5674" lon="6.40996">
        <ele>519</ele>
        <time>2026-02-25T08:38:06.000Z</time>
      </trkpt>
      <trkpt lat="43.56732" lon="6.40985">
        <ele>519</ele>
        <time>2026-02-25T08:38:18.000Z</time>
      </trkpt>
      <trkpt lat="43.56725" lon="6.40976">
        <ele>521</ele>
        <time>2026-02-25T08:38:30.000Z</time>
      </trkpt>
      <trkpt lat="43.5672" lon="6.40964">
        <ele>523</ele>
        <time>2026-02-25T08:38:39.000Z</time>
      </trkpt>
      <trkpt lat="43.56715" lon="6.40953">
        <ele>524</ele>
        <time>2026-02-25T08:38:51.000Z</time>
      </trkpt>
      <trkpt lat="43.5671" lon="6.40942">
        <ele>526</ele>
        <time>2026-02-25T08:39:09.000Z</time>
      </trkpt>
      <trkpt lat="43.56703" lon="6.40932">
        <ele>527</ele>
        <time>2026-02-25T08:41:12.000Z</time>
      </trkpt>
      <trkpt lat="43.56699" lon="6.40919">
        <ele>527</ele>
        <time>2026-02-25T08:41:24.000Z</time>
      </trkpt>
      <trkpt lat="43.56698" lon="6.40907">
        <ele>529</ele>
        <time>2026-02-25T08:41:36.000Z</time>
      </trkpt>
      <trkpt lat="43.56707" lon="6.40904">
        <ele>530</ele>
        <time>2026-02-25T08:41:57.000Z</time>
      </trkpt>
      <trkpt lat="43.56714" lon="6.40909">
        <ele>531</ele>
        <time>2026-02-25T08:42:09.000Z</time>
      </trkpt>
      <trkpt lat="43.56722" lon="6.40915">
        <ele>533</ele>
        <time>2026-02-25T08:42:24.000Z</time>
      </trkpt>
      <trkpt lat="43.5673" lon="6.40922">
        <ele>534</ele>
        <time>2026-02-25T08:42:36.000Z</time>
      </trkpt>
      <trkpt lat="43.5674" lon="6.40928">
        <ele>535</ele>
        <time>2026-02-25T08:42:51.000Z</time>
      </trkpt>
      <trkpt lat="43.5675" lon="6.40933">
        <ele>536</ele>
        <time>2026-02-25T08:43:03.000Z</time>
      </trkpt>
      <trkpt lat="43.56761" lon="6.40936">
        <ele>538</ele>
        <time>2026-02-25T08:43:39.000Z</time>
      </trkpt>
      <trkpt lat="43.56771" lon="6.4094">
        <ele>540</ele>
        <time>2026-02-25T08:43:51.000Z</time>
      </trkpt>
      <trkpt lat="43.5678" lon="6.40942">
        <ele>542</ele>
        <time>2026-02-25T08:44:03.000Z</time>
      </trkpt>
      <trkpt lat="43.5679" lon="6.4094">
        <ele>543</ele>
        <time>2026-02-25T08:44:21.000Z</time>
      </trkpt>
      <trkpt lat="43.56798" lon="6.40934">
        <ele>545</ele>
        <time>2026-02-25T08:44:30.000Z</time>
      </trkpt>
      <trkpt lat="43.56807" lon="6.40928">
        <ele>546</ele>
        <time>2026-02-25T08:44:39.000Z</time>
      </trkpt>
      <trkpt lat="43.56814" lon="6.40922">
        <ele>548</ele>
        <time>2026-02-25T08:44:48.000Z</time>
      </trkpt>
      <trkpt lat="43.56824" lon="6.40917">
        <ele>549</ele>
        <time>2026-02-25T08:45:00.000Z</time>
      </trkpt>
      <trkpt lat="43.56834" lon="6.40913">
        <ele>551</ele>
        <time>2026-02-25T08:45:09.000Z</time>
      </trkpt>
      <trkpt lat="43.56842" lon="6.40906">
        <ele>552</ele>
        <time>2026-02-25T08:45:21.000Z</time>
      </trkpt>
      <trkpt lat="43.56847" lon="6.40894">
        <ele>553</ele>
        <time>2026-02-25T08:47:36.000Z</time>
      </trkpt>
      <trkpt lat="43.56845" lon="6.40883">
        <ele>554</ele>
        <time>2026-02-25T08:47:45.000Z</time>
      </trkpt>
      <trkpt lat="43.56838" lon="6.40872">
        <ele>555</ele>
        <time>2026-02-25T08:47:57.000Z</time>
      </trkpt>
      <trkpt lat="43.5683" lon="6.40869">
        <ele>556</ele>
        <time>2026-02-25T08:48:09.000Z</time>
      </trkpt>
      <trkpt lat="43.56821" lon="6.40865">
        <ele>558</ele>
        <time>2026-02-25T08:48:21.000Z</time>
      </trkpt>
      <trkpt lat="43.56815" lon="6.40856">
        <ele>559</ele>
        <time>2026-02-25T08:48:33.000Z</time>
      </trkpt>
      <trkpt lat="43.56812" lon="6.40844">
        <ele>560</ele>
        <time>2026-02-25T08:48:45.000Z</time>
      </trkpt>
      <trkpt lat="43.56817" lon="6.40834">
        <ele>561</ele>
        <time>2026-02-25T08:49:27.000Z</time>
      </trkpt>
      <trkpt lat="43.56825" lon="6.40827">
        <ele>562</ele>
        <time>2026-02-25T08:49:36.000Z</time>
      </trkpt>
      <trkpt lat="43.56832" lon="6.40819">
        <ele>563</ele>
        <time>2026-02-25T08:49:48.000Z</time>
      </trkpt>
      <trkpt lat="43.56839" lon="6.40809">
        <ele>563</ele>
        <time>2026-02-25T08:50:00.000Z</time>
      </trkpt>
      <trkpt lat="43.56838" lon="6.40795">
        <ele>564</ele>
        <time>2026-02-25T08:50:12.000Z</time>
      </trkpt>
      <trkpt lat="43.56837" lon="6.4078">
        <ele>565</ele>
        <time>2026-02-25T08:50:24.000Z</time>
      </trkpt>
      <trkpt lat="43.5684" lon="6.40767">
        <ele>566</ele>
        <time>2026-02-25T08:50:36.000Z</time>
      </trkpt>
      <trkpt lat="43.56844" lon="6.40756">
        <ele>567</ele>
        <time>2026-02-25T08:50:48.000Z</time>
      </trkpt>
      <trkpt lat="43.56851" lon="6.40746">
        <ele>568</ele>
        <time>2026-02-25T08:51:00.000Z</time>
      </trkpt>
      <trkpt lat="43.56857" lon="6.40736">
        <ele>569</ele>
        <time>2026-02-25T08:51:09.000Z</time>
      </trkpt>
      <trkpt lat="43.56858" lon="6.40723">
        <ele>571</ele>
        <time>2026-02-25T08:51:21.000Z</time>
      </trkpt>
      <trkpt lat="43.5686" lon="6.4071">
        <ele>572</ele>
        <time>2026-02-25T08:51:33.000Z</time>
      </trkpt>
      <trkpt lat="43.56866" lon="6.407">
        <ele>574</ele>
        <time>2026-02-25T08:51:45.000Z</time>
      </trkpt>
      <trkpt lat="43.56875" lon="6.40696">
        <ele>575</ele>
        <time>2026-02-25T08:51:54.000Z</time>
      </trkpt>
      <trkpt lat="43.56884" lon="6.40692">
        <ele>576</ele>
        <time>2026-02-25T08:52:09.000Z</time>
      </trkpt>
      <trkpt lat="43.56893" lon="6.40688">
        <ele>577</ele>
        <time>2026-02-25T08:52:18.000Z</time>
      </trkpt>
      <trkpt lat="43.56901" lon="6.40681">
        <ele>578</ele>
        <time>2026-02-25T08:52:30.000Z</time>
      </trkpt>
      <trkpt lat="43.56907" lon="6.4067">
        <ele>579</ele>
        <time>2026-02-25T08:52:45.000Z</time>
      </trkpt>
      <trkpt lat="43.56911" lon="6.40658">
        <ele>580</ele>
        <time>2026-02-25T08:52:57.000Z</time>
      </trkpt>
      <trkpt lat="43.56913" lon="6.40643">
        <ele>581</ele>
        <time>2026-02-25T08:53:12.000Z</time>
      </trkpt>
      <trkpt lat="43.56912" lon="6.4063">
        <ele>582</ele>
        <time>2026-02-25T08:53:24.000Z</time>
      </trkpt>
      <trkpt lat="43.56907" lon="6.40619">
        <ele>583</ele>
        <time>2026-02-25T08:53:36.000Z</time>
      </trkpt>
      <trkpt lat="43.56905" lon="6.40606">
        <ele>584</ele>
        <time>2026-02-25T08:53:48.000Z</time>
      </trkpt>
      <trkpt lat="43.56903" lon="6.40593">
        <ele>585</ele>
        <time>2026-02-25T08:53:57.000Z</time>
      </trkpt>
      <trkpt lat="43.56904" lon="6.40582">
        <ele>585</ele>
        <time>2026-02-25T08:54:06.000Z</time>
      </trkpt>
      <trkpt lat="43.56907" lon="6.4057">
        <ele>586</ele>
        <time>2026-02-25T08:54:15.000Z</time>
      </trkpt>
      <trkpt lat="43.56913" lon="6.40561">
        <ele>587</ele>
        <time>2026-02-25T08:54:33.000Z</time>
      </trkpt>
      <trkpt lat="43.56912" lon="6.4055">
        <ele>588</ele>
        <time>2026-02-25T08:54:48.000Z</time>
      </trkpt>
      <trkpt lat="43.56906" lon="6.40547">
        <ele>588</ele>
        <time>2026-02-25T08:55:51.000Z</time>
      </trkpt>
      <trkpt lat="43.56912" lon="6.40554">
        <ele>588</ele>
        <time>2026-02-25T08:56:39.000Z</time>
      </trkpt>
      <trkpt lat="43.56922" lon="6.40557">
        <ele>588</ele>
        <time>2026-02-25T08:57:03.000Z</time>
      </trkpt>
      <trkpt lat="43.56931" lon="6.40554">
        <ele>588</ele>
        <time>2026-02-25T08:57:15.000Z</time>
      </trkpt>
      <trkpt lat="43.56939" lon="6.40548">
        <ele>587</ele>
        <time>2026-02-25T08:57:27.000Z</time>
      </trkpt>
      <trkpt lat="43.56943" lon="6.40535">
        <ele>587</ele>
        <time>2026-02-25T08:57:39.000Z</time>
      </trkpt>
      <trkpt lat="43.56945" lon="6.40522">
        <ele>587</ele>
        <time>2026-02-25T08:57:51.000Z</time>
      </trkpt>
      <trkpt lat="43.56949" lon="6.40508">
        <ele>587</ele>
        <time>2026-02-25T08:58:03.000Z</time>
      </trkpt>
      <trkpt lat="43.56951" lon="6.40494">
        <ele>587</ele>
        <time>2026-02-25T08:58:12.000Z</time>
      </trkpt>
      <trkpt lat="43.56951" lon="6.40481">
        <ele>587</ele>
        <time>2026-02-25T08:58:21.000Z</time>
      </trkpt>
      <trkpt lat="43.56953" lon="6.40467">
        <ele>587</ele>
        <time>2026-02-25T08:58:33.000Z</time>
      </trkpt>
      <trkpt lat="43.56957" lon="6.40453">
        <ele>587</ele>
        <time>2026-02-25T08:58:45.000Z</time>
      </trkpt>
      <trkpt lat="43.56963" lon="6.40443">
        <ele>587</ele>
        <time>2026-02-25T08:58:57.000Z</time>
      </trkpt>
      <trkpt lat="43.56968" lon="6.40433">
        <ele>587</ele>
        <time>2026-02-25T08:59:06.000Z</time>
      </trkpt>
      <trkpt lat="43.56965" lon="6.40423">
        <ele>587</ele>
        <time>2026-02-25T08:59:45.000Z</time>
      </trkpt>
      <trkpt lat="43.56958" lon="6.40414">
        <ele>587</ele>
        <time>2026-02-25T09:00:00.000Z</time>
      </trkpt>
      <trkpt lat="43.56958" lon="6.40401">
        <ele>587</ele>
        <time>2026-02-25T09:00:15.000Z</time>
      </trkpt>
      <trkpt lat="43.56957" lon="6.40386">
        <ele>587</ele>
        <time>2026-02-25T09:00:30.000Z</time>
      </trkpt>
      <trkpt lat="43.56954" lon="6.40373">
        <ele>587</ele>
        <time>2026-02-25T09:00:42.000Z</time>
      </trkpt>
      <trkpt lat="43.56952" lon="6.40361">
        <ele>587</ele>
        <time>2026-02-25T09:01:00.000Z</time>
      </trkpt>
      <trkpt lat="43.56954" lon="6.40348">
        <ele>587</ele>
        <time>2026-02-25T09:01:27.000Z</time>
      </trkpt>
      <trkpt lat="43.56957" lon="6.40334">
        <ele>588</ele>
        <time>2026-02-25T09:01:39.000Z</time>
      </trkpt>
      <trkpt lat="43.56957" lon="6.40321">
        <ele>588</ele>
        <time>2026-02-25T09:01:51.000Z</time>
      </trkpt>
      <trkpt lat="43.56957" lon="6.40309">
        <ele>589</ele>
        <time>2026-02-25T09:02:00.000Z</time>
      </trkpt>
      <trkpt lat="43.5696" lon="6.40297">
        <ele>590</ele>
        <time>2026-02-25T09:02:10.000Z</time>
      </trkpt>
      <trkpt lat="43.56961" lon="6.40284">
        <ele>591</ele>
        <time>2026-02-25T09:02:24.000Z</time>
      </trkpt>
      <trkpt lat="43.56962" lon="6.4027">
        <ele>593</ele>
        <time>2026-02-25T09:02:38.000Z</time>
      </trkpt>
      <trkpt lat="43.56966" lon="6.40259">
        <ele>594</ele>
        <time>2026-02-25T09:02:50.000Z</time>
      </trkpt>
      <trkpt lat="43.56969" lon="6.40247">
        <ele>595</ele>
        <time>2026-02-25T09:03:01.000Z</time>
      </trkpt>
      <trkpt lat="43.56977" lon="6.40237">
        <ele>597</ele>
        <time>2026-02-25T09:03:16.000Z</time>
      </trkpt>
      <trkpt lat="43.56983" lon="6.40224">
        <ele>598</ele>
        <time>2026-02-25T09:03:31.000Z</time>
      </trkpt>
      <trkpt lat="43.56989" lon="6.40213">
        <ele>599</ele>
        <time>2026-02-25T09:03:43.000Z</time>
      </trkpt>
      <trkpt lat="43.56993" lon="6.402">
        <ele>601</ele>
        <time>2026-02-25T09:03:58.000Z</time>
      </trkpt>
      <trkpt lat="43.56996" lon="6.40186">
        <ele>602</ele>
        <time>2026-02-25T09:04:13.000Z</time>
      </trkpt>
      <trkpt lat="43.57" lon="6.40174">
        <ele>604</ele>
        <time>2026-02-25T09:04:28.000Z</time>
      </trkpt>
      <trkpt lat="43.57005" lon="6.40162">
        <ele>605</ele>
        <time>2026-02-25T09:04:40.000Z</time>
      </trkpt>
      <trkpt lat="43.57011" lon="6.40152">
        <ele>607</ele>
        <time>2026-02-25T09:04:58.000Z</time>
      </trkpt>
      <trkpt lat="43.57019" lon="6.40141">
        <ele>608</ele>
        <time>2026-02-25T09:05:13.000Z</time>
      </trkpt>
      <trkpt lat="43.57023" lon="6.40129">
        <ele>609</ele>
        <time>2026-02-25T09:05:28.000Z</time>
      </trkpt>
      <trkpt lat="43.57028" lon="6.40118">
        <ele>610</ele>
        <time>2026-02-25T09:05:40.000Z</time>
      </trkpt>
      <trkpt lat="43.57032" lon="6.40106">
        <ele>611</ele>
        <time>2026-02-25T09:05:52.000Z</time>
      </trkpt>
      <trkpt lat="43.57035" lon="6.40094">
        <ele>612</ele>
        <time>2026-02-25T09:06:04.000Z</time>
      </trkpt>
      <trkpt lat="43.5704" lon="6.40082">
        <ele>613</ele>
        <time>2026-02-25T09:06:16.000Z</time>
      </trkpt>
      <trkpt lat="43.57041" lon="6.40068">
        <ele>614</ele>
        <time>2026-02-25T09:10:53.000Z</time>
      </trkpt>
      <trkpt lat="43.57042" lon="6.40056">
        <ele>615</ele>
        <time>2026-02-25T09:11:02.000Z</time>
      </trkpt>
      <trkpt lat="43.57041" lon="6.40044">
        <ele>615</ele>
        <time>2026-02-25T09:11:11.000Z</time>
      </trkpt>
      <trkpt lat="43.57041" lon="6.40031">
        <ele>616</ele>
        <time>2026-02-25T09:11:20.000Z</time>
      </trkpt>
      <trkpt lat="43.57037" lon="6.40016">
        <ele>616</ele>
        <time>2026-02-25T09:11:29.000Z</time>
      </trkpt>
      <trkpt lat="43.57034" lon="6.40005">
        <ele>617</ele>
        <time>2026-02-25T09:11:38.000Z</time>
      </trkpt>
      <trkpt lat="43.57032" lon="6.39992">
        <ele>618</ele>
        <time>2026-02-25T09:11:47.000Z</time>
      </trkpt>
      <trkpt lat="43.57032" lon="6.39978">
        <ele>618</ele>
        <time>2026-02-25T09:11:56.000Z</time>
      </trkpt>
      <trkpt lat="43.57035" lon="6.39965">
        <ele>619</ele>
        <time>2026-02-25T09:12:05.000Z</time>
      </trkpt>
      <trkpt lat="43.57035" lon="6.39953">
        <ele>620</ele>
        <time>2026-02-25T09:12:14.000Z</time>
      </trkpt>
      <trkpt lat="43.57037" lon="6.3994">
        <ele>620</ele>
        <time>2026-02-25T09:12:23.000Z</time>
      </trkpt>
      <trkpt lat="43.57041" lon="6.39929">
        <ele>621</ele>
        <time>2026-02-25T09:12:32.000Z</time>
      </trkpt>
      <trkpt lat="43.57044" lon="6.39915">
        <ele>621</ele>
        <time>2026-02-25T09:12:44.000Z</time>
      </trkpt>
      <trkpt lat="43.57048" lon="6.39902">
        <ele>621</ele>
        <time>2026-02-25T09:12:53.000Z</time>
      </trkpt>
      <trkpt lat="43.5705" lon="6.39887">
        <ele>621</ele>
        <time>2026-02-25T09:13:02.000Z</time>
      </trkpt>
      <trkpt lat="43.57054" lon="6.39873">
        <ele>621</ele>
        <time>2026-02-25T09:13:13.000Z</time>
      </trkpt>
      <trkpt lat="43.57057" lon="6.39859">
        <ele>620</ele>
        <time>2026-02-25T09:13:22.000Z</time>
      </trkpt>
      <trkpt lat="43.57062" lon="6.39848">
        <ele>620</ele>
        <time>2026-02-25T09:13:31.000Z</time>
      </trkpt>
      <trkpt lat="43.57071" lon="6.39841">
        <ele>619</ele>
        <time>2026-02-25T09:14:01.000Z</time>
      </trkpt>
      <trkpt lat="43.57076" lon="6.3983">
        <ele>619</ele>
        <time>2026-02-25T09:14:07.000Z</time>
      </trkpt>
      <trkpt lat="43.57075" lon="6.39817">
        <ele>618</ele>
        <time>2026-02-25T09:14:19.000Z</time>
      </trkpt>
      <trkpt lat="43.57075" lon="6.39803">
        <ele>618</ele>
        <time>2026-02-25T09:14:28.000Z</time>
      </trkpt>
      <trkpt lat="43.57073" lon="6.39791">
        <ele>617</ele>
        <time>2026-02-25T09:14:34.000Z</time>
      </trkpt>
      <trkpt lat="43.57069" lon="6.39778">
        <ele>617</ele>
        <time>2026-02-25T09:14:43.000Z</time>
      </trkpt>
      <trkpt lat="43.57067" lon="6.39762">
        <ele>617</ele>
        <time>2026-02-25T09:14:55.000Z</time>
      </trkpt>
      <trkpt lat="43.57066" lon="6.39751">
        <ele>617</ele>
        <time>2026-02-25T09:15:01.000Z</time>
      </trkpt>
      <trkpt lat="43.57073" lon="6.39741">
        <ele>616</ele>
        <time>2026-02-25T09:15:07.000Z</time>
      </trkpt>
      <trkpt lat="43.57072" lon="6.39727">
        <ele>616</ele>
        <time>2026-02-25T09:15:16.000Z</time>
      </trkpt>
      <trkpt lat="43.57076" lon="6.39712">
        <ele>615</ele>
        <time>2026-02-25T09:15:28.000Z</time>
      </trkpt>
      <trkpt lat="43.57079" lon="6.397">
        <ele>614</ele>
        <time>2026-02-25T09:15:34.000Z</time>
      </trkpt>
      <trkpt lat="43.57081" lon="6.39684">
        <ele>613</ele>
        <time>2026-02-25T09:15:46.000Z</time>
      </trkpt>
      <trkpt lat="43.57078" lon="6.39667">
        <ele>613</ele>
        <time>2026-02-25T09:15:58.000Z</time>
      </trkpt>
      <trkpt lat="43.57071" lon="6.39656">
        <ele>612</ele>
        <time>2026-02-25T09:16:10.000Z</time>
      </trkpt>
      <trkpt lat="43.57062" lon="6.39649">
        <ele>612</ele>
        <time>2026-02-25T09:16:19.000Z</time>
      </trkpt>
      <trkpt lat="43.57056" lon="6.39639">
        <ele>612</ele>
        <time>2026-02-25T09:16:28.000Z</time>
      </trkpt>
      <trkpt lat="43.57051" lon="6.39628">
        <ele>613</ele>
        <time>2026-02-25T09:16:37.000Z</time>
      </trkpt>
      <trkpt lat="43.57048" lon="6.39616">
        <ele>613</ele>
        <time>2026-02-25T09:16:46.000Z</time>
      </trkpt>
      <trkpt lat="43.57053" lon="6.39606">
        <ele>614</ele>
        <time>2026-02-25T09:17:01.000Z</time>
      </trkpt>
      <trkpt lat="43.57061" lon="6.396">
        <ele>615</ele>
        <time>2026-02-25T09:17:16.000Z</time>
      </trkpt>
      <trkpt lat="43.57069" lon="6.39591">
        <ele>616</ele>
        <time>2026-02-25T09:17:28.000Z</time>
      </trkpt>
      <trkpt lat="43.57079" lon="6.39585">
        <ele>617</ele>
        <time>2026-02-25T09:17:40.000Z</time>
      </trkpt>
      <trkpt lat="43.57086" lon="6.39577">
        <ele>619</ele>
        <time>2026-02-25T09:17:55.000Z</time>
      </trkpt>
      <trkpt lat="43.57096" lon="6.3957">
        <ele>620</ele>
        <time>2026-02-25T09:18:07.000Z</time>
      </trkpt>
      <trkpt lat="43.57104" lon="6.39565">
        <ele>621</ele>
        <time>2026-02-25T09:18:19.000Z</time>
      </trkpt>
      <trkpt lat="43.57112" lon="6.39559">
        <ele>622</ele>
        <time>2026-02-25T09:18:31.000Z</time>
      </trkpt>
      <trkpt lat="43.57121" lon="6.39556">
        <ele>623</ele>
        <time>2026-02-25T09:18:43.000Z</time>
      </trkpt>
      <trkpt lat="43.5713" lon="6.39551">
        <ele>624</ele>
        <time>2026-02-25T09:18:55.000Z</time>
      </trkpt>
      <trkpt lat="43.5714" lon="6.39547">
        <ele>625</ele>
        <time>2026-02-25T09:19:13.000Z</time>
      </trkpt>
      <trkpt lat="43.5715" lon="6.39541">
        <ele>627</ele>
        <time>2026-02-25T09:19:25.000Z</time>
      </trkpt>
      <trkpt lat="43.5716" lon="6.39535">
        <ele>628</ele>
        <time>2026-02-25T09:19:37.000Z</time>
      </trkpt>
      <trkpt lat="43.57169" lon="6.3953">
        <ele>628</ele>
        <time>2026-02-25T09:19:49.000Z</time>
      </trkpt>
      <trkpt lat="43.57179" lon="6.39524">
        <ele>629</ele>
        <time>2026-02-25T09:20:01.000Z</time>
      </trkpt>
      <trkpt lat="43.57188" lon="6.39518">
        <ele>629</ele>
        <time>2026-02-25T09:20:13.000Z</time>
      </trkpt>
      <trkpt lat="43.57198" lon="6.39515">
        <ele>629</ele>
        <time>2026-02-25T09:20:22.000Z</time>
      </trkpt>
      <trkpt lat="43.57206" lon="6.39509">
        <ele>630</ele>
        <time>2026-02-25T09:20:34.000Z</time>
      </trkpt>
      <trkpt lat="43.57216" lon="6.39505">
        <ele>630</ele>
        <time>2026-02-25T09:20:46.000Z</time>
      </trkpt>
      <trkpt lat="43.57226" lon="6.39499">
        <ele>630</ele>
        <time>2026-02-25T09:20:55.000Z</time>
      </trkpt>
      <trkpt lat="43.57235" lon="6.39493">
        <ele>630</ele>
        <time>2026-02-25T09:21:04.000Z</time>
      </trkpt>
      <trkpt lat="43.57246" lon="6.39484">
        <ele>630</ele>
        <time>2026-02-25T09:21:19.000Z</time>
      </trkpt>
      <trkpt lat="43.57255" lon="6.39478">
        <ele>630</ele>
        <time>2026-02-25T09:21:28.000Z</time>
      </trkpt>
      <trkpt lat="43.57265" lon="6.39472">
        <ele>630</ele>
        <time>2026-02-25T09:21:40.000Z</time>
      </trkpt>
      <trkpt lat="43.57275" lon="6.39464">
        <ele>630</ele>
        <time>2026-02-25T09:21:52.000Z</time>
      </trkpt>
      <trkpt lat="43.57283" lon="6.39458">
        <ele>630</ele>
        <time>2026-02-25T09:22:01.000Z</time>
      </trkpt>
      <trkpt lat="43.57293" lon="6.39451">
        <ele>631</ele>
        <time>2026-02-25T09:22:10.000Z</time>
      </trkpt>
      <trkpt lat="43.57299" lon="6.39442">
        <ele>632</ele>
        <time>2026-02-25T09:22:22.000Z</time>
      </trkpt>
      <trkpt lat="43.57306" lon="6.39433">
        <ele>633</ele>
        <time>2026-02-25T09:22:34.000Z</time>
      </trkpt>
      <trkpt lat="43.57313" lon="6.39424">
        <ele>634</ele>
        <time>2026-02-25T09:22:46.000Z</time>
      </trkpt>
      <trkpt lat="43.57319" lon="6.39415">
        <ele>635</ele>
        <time>2026-02-25T09:22:55.000Z</time>
      </trkpt>
      <trkpt lat="43.57328" lon="6.39404">
        <ele>636</ele>
        <time>2026-02-25T09:23:07.000Z</time>
      </trkpt>
      <trkpt lat="43.57337" lon="6.39398">
        <ele>637</ele>
        <time>2026-02-25T09:23:22.000Z</time>
      </trkpt>
      <trkpt lat="43.57345" lon="6.39391">
        <ele>638</ele>
        <time>2026-02-25T09:23:34.000Z</time>
      </trkpt>
      <trkpt lat="43.57352" lon="6.39381">
        <ele>639</ele>
        <time>2026-02-25T09:23:49.000Z</time>
      </trkpt>
      <trkpt lat="43.57359" lon="6.39374">
        <ele>640</ele>
        <time>2026-02-25T09:24:01.000Z</time>
      </trkpt>
      <trkpt lat="43.57367" lon="6.39367">
        <ele>642</ele>
        <time>2026-02-25T09:24:16.000Z</time>
      </trkpt>
      <trkpt lat="43.57376" lon="6.3936">
        <ele>643</ele>
        <time>2026-02-25T09:24:25.000Z</time>
      </trkpt>
      <trkpt lat="43.57383" lon="6.39351">
        <ele>643</ele>
        <time>2026-02-25T09:24:43.000Z</time>
      </trkpt>
      <trkpt lat="43.57389" lon="6.39342">
        <ele>644</ele>
        <time>2026-02-25T09:25:16.000Z</time>
      </trkpt>
      <trkpt lat="43.57397" lon="6.39335">
        <ele>645</ele>
        <time>2026-02-25T09:27:00.000Z</time>
      </trkpt>
      <trkpt lat="43.57404" lon="6.39327">
        <ele>645</ele>
        <time>2026-02-25T09:27:18.000Z</time>
      </trkpt>
      <trkpt lat="43.5741" lon="6.39317">
        <ele>645</ele>
        <time>2026-02-25T09:27:33.000Z</time>
      </trkpt>
      <trkpt lat="43.57416" lon="6.39305">
        <ele>645</ele>
        <time>2026-02-25T09:27:57.000Z</time>
      </trkpt>
      <trkpt lat="43.57421" lon="6.39293">
        <ele>645</ele>
        <time>2026-02-25T09:28:06.000Z</time>
      </trkpt>
      <trkpt lat="43.57426" lon="6.39281">
        <ele>644</ele>
        <time>2026-02-25T09:28:18.000Z</time>
      </trkpt>
      <trkpt lat="43.57434" lon="6.39271">
        <ele>644</ele>
        <time>2026-02-25T09:28:30.000Z</time>
      </trkpt>
      <trkpt lat="43.57441" lon="6.39262">
        <ele>644</ele>
        <time>2026-02-25T09:28:39.000Z</time>
      </trkpt>
      <trkpt lat="43.57449" lon="6.39257">
        <ele>643</ele>
        <time>2026-02-25T09:28:48.000Z</time>
      </trkpt>
      <trkpt lat="43.57457" lon="6.39251">
        <ele>643</ele>
        <time>2026-02-25T09:28:57.000Z</time>
      </trkpt>
      <trkpt lat="43.57467" lon="6.3925">
        <ele>643</ele>
        <time>2026-02-25T09:29:06.000Z</time>
      </trkpt>
      <trkpt lat="43.57477" lon="6.3925">
        <ele>643</ele>
        <time>2026-02-25T09:29:18.000Z</time>
      </trkpt>
      <trkpt lat="43.57488" lon="6.39249">
        <ele>643</ele>
        <time>2026-02-25T09:29:30.000Z</time>
      </trkpt>
      <trkpt lat="43.57498" lon="6.39249">
        <ele>643</ele>
        <time>2026-02-25T09:29:39.000Z</time>
      </trkpt>
      <trkpt lat="43.57508" lon="6.39248">
        <ele>643</ele>
        <time>2026-02-25T09:29:51.000Z</time>
      </trkpt>
      <trkpt lat="43.57518" lon="6.3925">
        <ele>643</ele>
        <time>2026-02-25T09:30:00.000Z</time>
      </trkpt>
      <trkpt lat="43.57528" lon="6.3925">
        <ele>643</ele>
        <time>2026-02-25T09:30:09.000Z</time>
      </trkpt>
      <trkpt lat="43.57539" lon="6.3925">
        <ele>643</ele>
        <time>2026-02-25T09:30:21.000Z</time>
      </trkpt>
      <trkpt lat="43.57551" lon="6.39249">
        <ele>643</ele>
        <time>2026-02-25T09:30:33.000Z</time>
      </trkpt>
      <trkpt lat="43.5756" lon="6.39248">
        <ele>643</ele>
        <time>2026-02-25T09:30:42.000Z</time>
      </trkpt>
      <trkpt lat="43.57572" lon="6.39248">
        <ele>643</ele>
        <time>2026-02-25T09:30:54.000Z</time>
      </trkpt>
      <trkpt lat="43.57583" lon="6.39247">
        <ele>643</ele>
        <time>2026-02-25T09:31:07.000Z</time>
      </trkpt>
      <trkpt lat="43.57594" lon="6.39247">
        <ele>642</ele>
        <time>2026-02-25T09:31:17.000Z</time>
      </trkpt>
      <trkpt lat="43.57604" lon="6.39244">
        <ele>642</ele>
        <time>2026-02-25T09:31:26.000Z</time>
      </trkpt>
      <trkpt lat="43.57613" lon="6.39239">
        <ele>641</ele>
        <time>2026-02-25T09:31:35.000Z</time>
      </trkpt>
      <trkpt lat="43.57622" lon="6.39234">
        <ele>641</ele>
        <time>2026-02-25T09:31:47.000Z</time>
      </trkpt>
      <trkpt lat="43.5763" lon="6.39229">
        <ele>641</ele>
        <time>2026-02-25T09:31:56.000Z</time>
      </trkpt>
      <trkpt lat="43.5764" lon="6.39222">
        <ele>641</ele>
        <time>2026-02-25T09:32:05.000Z</time>
      </trkpt>
      <trkpt lat="43.5765" lon="6.39212">
        <ele>641</ele>
        <time>2026-02-25T09:32:17.000Z</time>
      </trkpt>
      <trkpt lat="43.57658" lon="6.39203">
        <ele>641</ele>
        <time>2026-02-25T09:32:29.000Z</time>
      </trkpt>
      <trkpt lat="43.57666" lon="6.39195">
        <ele>642</ele>
        <time>2026-02-25T09:32:38.000Z</time>
      </trkpt>
      <trkpt lat="43.57675" lon="6.39187">
        <ele>642</ele>
        <time>2026-02-25T09:32:50.000Z</time>
      </trkpt>
      <trkpt lat="43.57682" lon="6.39177">
        <ele>643</ele>
        <time>2026-02-25T09:32:59.000Z</time>
      </trkpt>
      <trkpt lat="43.5769" lon="6.39165">
        <ele>644</ele>
        <time>2026-02-25T09:33:11.000Z</time>
      </trkpt>
      <trkpt lat="43.57696" lon="6.39154">
        <ele>645</ele>
        <time>2026-02-25T09:33:23.000Z</time>
      </trkpt>
      <trkpt lat="43.57703" lon="6.39146">
        <ele>647</ele>
        <time>2026-02-25T09:33:32.000Z</time>
      </trkpt>
      <trkpt lat="43.57711" lon="6.39137">
        <ele>648</ele>
        <time>2026-02-25T09:33:44.000Z</time>
      </trkpt>
      <trkpt lat="43.5772" lon="6.3913">
        <ele>649</ele>
        <time>2026-02-25T09:33:53.000Z</time>
      </trkpt>
      <trkpt lat="43.57731" lon="6.39125">
        <ele>650</ele>
        <time>2026-02-25T09:34:02.000Z</time>
      </trkpt>
      <trkpt lat="43.57743" lon="6.3912">
        <ele>651</ele>
        <time>2026-02-25T09:34:11.000Z</time>
      </trkpt>
      <trkpt lat="43.57752" lon="6.39118">
        <ele>651</ele>
        <time>2026-02-25T09:34:20.000Z</time>
      </trkpt>
      <trkpt lat="43.5776" lon="6.39109">
        <ele>651</ele>
        <time>2026-02-25T09:36:02.000Z</time>
      </trkpt>
      <trkpt lat="43.57767" lon="6.39101">
        <ele>651</ele>
        <time>2026-02-25T09:36:14.000Z</time>
      </trkpt>
      <trkpt lat="43.57776" lon="6.39092">
        <ele>650</ele>
        <time>2026-02-25T09:36:23.000Z</time>
      </trkpt>
      <trkpt lat="43.57783" lon="6.39082">
        <ele>650</ele>
        <time>2026-02-25T09:36:35.000Z</time>
      </trkpt>
      <trkpt lat="43.57789" lon="6.39071">
        <ele>650</ele>
        <time>2026-02-25T09:36:44.000Z</time>
      </trkpt>
      <trkpt lat="43.57795" lon="6.39062">
        <ele>651</ele>
        <time>2026-02-25T09:36:56.000Z</time>
      </trkpt>
      <trkpt lat="43.57803" lon="6.39055">
        <ele>651</ele>
        <time>2026-02-25T09:37:02.000Z</time>
      </trkpt>
      <trkpt lat="43.57812" lon="6.39044">
        <ele>651</ele>
        <time>2026-02-25T09:37:14.000Z</time>
      </trkpt>
      <trkpt lat="43.57821" lon="6.39036">
        <ele>652</ele>
        <time>2026-02-25T09:37:23.000Z</time>
      </trkpt>
      <trkpt lat="43.57828" lon="6.39027">
        <ele>653</ele>
        <time>2026-02-25T09:37:32.000Z</time>
      </trkpt>
      <trkpt lat="43.57837" lon="6.39021">
        <ele>654</ele>
        <time>2026-02-25T09:37:41.000Z</time>
      </trkpt>
      <trkpt lat="43.57846" lon="6.39015">
        <ele>654</ele>
        <time>2026-02-25T09:37:50.000Z</time>
      </trkpt>
      <trkpt lat="43.57854" lon="6.39007">
        <ele>655</ele>
        <time>2026-02-25T09:38:02.000Z</time>
      </trkpt>
      <trkpt lat="43.57863" lon="6.38998">
        <ele>656</ele>
        <time>2026-02-25T09:38:11.000Z</time>
      </trkpt>
      <trkpt lat="43.57874" lon="6.38992">
        <ele>656</ele>
        <time>2026-02-25T09:38:20.000Z</time>
      </trkpt>
      <trkpt lat="43.57884" lon="6.38985">
        <ele>657</ele>
        <time>2026-02-25T09:38:32.000Z</time>
      </trkpt>
      <trkpt lat="43.57895" lon="6.38979">
        <ele>658</ele>
        <time>2026-02-25T09:38:41.000Z</time>
      </trkpt>
      <trkpt lat="43.57904" lon="6.38973">
        <ele>659</ele>
        <time>2026-02-25T09:38:50.000Z</time>
      </trkpt>
      <trkpt lat="43.57912" lon="6.38967">
        <ele>660</ele>
        <time>2026-02-25T09:38:59.000Z</time>
      </trkpt>
      <trkpt lat="43.57923" lon="6.3896">
        <ele>661</ele>
        <time>2026-02-25T09:39:08.000Z</time>
      </trkpt>
      <trkpt lat="43.57932" lon="6.38953">
        <ele>662</ele>
        <time>2026-02-25T09:39:17.000Z</time>
      </trkpt>
      <trkpt lat="43.5794" lon="6.38942">
        <ele>663</ele>
        <time>2026-02-25T09:39:26.000Z</time>
      </trkpt>
      <trkpt lat="43.5795" lon="6.38935">
        <ele>663</ele>
        <time>2026-02-25T09:39:35.000Z</time>
      </trkpt>
      <trkpt lat="43.57958" lon="6.38928">
        <ele>664</ele>
        <time>2026-02-25T09:39:44.000Z</time>
      </trkpt>
      <trkpt lat="43.57967" lon="6.38921">
        <ele>664</ele>
        <time>2026-02-25T09:39:59.000Z</time>
      </trkpt>
      <trkpt lat="43.57978" lon="6.38913">
        <ele>665</ele>
        <time>2026-02-25T09:40:08.000Z</time>
      </trkpt>
      <trkpt lat="43.57986" lon="6.38905">
        <ele>665</ele>
        <time>2026-02-25T09:40:17.000Z</time>
      </trkpt>
      <trkpt lat="43.57993" lon="6.38898">
        <ele>665</ele>
        <time>2026-02-25T09:40:26.000Z</time>
      </trkpt>
      <trkpt lat="43.58" lon="6.3889">
        <ele>666</ele>
        <time>2026-02-25T09:40:35.000Z</time>
      </trkpt>
      <trkpt lat="43.58006" lon="6.3888">
        <ele>666</ele>
        <time>2026-02-25T09:40:44.000Z</time>
      </trkpt>
      <trkpt lat="43.58015" lon="6.38874">
        <ele>667</ele>
        <time>2026-02-25T09:40:56.000Z</time>
      </trkpt>
      <trkpt lat="43.58025" lon="6.38873">
        <ele>667</ele>
        <time>2026-02-25T09:41:05.000Z</time>
      </trkpt>
      <trkpt lat="43.58036" lon="6.38871">
        <ele>668</ele>
        <time>2026-02-25T09:41:11.000Z</time>
      </trkpt>
      <trkpt lat="43.58047" lon="6.38872">
        <ele>668</ele>
        <time>2026-02-25T09:41:20.000Z</time>
      </trkpt>
      <trkpt lat="43.58058" lon="6.38874">
        <ele>668</ele>
        <time>2026-02-25T09:41:29.000Z</time>
      </trkpt>
      <trkpt lat="43.58069" lon="6.38874">
        <ele>668</ele>
        <time>2026-02-25T09:41:38.000Z</time>
      </trkpt>
      <trkpt lat="43.5808" lon="6.38874">
        <ele>669</ele>
        <time>2026-02-25T09:41:47.000Z</time>
      </trkpt>
      <trkpt lat="43.5809" lon="6.38876">
        <ele>670</ele>
        <time>2026-02-25T09:41:56.000Z</time>
      </trkpt>
      <trkpt lat="43.58099" lon="6.38876">
        <ele>670</ele>
        <time>2026-02-25T09:42:02.000Z</time>
      </trkpt>
      <trkpt lat="43.58111" lon="6.38877">
        <ele>671</ele>
        <time>2026-02-25T09:42:11.000Z</time>
      </trkpt>
      <trkpt lat="43.58122" lon="6.38876">
        <ele>671</ele>
        <time>2026-02-25T09:42:20.000Z</time>
      </trkpt>
      <trkpt lat="43.58132" lon="6.38867">
        <ele>670</ele>
        <time>2026-02-25T09:42:32.000Z</time>
      </trkpt>
      <trkpt lat="43.58141" lon="6.38859">
        <ele>670</ele>
        <time>2026-02-25T09:42:41.000Z</time>
      </trkpt>
      <trkpt lat="43.5815" lon="6.38853">
        <ele>670</ele>
        <time>2026-02-25T09:42:50.000Z</time>
      </trkpt>
      <trkpt lat="43.5816" lon="6.38843">
        <ele>670</ele>
        <time>2026-02-25T09:43:02.000Z</time>
      </trkpt>
      <trkpt lat="43.58168" lon="6.38835">
        <ele>670</ele>
        <time>2026-02-25T09:43:10.000Z</time>
      </trkpt>
      <trkpt lat="43.58178" lon="6.38826">
        <ele>671</ele>
        <time>2026-02-25T09:43:22.000Z</time>
      </trkpt>
      <trkpt lat="43.58186" lon="6.38819">
        <ele>671</ele>
        <time>2026-02-25T09:43:28.000Z</time>
      </trkpt>
      <trkpt lat="43.58194" lon="6.3881">
        <ele>671</ele>
        <time>2026-02-25T09:43:37.000Z</time>
      </trkpt>
      <trkpt lat="43.58202" lon="6.38803">
        <ele>672</ele>
        <time>2026-02-25T09:43:46.000Z</time>
      </trkpt>
      <trkpt lat="43.58212" lon="6.38798">
        <ele>672</ele>
        <time>2026-02-25T09:43:55.000Z</time>
      </trkpt>
      <trkpt lat="43.58222" lon="6.38794">
        <ele>672</ele>
        <time>2026-02-25T09:44:04.000Z</time>
      </trkpt>
      <trkpt lat="43.58231" lon="6.38791">
        <ele>672</ele>
        <time>2026-02-25T09:44:13.000Z</time>
      </trkpt>
      <trkpt lat="43.5824" lon="6.38784">
        <ele>672</ele>
        <time>2026-02-25T09:44:22.000Z</time>
      </trkpt>
      <trkpt lat="43.58249" lon="6.38775">
        <ele>672</ele>
        <time>2026-02-25T09:44:31.000Z</time>
      </trkpt>
      <trkpt lat="43.58258" lon="6.38764">
        <ele>672</ele>
        <time>2026-02-25T09:44:40.000Z</time>
      </trkpt>
      <trkpt lat="43.58267" lon="6.38754">
        <ele>673</ele>
        <time>2026-02-25T09:44:49.000Z</time>
      </trkpt>
      <trkpt lat="43.58274" lon="6.38745">
        <ele>673</ele>
        <time>2026-02-25T09:44:58.000Z</time>
      </trkpt>
      <trkpt lat="43.58283" lon="6.38738">
        <ele>674</ele>
        <time>2026-02-25T09:45:07.000Z</time>
      </trkpt>
      <trkpt lat="43.58292" lon="6.38732">
        <ele>674</ele>
        <time>2026-02-25T09:45:16.000Z</time>
      </trkpt>
      <trkpt lat="43.58303" lon="6.38728">
        <ele>674</ele>
        <time>2026-02-25T09:45:25.000Z</time>
      </trkpt>
      <trkpt lat="43.58314" lon="6.38723">
        <ele>674</ele>
        <time>2026-02-25T09:45:34.000Z</time>
      </trkpt>
      <trkpt lat="43.58323" lon="6.38716">
        <ele>674</ele>
        <time>2026-02-25T09:45:43.000Z</time>
      </trkpt>
      <trkpt lat="43.58333" lon="6.38708">
        <ele>674</ele>
        <time>2026-02-25T09:45:52.000Z</time>
      </trkpt>
      <trkpt lat="43.58342" lon="6.38702">
        <ele>674</ele>
        <time>2026-02-25T09:46:01.000Z</time>
      </trkpt>
      <trkpt lat="43.58349" lon="6.38695">
        <ele>674</ele>
        <time>2026-02-25T09:46:07.000Z</time>
      </trkpt>
      <trkpt lat="43.58356" lon="6.38685">
        <ele>674</ele>
        <time>2026-02-25T09:46:16.000Z</time>
      </trkpt>
      <trkpt lat="43.58363" lon="6.38677">
        <ele>674</ele>
        <time>2026-02-25T09:46:25.000Z</time>
      </trkpt>
      <trkpt lat="43.58369" lon="6.38667">
        <ele>674</ele>
        <time>2026-02-25T09:46:34.000Z</time>
      </trkpt>
      <trkpt lat="43.58376" lon="6.38657">
        <ele>674</ele>
        <time>2026-02-25T09:46:43.000Z</time>
      </trkpt>
      <trkpt lat="43.58384" lon="6.38647">
        <ele>674</ele>
        <time>2026-02-25T09:46:52.000Z</time>
      </trkpt>
      <trkpt lat="43.58393" lon="6.38637">
        <ele>674</ele>
        <time>2026-02-25T09:47:01.000Z</time>
      </trkpt>
      <trkpt lat="43.58401" lon="6.38628">
        <ele>674</ele>
        <time>2026-02-25T09:47:10.000Z</time>
      </trkpt>
      <trkpt lat="43.58408" lon="6.38619">
        <ele>675</ele>
        <time>2026-02-25T09:47:19.000Z</time>
      </trkpt>
      <trkpt lat="43.58416" lon="6.38612">
        <ele>675</ele>
        <time>2026-02-25T09:47:26.000Z</time>
      </trkpt>
      <trkpt lat="43.58424" lon="6.38603">
        <ele>676</ele>
        <time>2026-02-25T09:47:35.000Z</time>
      </trkpt>
      <trkpt lat="43.58433" lon="6.38592">
        <ele>676</ele>
        <time>2026-02-25T09:47:44.000Z</time>
      </trkpt>
      <trkpt lat="43.58442" lon="6.38583">
        <ele>677</ele>
        <time>2026-02-25T09:47:53.000Z</time>
      </trkpt>
      <trkpt lat="43.58452" lon="6.3858">
        <ele>678</ele>
        <time>2026-02-25T09:48:02.000Z</time>
      </trkpt>
      <trkpt lat="43.58463" lon="6.38578">
        <ele>679</ele>
        <time>2026-02-25T09:48:14.000Z</time>
      </trkpt>
      <trkpt lat="43.58473" lon="6.38578">
        <ele>680</ele>
        <time>2026-02-25T09:48:26.000Z</time>
      </trkpt>
      <trkpt lat="43.58482" lon="6.38575">
        <ele>681</ele>
        <time>2026-02-25T09:48:35.000Z</time>
      </trkpt>
      <trkpt lat="43.58492" lon="6.38572">
        <ele>681</ele>
        <time>2026-02-25T09:48:47.000Z</time>
      </trkpt>
      <trkpt lat="43.585" lon="6.38567">
        <ele>681</ele>
        <time>2026-02-25T09:48:56.000Z</time>
      </trkpt>
      <trkpt lat="43.58508" lon="6.3856">
        <ele>682</ele>
        <time>2026-02-25T09:49:05.000Z</time>
      </trkpt>
      <trkpt lat="43.58518" lon="6.38558">
        <ele>683</ele>
        <time>2026-02-25T09:49:14.000Z</time>
      </trkpt>
      <trkpt lat="43.58527" lon="6.38553">
        <ele>683</ele>
        <time>2026-02-25T09:49:23.000Z</time>
      </trkpt>
      <trkpt lat="43.58537" lon="6.38546">
        <ele>684</ele>
        <time>2026-02-25T09:49:32.000Z</time>
      </trkpt>
      <trkpt lat="43.58545" lon="6.38538">
        <ele>684</ele>
        <time>2026-02-25T09:49:41.000Z</time>
      </trkpt>
      <trkpt lat="43.58554" lon="6.38529">
        <ele>684</ele>
        <time>2026-02-25T09:49:50.000Z</time>
      </trkpt>
      <trkpt lat="43.58562" lon="6.38519">
        <ele>684</ele>
        <time>2026-02-25T09:49:59.000Z</time>
      </trkpt>
      <trkpt lat="43.5857" lon="6.3851">
        <ele>685</ele>
        <time>2026-02-25T09:50:08.000Z</time>
      </trkpt>
      <trkpt lat="43.58576" lon="6.385">
        <ele>685</ele>
        <time>2026-02-25T09:50:17.000Z</time>
      </trkpt>
      <trkpt lat="43.58586" lon="6.38491">
        <ele>686</ele>
        <time>2026-02-25T09:50:26.000Z</time>
      </trkpt>
      <trkpt lat="43.58596" lon="6.38483">
        <ele>687</ele>
        <time>2026-02-25T09:51:02.000Z</time>
      </trkpt>
      <trkpt lat="43.58606" lon="6.38478">
        <ele>688</ele>
        <time>2026-02-25T09:51:14.000Z</time>
      </trkpt>
      <trkpt lat="43.58613" lon="6.38485">
        <ele>689</ele>
        <time>2026-02-25T09:51:26.000Z</time>
      </trkpt>
      <trkpt lat="43.58621" lon="6.38489">
        <ele>691</ele>
        <time>2026-02-25T09:51:47.000Z</time>
      </trkpt>
      <trkpt lat="43.5863" lon="6.38492">
        <ele>691</ele>
        <time>2026-02-25T09:52:08.000Z</time>
      </trkpt>
      <trkpt lat="43.58639" lon="6.38495">
        <ele>691</ele>
        <time>2026-02-25T09:52:26.000Z</time>
      </trkpt>
      <trkpt lat="43.58645" lon="6.38499">
        <ele>691</ele>
        <time>2026-02-25T09:54:38.000Z</time>
      </trkpt>
      <trkpt lat="43.58641" lon="6.38492">
        <ele>691</ele>
        <time>2026-02-25T09:56:29.000Z</time>
      </trkpt>
      <trkpt lat="43.58631" lon="6.38489">
        <ele>691</ele>
        <time>2026-02-25T09:58:38.000Z</time>
      </trkpt>
      <trkpt lat="43.58621" lon="6.38485">
        <ele>690</ele>
        <time>2026-02-25T09:59:06.000Z</time>
      </trkpt>
      <trkpt lat="43.58611" lon="6.38487">
        <ele>690</ele>
        <time>2026-02-25T09:59:18.000Z</time>
      </trkpt>
      <trkpt lat="43.58607" lon="6.38498">
        <ele>690</ele>
        <time>2026-02-25T09:59:33.000Z</time>
      </trkpt>
      <trkpt lat="43.58608" lon="6.38512">
        <ele>690</ele>
        <time>2026-02-25T09:59:42.000Z</time>
      </trkpt>
      <trkpt lat="43.58609" lon="6.38526">
        <ele>689</ele>
        <time>2026-02-25T09:59:51.000Z</time>
      </trkpt>
      <trkpt lat="43.58611" lon="6.3854">
        <ele>689</ele>
        <time>2026-02-25T10:00:00.000Z</time>
      </trkpt>
      <trkpt lat="43.58612" lon="6.38555">
        <ele>688</ele>
        <time>2026-02-25T10:00:09.000Z</time>
      </trkpt>
      <trkpt lat="43.5861" lon="6.3857">
        <ele>687</ele>
        <time>2026-02-25T10:00:21.000Z</time>
      </trkpt>
      <trkpt lat="43.58608" lon="6.38584">
        <ele>687</ele>
        <time>2026-02-25T10:00:30.000Z</time>
      </trkpt>
      <trkpt lat="43.58608" lon="6.38597">
        <ele>686</ele>
        <time>2026-02-25T10:00:39.000Z</time>
      </trkpt>
      <trkpt lat="43.58607" lon="6.38609">
        <ele>686</ele>
        <time>2026-02-25T10:00:48.000Z</time>
      </trkpt>
      <trkpt lat="43.58605" lon="6.38622">
        <ele>685</ele>
        <time>2026-02-25T10:00:57.000Z</time>
      </trkpt>
      <trkpt lat="43.58605" lon="6.38638">
        <ele>685</ele>
        <time>2026-02-25T10:01:09.000Z</time>
      </trkpt>
      <trkpt lat="43.58606" lon="6.38652">
        <ele>684</ele>
        <time>2026-02-25T10:01:18.000Z</time>
      </trkpt>
      <trkpt lat="43.58607" lon="6.38666">
        <ele>683</ele>
        <time>2026-02-25T10:01:27.000Z</time>
      </trkpt>
      <trkpt lat="43.58609" lon="6.38679">
        <ele>683</ele>
        <time>2026-02-25T10:01:36.000Z</time>
      </trkpt>
      <trkpt lat="43.58612" lon="6.38693">
        <ele>683</ele>
        <time>2026-02-25T10:01:48.000Z</time>
      </trkpt>
      <trkpt lat="43.58615" lon="6.38705">
        <ele>683</ele>
        <time>2026-02-25T10:01:57.000Z</time>
      </trkpt>
      <trkpt lat="43.58614" lon="6.38717">
        <ele>683</ele>
        <time>2026-02-25T10:02:06.000Z</time>
      </trkpt>
      <trkpt lat="43.58612" lon="6.3873">
        <ele>683</ele>
        <time>2026-02-25T10:02:15.000Z</time>
      </trkpt>
      <trkpt lat="43.58612" lon="6.38743">
        <ele>683</ele>
        <time>2026-02-25T10:02:24.000Z</time>
      </trkpt>
      <trkpt lat="43.58609" lon="6.38758">
        <ele>683</ele>
        <time>2026-02-25T10:02:36.000Z</time>
      </trkpt>
      <trkpt lat="43.58606" lon="6.3877">
        <ele>682</ele>
        <time>2026-02-25T10:02:45.000Z</time>
      </trkpt>
      <trkpt lat="43.58605" lon="6.38784">
        <ele>681</ele>
        <time>2026-02-25T10:02:57.000Z</time>
      </trkpt>
      <trkpt lat="43.58605" lon="6.38797">
        <ele>680</ele>
        <time>2026-02-25T10:03:06.000Z</time>
      </trkpt>
      <trkpt lat="43.58606" lon="6.3881">
        <ele>680</ele>
        <time>2026-02-25T10:03:15.000Z</time>
      </trkpt>
      <trkpt lat="43.58611" lon="6.38821">
        <ele>678</ele>
        <time>2026-02-25T10:03:27.000Z</time>
      </trkpt>
      <trkpt lat="43.58618" lon="6.3883">
        <ele>676</ele>
        <time>2026-02-25T10:03:42.000Z</time>
      </trkpt>
      <trkpt lat="43.58621" lon="6.3884">
        <ele>675</ele>
        <time>2026-02-25T10:04:15.000Z</time>
      </trkpt>
      <trkpt lat="43.58617" lon="6.38852">
        <ele>674</ele>
        <time>2026-02-25T10:04:30.000Z</time>
      </trkpt>
      <trkpt lat="43.58615" lon="6.38866">
        <ele>673</ele>
        <time>2026-02-25T10:04:42.000Z</time>
      </trkpt>
      <trkpt lat="43.58607" lon="6.38872">
        <ele>673</ele>
        <time>2026-02-25T10:04:51.000Z</time>
      </trkpt>
      <trkpt lat="43.58598" lon="6.38879">
        <ele>673</ele>
        <time>2026-02-25T10:05:03.000Z</time>
      </trkpt>
      <trkpt lat="43.58594" lon="6.3889">
        <ele>673</ele>
        <time>2026-02-25T10:05:12.000Z</time>
      </trkpt>
      <trkpt lat="43.58592" lon="6.38903">
        <ele>673</ele>
        <time>2026-02-25T10:05:21.000Z</time>
      </trkpt>
      <trkpt lat="43.5859" lon="6.38915">
        <ele>673</ele>
        <time>2026-02-25T10:05:30.000Z</time>
      </trkpt>
      <trkpt lat="43.5859" lon="6.38928">
        <ele>673</ele>
        <time>2026-02-25T10:05:39.000Z</time>
      </trkpt>
      <trkpt lat="43.58586" lon="6.38942">
        <ele>672</ele>
        <time>2026-02-25T10:05:51.000Z</time>
      </trkpt>
      <trkpt lat="43.58583" lon="6.38954">
        <ele>672</ele>
        <time>2026-02-25T10:06:00.000Z</time>
      </trkpt>
      <trkpt lat="43.58578" lon="6.38967">
        <ele>672</ele>
        <time>2026-02-25T10:06:12.000Z</time>
      </trkpt>
      <trkpt lat="43.58573" lon="6.38979">
        <ele>671</ele>
        <time>2026-02-25T10:06:21.000Z</time>
      </trkpt>
      <trkpt lat="43.58567" lon="6.3899">
        <ele>671</ele>
        <time>2026-02-25T10:06:33.000Z</time>
      </trkpt>
      <trkpt lat="43.58562" lon="6.39001">
        <ele>671</ele>
        <time>2026-02-25T10:06:42.000Z</time>
      </trkpt>
      <trkpt lat="43.58557" lon="6.39011">
        <ele>671</ele>
        <time>2026-02-25T10:06:51.000Z</time>
      </trkpt>
      <trkpt lat="43.58552" lon="6.39022">
        <ele>671</ele>
        <time>2026-02-25T10:07:03.000Z</time>
      </trkpt>
      <trkpt lat="43.58547" lon="6.39033">
        <ele>671</ele>
        <time>2026-02-25T10:07:12.000Z</time>
      </trkpt>
      <trkpt lat="43.58545" lon="6.39045">
        <ele>672</ele>
        <time>2026-02-25T10:07:27.000Z</time>
      </trkpt>
      <trkpt lat="43.58541" lon="6.39058">
        <ele>672</ele>
        <time>2026-02-25T10:07:39.000Z</time>
      </trkpt>
      <trkpt lat="43.5854" lon="6.39071">
        <ele>672</ele>
        <time>2026-02-25T10:07:48.000Z</time>
      </trkpt>
      <trkpt lat="43.58538" lon="6.39083">
        <ele>672</ele>
        <time>2026-02-25T10:08:06.000Z</time>
      </trkpt>
      <trkpt lat="43.58536" lon="6.39095">
        <ele>672</ele>
        <time>2026-02-25T10:08:18.000Z</time>
      </trkpt>
      <trkpt lat="43.58535" lon="6.39107">
        <ele>672</ele>
        <time>2026-02-25T10:08:30.000Z</time>
      </trkpt>
      <trkpt lat="43.58538" lon="6.39119">
        <ele>673</ele>
        <time>2026-02-25T10:08:51.000Z</time>
      </trkpt>
      <trkpt lat="43.58541" lon="6.39132">
        <ele>674</ele>
        <time>2026-02-25T10:09:03.000Z</time>
      </trkpt>
      <trkpt lat="43.58546" lon="6.39143">
        <ele>675</ele>
        <time>2026-02-25T10:09:24.000Z</time>
      </trkpt>
      <trkpt lat="43.5855" lon="6.39134">
        <ele>676</ele>
        <time>2026-02-25T10:09:42.000Z</time>
      </trkpt>
      <trkpt lat="43.58558" lon="6.39127">
        <ele>676</ele>
        <time>2026-02-25T10:10:21.000Z</time>
      </trkpt>
      <trkpt lat="43.58565" lon="6.39119">
        <ele>674</ele>
        <time>2026-02-25T10:10:33.000Z</time>
      </trkpt>
      <trkpt lat="43.58571" lon="6.39118">
        <ele>673</ele>
        <time>2026-02-25T10:13:39.000Z</time>
      </trkpt>
      <trkpt lat="43.58568" lon="6.39127">
        <ele>671</ele>
        <time>2026-02-25T10:50:24.000Z</time>
      </trkpt>
      <trkpt lat="43.58562" lon="6.39138">
        <ele>669</ele>
        <time>2026-02-25T10:50:45.000Z</time>
      </trkpt>
      <trkpt lat="43.5856" lon="6.3915">
        <ele>668</ele>
        <time>2026-02-25T10:51:00.000Z</time>
      </trkpt>
      <trkpt lat="43.58557" lon="6.39161">
        <ele>666</ele>
        <time>2026-02-25T10:51:15.000Z</time>
      </trkpt>
      <trkpt lat="43.58549" lon="6.39162">
        <ele>665</ele>
        <time>2026-02-25T10:51:45.000Z</time>
      </trkpt>
      <trkpt lat="43.58539" lon="6.39164">
        <ele>663</ele>
        <time>2026-02-25T10:52:06.000Z</time>
      </trkpt>
      <trkpt lat="43.58532" lon="6.39171">
        <ele>662</ele>
        <time>2026-02-25T10:52:33.000Z</time>
      </trkpt>
      <trkpt lat="43.58526" lon="6.39179">
        <ele>661</ele>
        <time>2026-02-25T10:52:48.000Z</time>
      </trkpt>
      <trkpt lat="43.58518" lon="6.39187">
        <ele>660</ele>
        <time>2026-02-25T10:53:00.000Z</time>
      </trkpt>
      <trkpt lat="43.5851" lon="6.39197">
        <ele>659</ele>
        <time>2026-02-25T10:53:15.000Z</time>
      </trkpt>
      <trkpt lat="43.58504" lon="6.39207">
        <ele>658</ele>
        <time>2026-02-25T10:53:27.000Z</time>
      </trkpt>
      <trkpt lat="43.58497" lon="6.39218">
        <ele>657</ele>
        <time>2026-02-25T10:53:42.000Z</time>
      </trkpt>
      <trkpt lat="43.5849" lon="6.3923">
        <ele>657</ele>
        <time>2026-02-25T10:53:54.000Z</time>
      </trkpt>
      <trkpt lat="43.58485" lon="6.39243">
        <ele>656</ele>
        <time>2026-02-25T10:54:06.000Z</time>
      </trkpt>
      <trkpt lat="43.58482" lon="6.39255">
        <ele>656</ele>
        <time>2026-02-25T10:54:18.000Z</time>
      </trkpt>
      <trkpt lat="43.58478" lon="6.39269">
        <ele>655</ele>
        <time>2026-02-25T10:54:30.000Z</time>
      </trkpt>
      <trkpt lat="43.58475" lon="6.39281">
        <ele>654</ele>
        <time>2026-02-25T10:54:42.000Z</time>
      </trkpt>
      <trkpt lat="43.58471" lon="6.39295">
        <ele>654</ele>
        <time>2026-02-25T10:55:00.000Z</time>
      </trkpt>
      <trkpt lat="43.58467" lon="6.39307">
        <ele>653</ele>
        <time>2026-02-25T10:55:09.000Z</time>
      </trkpt>
      <trkpt lat="43.58463" lon="6.3932">
        <ele>652</ele>
        <time>2026-02-25T10:55:24.000Z</time>
      </trkpt>
      <trkpt lat="43.58457" lon="6.3933">
        <ele>651</ele>
        <time>2026-02-25T10:55:36.000Z</time>
      </trkpt>
      <trkpt lat="43.5845" lon="6.39341">
        <ele>650</ele>
        <time>2026-02-25T10:55:48.000Z</time>
      </trkpt>
      <trkpt lat="43.58445" lon="6.39353">
        <ele>649</ele>
        <time>2026-02-25T10:56:00.000Z</time>
      </trkpt>
      <trkpt lat="43.5844" lon="6.39364">
        <ele>647</ele>
        <time>2026-02-25T10:56:15.000Z</time>
      </trkpt>
      <trkpt lat="43.58433" lon="6.39374">
        <ele>646</ele>
        <time>2026-02-25T10:56:27.000Z</time>
      </trkpt>
      <trkpt lat="43.58427" lon="6.39384">
        <ele>645</ele>
        <time>2026-02-25T10:56:39.000Z</time>
      </trkpt>
      <trkpt lat="43.58421" lon="6.39394">
        <ele>643</ele>
        <time>2026-02-25T10:56:51.000Z</time>
      </trkpt>
      <trkpt lat="43.58419" lon="6.39407">
        <ele>642</ele>
        <time>2026-02-25T10:57:06.000Z</time>
      </trkpt>
      <trkpt lat="43.58414" lon="6.39419">
        <ele>640</ele>
        <time>2026-02-25T10:57:21.000Z</time>
      </trkpt>
      <trkpt lat="43.58413" lon="6.39432">
        <ele>639</ele>
        <time>2026-02-25T10:57:33.000Z</time>
      </trkpt>
      <trkpt lat="43.58411" lon="6.39445">
        <ele>638</ele>
        <time>2026-02-25T10:57:45.000Z</time>
      </trkpt>
      <trkpt lat="43.58411" lon="6.39457">
        <ele>637</ele>
        <time>2026-02-25T10:57:57.000Z</time>
      </trkpt>
      <trkpt lat="43.5841" lon="6.3947">
        <ele>637</ele>
        <time>2026-02-25T10:58:09.000Z</time>
      </trkpt>
      <trkpt lat="43.58407" lon="6.39482">
        <ele>636</ele>
        <time>2026-02-25T10:58:18.000Z</time>
      </trkpt>
      <trkpt lat="43.58404" lon="6.39493">
        <ele>635</ele>
        <time>2026-02-25T10:58:33.000Z</time>
      </trkpt>
      <trkpt lat="43.58402" lon="6.39505">
        <ele>633</ele>
        <time>2026-02-25T10:58:45.000Z</time>
      </trkpt>
      <trkpt lat="43.58401" lon="6.39517">
        <ele>632</ele>
        <time>2026-02-25T10:58:57.000Z</time>
      </trkpt>
      <trkpt lat="43.58399" lon="6.3953">
        <ele>630</ele>
        <time>2026-02-25T10:59:09.000Z</time>
      </trkpt>
      <trkpt lat="43.584" lon="6.39545">
        <ele>628</ele>
        <time>2026-02-25T10:59:24.000Z</time>
      </trkpt>
      <trkpt lat="43.58401" lon="6.39558">
        <ele>626</ele>
        <time>2026-02-25T10:59:54.000Z</time>
      </trkpt>
      <trkpt lat="43.58404" lon="6.39572">
        <ele>624</ele>
        <time>2026-02-25T11:00:09.000Z</time>
      </trkpt>
      <trkpt lat="43.58407" lon="6.39585">
        <ele>623</ele>
        <time>2026-02-25T11:00:21.000Z</time>
      </trkpt>
      <trkpt lat="43.5841" lon="6.39599">
        <ele>622</ele>
        <time>2026-02-25T11:00:36.000Z</time>
      </trkpt>
      <trkpt lat="43.58413" lon="6.39612">
        <ele>621</ele>
        <time>2026-02-25T11:00:51.000Z</time>
      </trkpt>
      <trkpt lat="43.58412" lon="6.39625">
        <ele>620</ele>
        <time>2026-02-25T11:01:00.000Z</time>
      </trkpt>
      <trkpt lat="43.5841" lon="6.39637">
        <ele>619</ele>
        <time>2026-02-25T11:01:09.000Z</time>
      </trkpt>
      <trkpt lat="43.58406" lon="6.39648">
        <ele>618</ele>
        <time>2026-02-25T11:01:18.000Z</time>
      </trkpt>
      <trkpt lat="43.584" lon="6.39662">
        <ele>617</ele>
        <time>2026-02-25T11:01:30.000Z</time>
      </trkpt>
      <trkpt lat="43.58394" lon="6.39675">
        <ele>616</ele>
        <time>2026-02-25T11:01:39.000Z</time>
      </trkpt>
      <trkpt lat="43.58389" lon="6.39686">
        <ele>615</ele>
        <time>2026-02-25T11:01:48.000Z</time>
      </trkpt>
      <trkpt lat="43.58382" lon="6.39697">
        <ele>613</ele>
        <time>2026-02-25T11:01:57.000Z</time>
      </trkpt>
      <trkpt lat="43.58376" lon="6.39709">
        <ele>612</ele>
        <time>2026-02-25T11:02:06.000Z</time>
      </trkpt>
      <trkpt lat="43.58372" lon="6.39722">
        <ele>611</ele>
        <time>2026-02-25T11:02:30.000Z</time>
      </trkpt>
      <trkpt lat="43.58365" lon="6.39732">
        <ele>610</ele>
        <time>2026-02-25T11:02:39.000Z</time>
      </trkpt>
      <trkpt lat="43.58357" lon="6.39742">
        <ele>609</ele>
        <time>2026-02-25T11:02:51.000Z</time>
      </trkpt>
      <trkpt lat="43.5835" lon="6.3975">
        <ele>608</ele>
        <time>2026-02-25T11:02:59.000Z</time>
      </trkpt>
      <trkpt lat="43.58342" lon="6.39758">
        <ele>607</ele>
        <time>2026-02-25T11:03:08.000Z</time>
      </trkpt>
      <trkpt lat="43.58335" lon="6.39765">
        <ele>605</ele>
        <time>2026-02-25T11:03:17.000Z</time>
      </trkpt>
      <trkpt lat="43.58328" lon="6.39777">
        <ele>604</ele>
        <time>2026-02-25T11:03:29.000Z</time>
      </trkpt>
      <trkpt lat="43.58321" lon="6.39789">
        <ele>602</ele>
        <time>2026-02-25T11:03:41.000Z</time>
      </trkpt>
      <trkpt lat="43.58315" lon="6.398">
        <ele>600</ele>
        <time>2026-02-25T11:03:50.000Z</time>
      </trkpt>
      <trkpt lat="43.58309" lon="6.39812">
        <ele>599</ele>
        <time>2026-02-25T11:04:02.000Z</time>
      </trkpt>
      <trkpt lat="43.58303" lon="6.39823">
        <ele>598</ele>
        <time>2026-02-25T11:04:11.000Z</time>
      </trkpt>
      <trkpt lat="43.58297" lon="6.39834">
        <ele>597</ele>
        <time>2026-02-25T11:04:20.000Z</time>
      </trkpt>
      <trkpt lat="43.58291" lon="6.39844">
        <ele>596</ele>
        <time>2026-02-25T11:04:29.000Z</time>
      </trkpt>
      <trkpt lat="43.58285" lon="6.39854">
        <ele>595</ele>
        <time>2026-02-25T11:04:38.000Z</time>
      </trkpt>
      <trkpt lat="43.58279" lon="6.39864">
        <ele>594</ele>
        <time>2026-02-25T11:04:47.000Z</time>
      </trkpt>
      <trkpt lat="43.58274" lon="6.39877">
        <ele>593</ele>
        <time>2026-02-25T11:04:56.000Z</time>
      </trkpt>
      <trkpt lat="43.58268" lon="6.39889">
        <ele>592</ele>
        <time>2026-02-25T11:05:05.000Z</time>
      </trkpt>
      <trkpt lat="43.58261" lon="6.399">
        <ele>591</ele>
        <time>2026-02-25T11:05:14.000Z</time>
      </trkpt>
      <trkpt lat="43.58254" lon="6.39909">
        <ele>589</ele>
        <time>2026-02-25T11:05:23.000Z</time>
      </trkpt>
      <trkpt lat="43.58248" lon="6.3992">
        <ele>588</ele>
        <time>2026-02-25T11:05:32.000Z</time>
      </trkpt>
      <trkpt lat="43.58241" lon="6.39932">
        <ele>588</ele>
        <time>2026-02-25T11:05:41.000Z</time>
      </trkpt>
      <trkpt lat="43.58234" lon="6.39942">
        <ele>587</ele>
        <time>2026-02-25T11:05:50.000Z</time>
      </trkpt>
      <trkpt lat="43.58225" lon="6.39951">
        <ele>586</ele>
        <time>2026-02-25T11:05:59.000Z</time>
      </trkpt>
      <trkpt lat="43.58216" lon="6.39959">
        <ele>585</ele>
        <time>2026-02-25T11:06:08.000Z</time>
      </trkpt>
      <trkpt lat="43.58208" lon="6.39968">
        <ele>585</ele>
        <time>2026-02-25T11:07:14.000Z</time>
      </trkpt>
      <trkpt lat="43.58201" lon="6.3998">
        <ele>584</ele>
        <time>2026-02-25T11:07:23.000Z</time>
      </trkpt>
      <trkpt lat="43.58196" lon="6.39991">
        <ele>583</ele>
        <time>2026-02-25T11:07:29.000Z</time>
      </trkpt>
      <trkpt lat="43.58192" lon="6.40006">
        <ele>582</ele>
        <time>2026-02-25T11:07:38.000Z</time>
      </trkpt>
      <trkpt lat="43.58189" lon="6.40022">
        <ele>581</ele>
        <time>2026-02-25T11:07:47.000Z</time>
      </trkpt>
      <trkpt lat="43.58188" lon="6.40037">
        <ele>581</ele>
        <time>2026-02-25T11:08:02.000Z</time>
      </trkpt>
      <trkpt lat="43.58186" lon="6.40051">
        <ele>580</ele>
        <time>2026-02-25T11:08:11.000Z</time>
      </trkpt>
      <trkpt lat="43.58184" lon="6.40066">
        <ele>579</ele>
        <time>2026-02-25T11:08:35.000Z</time>
      </trkpt>
      <trkpt lat="43.58182" lon="6.40078">
        <ele>579</ele>
        <time>2026-02-25T11:08:44.000Z</time>
      </trkpt>
      <trkpt lat="43.58179" lon="6.40091">
        <ele>579</ele>
        <time>2026-02-25T11:08:56.000Z</time>
      </trkpt>
      <trkpt lat="43.58176" lon="6.40103">
        <ele>579</ele>
        <time>2026-02-25T11:09:05.000Z</time>
      </trkpt>
      <trkpt lat="43.58171" lon="6.40116">
        <ele>579</ele>
        <time>2026-02-25T11:09:14.000Z</time>
      </trkpt>
      <trkpt lat="43.58168" lon="6.4013">
        <ele>578</ele>
        <time>2026-02-25T11:09:23.000Z</time>
      </trkpt>
      <trkpt lat="43.58163" lon="6.40142">
        <ele>578</ele>
        <time>2026-02-25T11:09:32.000Z</time>
      </trkpt>
      <trkpt lat="43.58156" lon="6.40152">
        <ele>577</ele>
        <time>2026-02-25T11:09:41.000Z</time>
      </trkpt>
      <trkpt lat="43.58149" lon="6.40163">
        <ele>576</ele>
        <time>2026-02-25T11:09:53.000Z</time>
      </trkpt>
      <trkpt lat="43.58143" lon="6.40173">
        <ele>575</ele>
        <time>2026-02-25T11:10:20.000Z</time>
      </trkpt>
      <trkpt lat="43.58138" lon="6.40184">
        <ele>574</ele>
        <time>2026-02-25T11:10:29.000Z</time>
      </trkpt>
      <trkpt lat="43.58135" lon="6.40196">
        <ele>573</ele>
        <time>2026-02-25T11:10:41.000Z</time>
      </trkpt>
      <trkpt lat="43.58132" lon="6.40209">
        <ele>572</ele>
        <time>2026-02-25T11:10:53.000Z</time>
      </trkpt>
      <trkpt lat="43.58129" lon="6.40221">
        <ele>571</ele>
        <time>2026-02-25T11:11:02.000Z</time>
      </trkpt>
      <trkpt lat="43.58124" lon="6.40233">
        <ele>570</ele>
        <time>2026-02-25T11:11:11.000Z</time>
      </trkpt>
      <trkpt lat="43.58118" lon="6.40246">
        <ele>569</ele>
        <time>2026-02-25T11:11:20.000Z</time>
      </trkpt>
      <trkpt lat="43.58113" lon="6.40258">
        <ele>568</ele>
        <time>2026-02-25T11:11:29.000Z</time>
      </trkpt>
      <trkpt lat="43.5811" lon="6.40271">
        <ele>567</ele>
        <time>2026-02-25T11:11:38.000Z</time>
      </trkpt>
      <trkpt lat="43.58108" lon="6.40285">
        <ele>565</ele>
        <time>2026-02-25T11:11:47.000Z</time>
      </trkpt>
      <trkpt lat="43.58107" lon="6.40297">
        <ele>564</ele>
        <time>2026-02-25T11:11:56.000Z</time>
      </trkpt>
      <trkpt lat="43.58108" lon="6.40309">
        <ele>563</ele>
        <time>2026-02-25T11:12:11.000Z</time>
      </trkpt>
      <trkpt lat="43.58107" lon="6.40322">
        <ele>562</ele>
        <time>2026-02-25T11:12:20.000Z</time>
      </trkpt>
      <trkpt lat="43.58102" lon="6.40334">
        <ele>561</ele>
        <time>2026-02-25T11:12:29.000Z</time>
      </trkpt>
      <trkpt lat="43.58097" lon="6.40346">
        <ele>561</ele>
        <time>2026-02-25T11:12:38.000Z</time>
      </trkpt>
      <trkpt lat="43.58092" lon="6.40359">
        <ele>560</ele>
        <time>2026-02-25T11:12:47.000Z</time>
      </trkpt>
      <trkpt lat="43.58087" lon="6.40371">
        <ele>560</ele>
        <time>2026-02-25T11:12:56.000Z</time>
      </trkpt>
      <trkpt lat="43.58083" lon="6.40384">
        <ele>559</ele>
        <time>2026-02-25T11:13:08.000Z</time>
      </trkpt>
      <trkpt lat="43.58078" lon="6.40397">
        <ele>559</ele>
        <time>2026-02-25T11:13:17.000Z</time>
      </trkpt>
      <trkpt lat="43.58071" lon="6.40409">
        <ele>559</ele>
        <time>2026-02-25T11:13:26.000Z</time>
      </trkpt>
      <trkpt lat="43.58065" lon="6.4042">
        <ele>559</ele>
        <time>2026-02-25T11:13:35.000Z</time>
      </trkpt>
      <trkpt lat="43.58059" lon="6.4043">
        <ele>558</ele>
        <time>2026-02-25T11:13:44.000Z</time>
      </trkpt>
      <trkpt lat="43.58053" lon="6.40442">
        <ele>558</ele>
        <time>2026-02-25T11:13:56.000Z</time>
      </trkpt>
      <trkpt lat="43.58047" lon="6.40451">
        <ele>557</ele>
        <time>2026-02-25T11:14:05.000Z</time>
      </trkpt>
      <trkpt lat="43.58042" lon="6.40461">
        <ele>556</ele>
        <time>2026-02-25T11:14:14.000Z</time>
      </trkpt>
      <trkpt lat="43.58037" lon="6.40472">
        <ele>556</ele>
        <time>2026-02-25T11:14:23.000Z</time>
      </trkpt>
      <trkpt lat="43.58032" lon="6.40485">
        <ele>555</ele>
        <time>2026-02-25T11:14:35.000Z</time>
      </trkpt>
      <trkpt lat="43.58027" lon="6.40499">
        <ele>554</ele>
        <time>2026-02-25T11:14:47.000Z</time>
      </trkpt>
      <trkpt lat="43.58023" lon="6.40513">
        <ele>553</ele>
        <time>2026-02-25T11:14:59.000Z</time>
      </trkpt>
      <trkpt lat="43.5802" lon="6.40526">
        <ele>552</ele>
        <time>2026-02-25T11:15:11.000Z</time>
      </trkpt>
      <trkpt lat="43.58017" lon="6.40537">
        <ele>552</ele>
        <time>2026-02-25T11:15:20.000Z</time>
      </trkpt>
      <trkpt lat="43.58014" lon="6.4055">
        <ele>551</ele>
        <time>2026-02-25T11:15:32.000Z</time>
      </trkpt>
      <trkpt lat="43.58012" lon="6.40563">
        <ele>550</ele>
        <time>2026-02-25T11:15:52.000Z</time>
      </trkpt>
      <trkpt lat="43.58009" lon="6.40576">
        <ele>549</ele>
        <time>2026-02-25T11:16:01.000Z</time>
      </trkpt>
      <trkpt lat="43.58007" lon="6.4059">
        <ele>547</ele>
        <time>2026-02-25T11:16:10.000Z</time>
      </trkpt>
      <trkpt lat="43.58007" lon="6.40604">
        <ele>546</ele>
        <time>2026-02-25T11:16:19.000Z</time>
      </trkpt>
      <trkpt lat="43.58005" lon="6.40618">
        <ele>545</ele>
        <time>2026-02-25T11:16:28.000Z</time>
      </trkpt>
      <trkpt lat="43.58002" lon="6.40631">
        <ele>544</ele>
        <time>2026-02-25T11:16:37.000Z</time>
      </trkpt>
      <trkpt lat="43.57997" lon="6.40642">
        <ele>542</ele>
        <time>2026-02-25T11:17:04.000Z</time>
      </trkpt>
      <trkpt lat="43.57993" lon="6.40655">
        <ele>541</ele>
        <time>2026-02-25T11:17:13.000Z</time>
      </trkpt>
      <trkpt lat="43.57987" lon="6.40664">
        <ele>539</ele>
        <time>2026-02-25T11:17:22.000Z</time>
      </trkpt>
      <trkpt lat="43.57983" lon="6.40675">
        <ele>537</ele>
        <time>2026-02-25T11:17:31.000Z</time>
      </trkpt>
      <trkpt lat="43.57982" lon="6.40689">
        <ele>535</ele>
        <time>2026-02-25T11:17:40.000Z</time>
      </trkpt>
      <trkpt lat="43.57984" lon="6.40702">
        <ele>534</ele>
        <time>2026-02-25T11:17:49.000Z</time>
      </trkpt>
      <trkpt lat="43.57986" lon="6.40715">
        <ele>532</ele>
        <time>2026-02-25T11:17:58.000Z</time>
      </trkpt>
      <trkpt lat="43.57987" lon="6.4073">
        <ele>531</ele>
        <time>2026-02-25T11:18:10.000Z</time>
      </trkpt>
      <trkpt lat="43.57989" lon="6.40746">
        <ele>530</ele>
        <time>2026-02-25T11:18:22.000Z</time>
      </trkpt>
      <trkpt lat="43.57989" lon="6.4076">
        <ele>529</ele>
        <time>2026-02-25T11:18:31.000Z</time>
      </trkpt>
      <trkpt lat="43.57986" lon="6.40775">
        <ele>528</ele>
        <time>2026-02-25T11:18:40.000Z</time>
      </trkpt>
      <trkpt lat="43.57982" lon="6.40788">
        <ele>527</ele>
        <time>2026-02-25T11:18:49.000Z</time>
      </trkpt>
      <trkpt lat="43.57978" lon="6.40799">
        <ele>526</ele>
        <time>2026-02-25T11:18:58.000Z</time>
      </trkpt>
      <trkpt lat="43.57974" lon="6.40813">
        <ele>525</ele>
        <time>2026-02-25T11:19:07.000Z</time>
      </trkpt>
      <trkpt lat="43.5797" lon="6.40825">
        <ele>524</ele>
        <time>2026-02-25T11:19:16.000Z</time>
      </trkpt>
      <trkpt lat="43.57963" lon="6.40835">
        <ele>523</ele>
        <time>2026-02-25T11:19:25.000Z</time>
      </trkpt>
      <trkpt lat="43.57954" lon="6.40844">
        <ele>522</ele>
        <time>2026-02-25T11:19:34.000Z</time>
      </trkpt>
      <trkpt lat="43.57946" lon="6.40854">
        <ele>521</ele>
        <time>2026-02-25T11:19:43.000Z</time>
      </trkpt>
      <trkpt lat="43.57939" lon="6.40864">
        <ele>520</ele>
        <time>2026-02-25T11:19:52.000Z</time>
      </trkpt>
      <trkpt lat="43.57932" lon="6.40873">
        <ele>519</ele>
        <time>2026-02-25T11:20:01.000Z</time>
      </trkpt>
      <trkpt lat="43.57927" lon="6.40884">
        <ele>518</ele>
        <time>2026-02-25T11:20:10.000Z</time>
      </trkpt>
      <trkpt lat="43.57921" lon="6.40896">
        <ele>517</ele>
        <time>2026-02-25T11:20:19.000Z</time>
      </trkpt>
      <trkpt lat="43.57916" lon="6.40908">
        <ele>517</ele>
        <time>2026-02-25T11:20:27.000Z</time>
      </trkpt>
      <trkpt lat="43.5791" lon="6.40919">
        <ele>516</ele>
        <time>2026-02-25T11:20:36.000Z</time>
      </trkpt>
      <trkpt lat="43.57904" lon="6.40931">
        <ele>515</ele>
        <time>2026-02-25T11:20:46.000Z</time>
      </trkpt>
      <trkpt lat="43.57895" lon="6.40942">
        <ele>515</ele>
        <time>2026-02-25T11:20:58.000Z</time>
      </trkpt>
      <trkpt lat="43.57888" lon="6.40952">
        <ele>514</ele>
        <time>2026-02-25T11:21:07.000Z</time>
      </trkpt>
      <trkpt lat="43.57882" lon="6.40966">
        <ele>513</ele>
        <time>2026-02-25T11:21:16.000Z</time>
      </trkpt>
      <trkpt lat="43.57877" lon="6.40979">
        <ele>512</ele>
        <time>2026-02-25T11:21:25.000Z</time>
      </trkpt>
      <trkpt lat="43.57875" lon="6.40994">
        <ele>511</ele>
        <time>2026-02-25T11:21:34.000Z</time>
      </trkpt>
      <trkpt lat="43.57872" lon="6.41008">
        <ele>510</ele>
        <time>2026-02-25T11:21:43.000Z</time>
      </trkpt>
      <trkpt lat="43.5787" lon="6.41021">
        <ele>510</ele>
        <time>2026-02-25T11:21:52.000Z</time>
      </trkpt>
      <trkpt lat="43.57867" lon="6.41034">
        <ele>509</ele>
        <time>2026-02-25T11:22:01.000Z</time>
      </trkpt>
      <trkpt lat="43.57865" lon="6.41047">
        <ele>509</ele>
        <time>2026-02-25T11:22:10.000Z</time>
      </trkpt>
      <trkpt lat="43.5786" lon="6.41059">
        <ele>508</ele>
        <time>2026-02-25T11:22:19.000Z</time>
      </trkpt>
      <trkpt lat="43.57855" lon="6.41072">
        <ele>508</ele>
        <time>2026-02-25T11:22:28.000Z</time>
      </trkpt>
      <trkpt lat="43.5785" lon="6.41084">
        <ele>507</ele>
        <time>2026-02-25T11:22:37.000Z</time>
      </trkpt>
      <trkpt lat="43.57847" lon="6.41096">
        <ele>506</ele>
        <time>2026-02-25T11:22:46.000Z</time>
      </trkpt>
      <trkpt lat="43.57843" lon="6.41108">
        <ele>505</ele>
        <time>2026-02-25T11:22:55.000Z</time>
      </trkpt>
      <trkpt lat="43.57838" lon="6.4112">
        <ele>504</ele>
        <time>2026-02-25T11:23:04.000Z</time>
      </trkpt>
      <trkpt lat="43.57834" lon="6.41131">
        <ele>503</ele>
        <time>2026-02-25T11:23:10.000Z</time>
      </trkpt>
      <trkpt lat="43.57833" lon="6.41144">
        <ele>502</ele>
        <time>2026-02-25T11:23:19.000Z</time>
      </trkpt>
      <trkpt lat="43.57834" lon="6.41158">
        <ele>501</ele>
        <time>2026-02-25T11:23:28.000Z</time>
      </trkpt>
      <trkpt lat="43.57833" lon="6.41172">
        <ele>501</ele>
        <time>2026-02-25T11:23:37.000Z</time>
      </trkpt>
      <trkpt lat="43.57832" lon="6.41185">
        <ele>500</ele>
        <time>2026-02-25T11:23:46.000Z</time>
      </trkpt>
      <trkpt lat="43.57832" lon="6.41197">
        <ele>499</ele>
        <time>2026-02-25T11:23:55.000Z</time>
      </trkpt>
      <trkpt lat="43.57831" lon="6.4121">
        <ele>498</ele>
        <time>2026-02-25T11:24:04.000Z</time>
      </trkpt>
      <trkpt lat="43.5783" lon="6.41222">
        <ele>496</ele>
        <time>2026-02-25T11:24:13.000Z</time>
      </trkpt>
      <trkpt lat="43.57826" lon="6.41235">
        <ele>495</ele>
        <time>2026-02-25T11:24:31.000Z</time>
      </trkpt>
      <trkpt lat="43.57821" lon="6.41244">
        <ele>493</ele>
        <time>2026-02-25T11:24:40.000Z</time>
      </trkpt>
      <trkpt lat="43.57813" lon="6.41253">
        <ele>492</ele>
        <time>2026-02-25T11:24:52.000Z</time>
      </trkpt>
      <trkpt lat="43.57804" lon="6.41262">
        <ele>490</ele>
        <time>2026-02-25T11:25:04.000Z</time>
      </trkpt>
      <trkpt lat="43.57799" lon="6.41275">
        <ele>488</ele>
        <time>2026-02-25T11:25:16.000Z</time>
      </trkpt>
      <trkpt lat="43.57803" lon="6.41286">
        <ele>486</ele>
        <time>2026-02-25T11:25:25.000Z</time>
      </trkpt>
      <trkpt lat="43.57808" lon="6.41297">
        <ele>484</ele>
        <time>2026-02-25T11:25:34.000Z</time>
      </trkpt>
      <trkpt lat="43.57812" lon="6.41309">
        <ele>482</ele>
        <time>2026-02-25T11:25:46.000Z</time>
      </trkpt>
      <trkpt lat="43.57817" lon="6.41321">
        <ele>480</ele>
        <time>2026-02-25T11:25:55.000Z</time>
      </trkpt>
      <trkpt lat="43.57822" lon="6.41333">
        <ele>478</ele>
        <time>2026-02-25T11:26:04.000Z</time>
      </trkpt>
      <trkpt lat="43.57825" lon="6.41344">
        <ele>477</ele>
        <time>2026-02-25T11:26:13.000Z</time>
      </trkpt>
      <trkpt lat="43.57827" lon="6.41358">
        <ele>475</ele>
        <time>2026-02-25T11:26:22.000Z</time>
      </trkpt>
      <trkpt lat="43.57828" lon="6.41373">
        <ele>474</ele>
        <time>2026-02-25T11:26:31.000Z</time>
      </trkpt>
      <trkpt lat="43.57828" lon="6.41388">
        <ele>473</ele>
        <time>2026-02-25T11:26:40.000Z</time>
      </trkpt>
      <trkpt lat="43.5783" lon="6.41402">
        <ele>472</ele>
        <time>2026-02-25T11:26:49.000Z</time>
      </trkpt>
      <trkpt lat="43.57833" lon="6.41417">
        <ele>471</ele>
        <time>2026-02-25T11:27:01.000Z</time>
      </trkpt>
      <trkpt lat="43.57837" lon="6.41429">
        <ele>470</ele>
        <time>2026-02-25T11:27:10.000Z</time>
      </trkpt>
      <trkpt lat="43.5784" lon="6.41441">
        <ele>468</ele>
        <time>2026-02-25T11:27:19.000Z</time>
      </trkpt>
      <trkpt lat="43.57843" lon="6.41455">
        <ele>467</ele>
        <time>2026-02-25T11:27:28.000Z</time>
      </trkpt>
      <trkpt lat="43.57845" lon="6.41468">
        <ele>465</ele>
        <time>2026-02-25T11:27:37.000Z</time>
      </trkpt>
      <trkpt lat="43.57848" lon="6.41481">
        <ele>464</ele>
        <time>2026-02-25T11:27:46.000Z</time>
      </trkpt>
      <trkpt lat="43.57852" lon="6.41494">
        <ele>462</ele>
        <time>2026-02-25T11:27:55.000Z</time>
      </trkpt>
      <trkpt lat="43.57855" lon="6.41506">
        <ele>460</ele>
        <time>2026-02-25T11:28:04.000Z</time>
      </trkpt>
      <trkpt lat="43.57858" lon="6.4152">
        <ele>458</ele>
        <time>2026-02-25T11:28:16.000Z</time>
      </trkpt>
      <trkpt lat="43.57861" lon="6.41536">
        <ele>456</ele>
        <time>2026-02-25T11:28:28.000Z</time>
      </trkpt>
      <trkpt lat="43.57864" lon="6.4155">
        <ele>454</ele>
        <time>2026-02-25T11:28:37.000Z</time>
      </trkpt>
      <trkpt lat="43.57865" lon="6.41563">
        <ele>452</ele>
        <time>2026-02-25T11:28:46.000Z</time>
      </trkpt>
      <trkpt lat="43.57867" lon="6.41577">
        <ele>450</ele>
        <time>2026-02-25T11:28:55.000Z</time>
      </trkpt>
      <trkpt lat="43.57869" lon="6.41591">
        <ele>448</ele>
        <time>2026-02-25T11:29:07.000Z</time>
      </trkpt>
      <trkpt lat="43.5787" lon="6.41604">
        <ele>447</ele>
        <time>2026-02-25T11:29:16.000Z</time>
      </trkpt>
      <trkpt lat="43.57872" lon="6.41617">
        <ele>445</ele>
        <time>2026-02-25T11:29:25.000Z</time>
      </trkpt>
      <trkpt lat="43.57876" lon="6.41627">
        <ele>445</ele>
        <time>2026-02-25T11:29:34.000Z</time>
      </trkpt>
      <trkpt lat="43.57884" lon="6.41636">
        <ele>444</ele>
        <time>2026-02-25T11:29:43.000Z</time>
      </trkpt>
      <trkpt lat="43.57891" lon="6.41644">
        <ele>443</ele>
        <time>2026-02-25T11:30:10.000Z</time>
      </trkpt>
      <trkpt lat="43.57898" lon="6.41654">
        <ele>443</ele>
        <time>2026-02-25T11:30:22.000Z</time>
      </trkpt>
      <trkpt lat="43.57906" lon="6.4166">
        <ele>442</ele>
        <time>2026-02-25T11:30:31.000Z</time>
      </trkpt>
      <trkpt lat="43.57914" lon="6.41665">
        <ele>441</ele>
        <time>2026-02-25T11:30:40.000Z</time>
      </trkpt>
      <trkpt lat="43.57923" lon="6.4167">
        <ele>441</ele>
        <time>2026-02-25T11:30:49.000Z</time>
      </trkpt>
      <trkpt lat="43.57932" lon="6.41674">
        <ele>440</ele>
        <time>2026-02-25T11:30:58.000Z</time>
      </trkpt>
      <trkpt lat="43.57941" lon="6.41678">
        <ele>439</ele>
        <time>2026-02-25T11:31:07.000Z</time>
      </trkpt>
      <trkpt lat="43.57949" lon="6.41683">
        <ele>438</ele>
        <time>2026-02-25T11:31:16.000Z</time>
      </trkpt>
      <trkpt lat="43.57957" lon="6.41691">
        <ele>437</ele>
        <time>2026-02-25T11:31:25.000Z</time>
      </trkpt>
      <trkpt lat="43.57966" lon="6.41697">
        <ele>436</ele>
        <time>2026-02-25T11:31:34.000Z</time>
      </trkpt>
      <trkpt lat="43.57975" lon="6.41703">
        <ele>435</ele>
        <time>2026-02-25T11:31:46.000Z</time>
      </trkpt>
      <trkpt lat="43.57984" lon="6.4171">
        <ele>434</ele>
        <time>2026-02-25T11:31:55.000Z</time>
      </trkpt>
      <trkpt lat="43.57992" lon="6.41719">
        <ele>433</ele>
        <time>2026-02-25T11:32:04.000Z</time>
      </trkpt>
      <trkpt lat="43.58002" lon="6.41728">
        <ele>433</ele>
        <time>2026-02-25T11:32:16.000Z</time>
      </trkpt>
      <trkpt lat="43.5801" lon="6.41734">
        <ele>432</ele>
        <time>2026-02-25T11:32:25.000Z</time>
      </trkpt>
      <trkpt lat="43.58019" lon="6.4174">
        <ele>430</ele>
        <time>2026-02-25T11:32:34.000Z</time>
      </trkpt>
      <trkpt lat="43.58027" lon="6.41749">
        <ele>429</ele>
        <time>2026-02-25T11:32:43.000Z</time>
      </trkpt>
      <trkpt lat="43.58035" lon="6.41759">
        <ele>428</ele>
        <time>2026-02-25T11:32:52.000Z</time>
      </trkpt>
      <trkpt lat="43.58041" lon="6.41771">
        <ele>427</ele>
        <time>2026-02-25T11:33:01.000Z</time>
      </trkpt>
      <trkpt lat="43.58048" lon="6.4178">
        <ele>426</ele>
        <time>2026-02-25T11:33:10.000Z</time>
      </trkpt>
      <trkpt lat="43.58054" lon="6.41792">
        <ele>425</ele>
        <time>2026-02-25T11:33:22.000Z</time>
      </trkpt>
      <trkpt lat="43.58058" lon="6.41806">
        <ele>424</ele>
        <time>2026-02-25T11:33:31.000Z</time>
      </trkpt>
      <trkpt lat="43.58062" lon="6.41818">
        <ele>423</ele>
        <time>2026-02-25T11:33:40.000Z</time>
      </trkpt>
      <trkpt lat="43.58068" lon="6.41829">
        <ele>422</ele>
        <time>2026-02-25T11:33:49.000Z</time>
      </trkpt>
      <trkpt lat="43.58074" lon="6.4184">
        <ele>421</ele>
        <time>2026-02-25T11:33:58.000Z</time>
      </trkpt>
      <trkpt lat="43.58079" lon="6.41853">
        <ele>420</ele>
        <time>2026-02-25T11:34:07.000Z</time>
      </trkpt>
      <trkpt lat="43.58085" lon="6.41865">
        <ele>420</ele>
        <time>2026-02-25T11:34:16.000Z</time>
      </trkpt>
      <trkpt lat="43.5809" lon="6.41877">
        <ele>419</ele>
        <time>2026-02-25T11:34:25.000Z</time>
      </trkpt>
      <trkpt lat="43.58095" lon="6.41889">
        <ele>419</ele>
        <time>2026-02-25T11:34:34.000Z</time>
      </trkpt>
      <trkpt lat="43.58101" lon="6.41902">
        <ele>418</ele>
        <time>2026-02-25T11:34:43.000Z</time>
      </trkpt>
      <trkpt lat="43.58107" lon="6.41912">
        <ele>417</ele>
        <time>2026-02-25T11:34:52.000Z</time>
      </trkpt>
      <trkpt lat="43.58113" lon="6.41924">
        <ele>416</ele>
        <time>2026-02-25T11:35:01.000Z</time>
      </trkpt>
      <trkpt lat="43.58119" lon="6.41935">
        <ele>415</ele>
        <time>2026-02-25T11:35:10.000Z</time>
      </trkpt>
      <trkpt lat="43.58125" lon="6.41947">
        <ele>414</ele>
        <time>2026-02-25T11:35:19.000Z</time>
      </trkpt>
      <trkpt lat="43.5813" lon="6.41958">
        <ele>413</ele>
        <time>2026-02-25T11:35:28.000Z</time>
      </trkpt>
      <trkpt lat="43.58136" lon="6.41968">
        <ele>412</ele>
        <time>2026-02-25T11:35:37.000Z</time>
      </trkpt>
      <trkpt lat="43.58142" lon="6.41978">
        <ele>411</ele>
        <time>2026-02-25T11:35:46.000Z</time>
      </trkpt>
      <trkpt lat="43.58147" lon="6.41989">
        <ele>410</ele>
        <time>2026-02-25T11:35:55.000Z</time>
      </trkpt>
      <trkpt lat="43.58153" lon="6.41998">
        <ele>409</ele>
        <time>2026-02-25T11:36:04.000Z</time>
      </trkpt>
      <trkpt lat="43.58159" lon="6.42008">
        <ele>407</ele>
        <time>2026-02-25T11:36:13.000Z</time>
      </trkpt>
      <trkpt lat="43.58165" lon="6.42019">
        <ele>406</ele>
        <time>2026-02-25T11:36:22.000Z</time>
      </trkpt>
      <trkpt lat="43.58163" lon="6.42032">
        <ele>404</ele>
        <time>2026-02-25T11:36:34.000Z</time>
      </trkpt>
      <trkpt lat="43.58158" lon="6.42044">
        <ele>403</ele>
        <time>2026-02-25T11:36:43.000Z</time>
      </trkpt>
      <trkpt lat="43.58152" lon="6.42055">
        <ele>402</ele>
        <time>2026-02-25T11:36:55.000Z</time>
      </trkpt>
      <trkpt lat="43.58145" lon="6.42064">
        <ele>401</ele>
        <time>2026-02-25T11:37:04.000Z</time>
      </trkpt>
      <trkpt lat="43.58136" lon="6.42072">
        <ele>400</ele>
        <time>2026-02-25T11:37:13.000Z</time>
      </trkpt>
      <trkpt lat="43.58127" lon="6.42079">
        <ele>400</ele>
        <time>2026-02-25T11:37:22.000Z</time>
      </trkpt>
      <trkpt lat="43.58116" lon="6.42074">
        <ele>399</ele>
        <time>2026-02-25T11:37:34.000Z</time>
      </trkpt>
      <trkpt lat="43.58108" lon="6.42067">
        <ele>399</ele>
        <time>2026-02-25T11:37:43.000Z</time>
      </trkpt>
      <trkpt lat="43.58099" lon="6.42063">
        <ele>399</ele>
        <time>2026-02-25T11:37:52.000Z</time>
      </trkpt>
      <trkpt lat="43.5809" lon="6.42058">
        <ele>399</ele>
        <time>2026-02-25T11:38:01.000Z</time>
      </trkpt>
      <trkpt lat="43.58081" lon="6.4205">
        <ele>399</ele>
        <time>2026-02-25T11:38:10.000Z</time>
      </trkpt>
      <trkpt lat="43.58074" lon="6.42039">
        <ele>399</ele>
        <time>2026-02-25T11:38:19.000Z</time>
      </trkpt>
      <trkpt lat="43.58068" lon="6.42029">
        <ele>398</ele>
        <time>2026-02-25T11:38:33.000Z</time>
      </trkpt>
      <trkpt lat="43.58063" lon="6.42015">
        <ele>398</ele>
        <time>2026-02-25T11:38:48.000Z</time>
      </trkpt>
      <trkpt lat="43.5806" lon="6.42002">
        <ele>397</ele>
        <time>2026-02-25T11:38:57.000Z</time>
      </trkpt>
      <trkpt lat="43.58054" lon="6.4199">
        <ele>396</ele>
        <time>2026-02-25T11:39:06.000Z</time>
      </trkpt>
      <trkpt lat="43.58045" lon="6.41983">
        <ele>395</ele>
        <time>2026-02-25T11:39:15.000Z</time>
      </trkpt>
      <trkpt lat="43.58036" lon="6.41978">
        <ele>394</ele>
        <time>2026-02-25T11:39:24.000Z</time>
      </trkpt>
      <trkpt lat="43.58028" lon="6.41972">
        <ele>393</ele>
        <time>2026-02-25T11:39:33.000Z</time>
      </trkpt>
      <trkpt lat="43.58018" lon="6.41964">
        <ele>392</ele>
        <time>2026-02-25T11:39:45.000Z</time>
      </trkpt>
      <trkpt lat="43.5801" lon="6.41958">
        <ele>391</ele>
        <time>2026-02-25T11:39:54.000Z</time>
      </trkpt>
      <trkpt lat="43.58" lon="6.41956">
        <ele>390</ele>
        <time>2026-02-25T11:40:12.000Z</time>
      </trkpt>
      <trkpt lat="43.5799" lon="6.41955">
        <ele>390</ele>
        <time>2026-02-25T11:40:42.000Z</time>
      </trkpt>
      <trkpt lat="43.5798" lon="6.41949">
        <ele>389</ele>
        <time>2026-02-25T11:40:54.000Z</time>
      </trkpt>
      <trkpt lat="43.57972" lon="6.41942">
        <ele>389</ele>
        <time>2026-02-25T11:41:03.000Z</time>
      </trkpt>
      <trkpt lat="43.57963" lon="6.41934">
        <ele>389</ele>
        <time>2026-02-25T11:41:12.000Z</time>
      </trkpt>
      <trkpt lat="43.57955" lon="6.41927">
        <ele>389</ele>
        <time>2026-02-25T11:41:21.000Z</time>
      </trkpt>
      <trkpt lat="43.57945" lon="6.4192">
        <ele>388</ele>
        <time>2026-02-25T11:41:30.000Z</time>
      </trkpt>
      <trkpt lat="43.57935" lon="6.41913">
        <ele>388</ele>
        <time>2026-02-25T11:41:42.000Z</time>
      </trkpt>
      <trkpt lat="43.57926" lon="6.41907">
        <ele>388</ele>
        <time>2026-02-25T11:41:51.000Z</time>
      </trkpt>
      <trkpt lat="43.57916" lon="6.41903">
        <ele>388</ele>
        <time>2026-02-25T11:42:00.000Z</time>
      </trkpt>
      <trkpt lat="43.57904" lon="6.41904">
        <ele>388</ele>
        <time>2026-02-25T11:42:12.000Z</time>
      </trkpt>
      <trkpt lat="43.57894" lon="6.41902">
        <ele>388</ele>
        <time>2026-02-25T11:42:21.000Z</time>
      </trkpt>
      <trkpt lat="43.57884" lon="6.41899">
        <ele>388</ele>
        <time>2026-02-25T11:42:30.000Z</time>
      </trkpt>
      <trkpt lat="43.57874" lon="6.41896">
        <ele>387</ele>
        <time>2026-02-25T11:42:39.000Z</time>
      </trkpt>
      <trkpt lat="43.57863" lon="6.41894">
        <ele>387</ele>
        <time>2026-02-25T11:42:48.000Z</time>
      </trkpt>
      <trkpt lat="43.57854" lon="6.41895">
        <ele>386</ele>
        <time>2026-02-25T11:42:57.000Z</time>
      </trkpt>
      <trkpt lat="43.57845" lon="6.41901">
        <ele>386</ele>
        <time>2026-02-25T11:43:06.000Z</time>
      </trkpt>
      <trkpt lat="43.57836" lon="6.41906">
        <ele>386</ele>
        <time>2026-02-25T11:43:15.000Z</time>
      </trkpt>
      <trkpt lat="43.57827" lon="6.41907">
        <ele>386</ele>
        <time>2026-02-25T11:43:24.000Z</time>
      </trkpt>
      <trkpt lat="43.57818" lon="6.41901">
        <ele>386</ele>
        <time>2026-02-25T11:43:36.000Z</time>
      </trkpt>
      <trkpt lat="43.57811" lon="6.41891">
        <ele>386</ele>
        <time>2026-02-25T11:43:45.000Z</time>
      </trkpt>
      <trkpt lat="43.57805" lon="6.41878">
        <ele>386</ele>
        <time>2026-02-25T11:43:54.000Z</time>
      </trkpt>
      <trkpt lat="43.578" lon="6.41866">
        <ele>385</ele>
        <time>2026-02-25T11:44:03.000Z</time>
      </trkpt>
      <trkpt lat="43.57794" lon="6.41854">
        <ele>385</ele>
        <time>2026-02-25T11:44:12.000Z</time>
      </trkpt>
      <trkpt lat="43.57787" lon="6.41845">
        <ele>384</ele>
        <time>2026-02-25T11:44:21.000Z</time>
      </trkpt>
      <trkpt lat="43.57779" lon="6.41837">
        <ele>384</ele>
        <time>2026-02-25T11:44:30.000Z</time>
      </trkpt>
      <trkpt lat="43.5777" lon="6.41833">
        <ele>383</ele>
        <time>2026-02-25T11:44:39.000Z</time>
      </trkpt>
      <trkpt lat="43.57761" lon="6.41827">
        <ele>383</ele>
        <time>2026-02-25T11:44:48.000Z</time>
      </trkpt>
      <trkpt lat="43.57752" lon="6.41822">
        <ele>383</ele>
        <time>2026-02-25T11:44:57.000Z</time>
      </trkpt>
      <trkpt lat="43.57743" lon="6.41817">
        <ele>383</ele>
        <time>2026-02-25T11:45:06.000Z</time>
      </trkpt>
      <trkpt lat="43.57735" lon="6.41812">
        <ele>383</ele>
        <time>2026-02-25T11:45:15.000Z</time>
      </trkpt>
      <trkpt lat="43.57726" lon="6.41807">
        <ele>382</ele>
        <time>2026-02-25T11:45:24.000Z</time>
      </trkpt>
      <trkpt lat="43.57717" lon="6.41806">
        <ele>382</ele>
        <time>2026-02-25T11:45:33.000Z</time>
      </trkpt>
      <trkpt lat="43.57708" lon="6.41806">
        <ele>381</ele>
        <time>2026-02-25T11:45:42.000Z</time>
      </trkpt>
      <trkpt lat="43.57699" lon="6.41801">
        <ele>381</ele>
        <time>2026-02-25T11:45:51.000Z</time>
      </trkpt>
      <trkpt lat="43.57691" lon="6.41791">
        <ele>380</ele>
        <time>2026-02-25T11:46:00.000Z</time>
      </trkpt>
      <trkpt lat="43.57683" lon="6.4178">
        <ele>380</ele>
        <time>2026-02-25T11:46:12.000Z</time>
      </trkpt>
      <trkpt lat="43.57677" lon="6.41769">
        <ele>379</ele>
        <time>2026-02-25T11:46:21.000Z</time>
      </trkpt>
      <trkpt lat="43.57671" lon="6.41759">
        <ele>378</ele>
        <time>2026-02-25T11:46:30.000Z</time>
      </trkpt>
      <trkpt lat="43.57667" lon="6.41747">
        <ele>376</ele>
        <time>2026-02-25T11:46:39.000Z</time>
      </trkpt>
      <trkpt lat="43.57661" lon="6.41737">
        <ele>374</ele>
        <time>2026-02-25T11:46:48.000Z</time>
      </trkpt>
      <trkpt lat="43.57654" lon="6.4173">
        <ele>373</ele>
        <time>2026-02-25T11:46:57.000Z</time>
      </trkpt>
      <trkpt lat="43.57646" lon="6.41727">
        <ele>371</ele>
        <time>2026-02-25T11:47:06.000Z</time>
      </trkpt>
      <trkpt lat="43.57639" lon="6.41735">
        <ele>369</ele>
        <time>2026-02-25T11:47:18.000Z</time>
      </trkpt>
      <trkpt lat="43.57635" lon="6.41748">
        <ele>368</ele>
        <time>2026-02-25T11:47:30.000Z</time>
      </trkpt>
      <trkpt lat="43.57628" lon="6.4176">
        <ele>366</ele>
        <time>2026-02-25T11:47:42.000Z</time>
      </trkpt>
      <trkpt lat="43.57622" lon="6.41771">
        <ele>364</ele>
        <time>2026-02-25T11:47:54.000Z</time>
      </trkpt>
      <trkpt lat="43.57616" lon="6.41781">
        <ele>362</ele>
        <time>2026-02-25T11:48:03.000Z</time>
      </trkpt>
      <trkpt lat="43.5761" lon="6.41791">
        <ele>360</ele>
        <time>2026-02-25T11:48:12.000Z</time>
      </trkpt>
      <trkpt lat="43.57605" lon="6.41803">
        <ele>357</ele>
        <time>2026-02-25T11:48:24.000Z</time>
      </trkpt>
      <trkpt lat="43.57601" lon="6.41816">
        <ele>355</ele>
        <time>2026-02-25T11:48:36.000Z</time>
      </trkpt>
      <trkpt lat="43.57598" lon="6.41829">
        <ele>353</ele>
        <time>2026-02-25T11:48:45.000Z</time>
      </trkpt>
      <trkpt lat="43.57594" lon="6.41842">
        <ele>351</ele>
        <time>2026-02-25T11:48:57.000Z</time>
      </trkpt>
      <trkpt lat="43.57588" lon="6.41853">
        <ele>350</ele>
        <time>2026-02-25T11:49:06.000Z</time>
      </trkpt>
      <trkpt lat="43.57583" lon="6.41865">
        <ele>349</ele>
        <time>2026-02-25T11:49:15.000Z</time>
      </trkpt>
      <trkpt lat="43.57579" lon="6.41877">
        <ele>348</ele>
        <time>2026-02-25T11:49:24.000Z</time>
      </trkpt>
      <trkpt lat="43.57576" lon="6.41889">
        <ele>347</ele>
        <time>2026-02-25T11:49:33.000Z</time>
      </trkpt>
      <trkpt lat="43.57574" lon="6.41902">
        <ele>346</ele>
        <time>2026-02-25T11:49:42.000Z</time>
      </trkpt>
      <trkpt lat="43.57572" lon="6.41915">
        <ele>345</ele>
        <time>2026-02-25T11:49:51.000Z</time>
      </trkpt>
      <trkpt lat="43.57574" lon="6.41927">
        <ele>343</ele>
        <time>2026-02-25T11:50:00.000Z</time>
      </trkpt>
      <trkpt lat="43.57579" lon="6.41939">
        <ele>342</ele>
        <time>2026-02-25T11:50:09.000Z</time>
      </trkpt>
      <trkpt lat="43.57584" lon="6.4195">
        <ele>340</ele>
        <time>2026-02-25T11:50:18.000Z</time>
      </trkpt>
      <trkpt lat="43.57587" lon="6.41962">
        <ele>338</ele>
        <time>2026-02-25T11:50:30.000Z</time>
      </trkpt>
      <trkpt lat="43.57582" lon="6.41972">
        <ele>337</ele>
        <time>2026-02-25T11:50:42.000Z</time>
      </trkpt>
      <trkpt lat="43.57573" lon="6.41975">
        <ele>335</ele>
        <time>2026-02-25T11:50:51.000Z</time>
      </trkpt>
      <trkpt lat="43.57567" lon="6.41987">
        <ele>334</ele>
        <time>2026-02-25T11:51:03.000Z</time>
      </trkpt>
      <trkpt lat="43.57568" lon="6.42">
        <ele>332</ele>
        <time>2026-02-25T11:51:12.000Z</time>
      </trkpt>
      <trkpt lat="43.57572" lon="6.42013">
        <ele>330</ele>
        <time>2026-02-25T11:51:24.000Z</time>
      </trkpt>
      <trkpt lat="43.57578" lon="6.42025">
        <ele>329</ele>
        <time>2026-02-25T11:51:36.000Z</time>
      </trkpt>
      <trkpt lat="43.57585" lon="6.42032">
        <ele>327</ele>
        <time>2026-02-25T11:51:45.000Z</time>
      </trkpt>
      <trkpt lat="43.57593" lon="6.4204">
        <ele>325</ele>
        <time>2026-02-25T11:51:54.000Z</time>
      </trkpt>
      <trkpt lat="43.576" lon="6.42049">
        <ele>322</ele>
        <time>2026-02-25T11:52:06.000Z</time>
      </trkpt>
      <trkpt lat="43.57599" lon="6.42062">
        <ele>320</ele>
        <time>2026-02-25T11:52:18.000Z</time>
      </trkpt>
      <trkpt lat="43.57594" lon="6.42076">
        <ele>318</ele>
        <time>2026-02-25T11:52:30.000Z</time>
      </trkpt>
      <trkpt lat="43.57591" lon="6.42091">
        <ele>317</ele>
        <time>2026-02-25T11:52:42.000Z</time>
      </trkpt>
      <trkpt lat="43.57592" lon="6.42106">
        <ele>315</ele>
        <time>2026-02-25T11:52:54.000Z</time>
      </trkpt>
      <trkpt lat="43.57598" lon="6.4212">
        <ele>314</ele>
        <time>2026-02-25T11:53:03.000Z</time>
      </trkpt>
      <trkpt lat="43.57606" lon="6.42126">
        <ele>313</ele>
        <time>2026-02-25T11:53:12.000Z</time>
      </trkpt>
      <trkpt lat="43.57612" lon="6.42133">
        <ele>312</ele>
        <time>2026-02-25T11:53:33.000Z</time>
      </trkpt>
      <trkpt lat="43.57609" lon="6.42144">
        <ele>311</ele>
        <time>2026-02-25T11:53:45.000Z</time>
      </trkpt>
      <trkpt lat="43.57609" lon="6.42158">
        <ele>310</ele>
        <time>2026-02-25T11:53:54.000Z</time>
      </trkpt>
      <trkpt lat="43.57615" lon="6.42171">
        <ele>308</ele>
        <time>2026-02-25T11:54:04.000Z</time>
      </trkpt>
      <trkpt lat="43.57623" lon="6.4218">
        <ele>307</ele>
        <time>2026-02-25T11:54:13.000Z</time>
      </trkpt>
      <trkpt lat="43.5763" lon="6.42188">
        <ele>306</ele>
        <time>2026-02-25T11:54:22.000Z</time>
      </trkpt>
      <trkpt lat="43.57627" lon="6.42197">
        <ele>305</ele>
        <time>2026-02-25T11:54:37.000Z</time>
      </trkpt>
      <trkpt lat="43.57618" lon="6.42195">
        <ele>304</ele>
        <time>2026-02-25T11:54:46.000Z</time>
      </trkpt>
      <trkpt lat="43.57609" lon="6.42192">
        <ele>303</ele>
        <time>2026-02-25T11:54:55.000Z</time>
      </trkpt>
      <trkpt lat="43.57601" lon="6.42185">
        <ele>301</ele>
        <time>2026-02-25T11:55:01.000Z</time>
      </trkpt>
      <trkpt lat="43.57593" lon="6.42177">
        <ele>300</ele>
        <time>2026-02-25T11:55:10.000Z</time>
      </trkpt>
      <trkpt lat="43.57584" lon="6.4217">
        <ele>299</ele>
        <time>2026-02-25T11:55:19.000Z</time>
      </trkpt>
      <trkpt lat="43.57574" lon="6.42171">
        <ele>297</ele>
        <time>2026-02-25T11:55:31.000Z</time>
      </trkpt>
      <trkpt lat="43.5757" lon="6.42182">
        <ele>296</ele>
        <time>2026-02-25T11:55:40.000Z</time>
      </trkpt>
      <trkpt lat="43.57574" lon="6.42196">
        <ele>295</ele>
        <time>2026-02-25T11:55:52.000Z</time>
      </trkpt>
      <trkpt lat="43.57579" lon="6.42208">
        <ele>294</ele>
        <time>2026-02-25T11:56:01.000Z</time>
      </trkpt>
      <trkpt lat="43.57582" lon="6.4222">
        <ele>292</ele>
        <time>2026-02-25T11:56:10.000Z</time>
      </trkpt>
      <trkpt lat="43.57581" lon="6.42232">
        <ele>291</ele>
        <time>2026-02-25T11:56:19.000Z</time>
      </trkpt>
      <trkpt lat="43.57581" lon="6.42243">
        <ele>290</ele>
        <time>2026-02-25T11:56:28.000Z</time>
      </trkpt>
      <trkpt lat="43.57586" lon="6.42253">
        <ele>289</ele>
        <time>2026-02-25T11:56:37.000Z</time>
      </trkpt>
      <trkpt lat="43.57595" lon="6.42262">
        <ele>288</ele>
        <time>2026-02-25T11:56:46.000Z</time>
      </trkpt>
      <trkpt lat="43.576" lon="6.4227">
        <ele>287</ele>
        <time>2026-02-25T11:56:55.000Z</time>
      </trkpt>
      <trkpt lat="43.57592" lon="6.42272">
        <ele>286</ele>
        <time>2026-02-25T11:57:07.000Z</time>
      </trkpt>
      <trkpt lat="43.57584" lon="6.42276">
        <ele>284</ele>
        <time>2026-02-25T11:57:16.000Z</time>
      </trkpt>
      <trkpt lat="43.57575" lon="6.42281">
        <ele>283</ele>
        <time>2026-02-25T11:57:25.000Z</time>
      </trkpt>
      <trkpt lat="43.57569" lon="6.42291">
        <ele>281</ele>
        <time>2026-02-25T11:57:34.000Z</time>
      </trkpt>
      <trkpt lat="43.57571" lon="6.42304">
        <ele>281</ele>
        <time>2026-02-25T11:57:46.000Z</time>
      </trkpt>
      <trkpt lat="43.57578" lon="6.42313">
        <ele>280</ele>
        <time>2026-02-25T12:00:01.000Z</time>
      </trkpt>
      <trkpt lat="43.57587" lon="6.4232">
        <ele>280</ele>
        <time>2026-02-25T12:00:34.000Z</time>
      </trkpt>
      <trkpt lat="43.57597" lon="6.42323">
        <ele>279</ele>
        <time>2026-02-25T12:00:46.000Z</time>
      </trkpt>
      <trkpt lat="43.57607" lon="6.42325">
        <ele>278</ele>
        <time>2026-02-25T12:00:58.000Z</time>
      </trkpt>
      <trkpt lat="43.57618" lon="6.42326">
        <ele>277</ele>
        <time>2026-02-25T12:01:10.000Z</time>
      </trkpt>
      <trkpt lat="43.57627" lon="6.4233">
        <ele>276</ele>
        <time>2026-02-25T12:01:19.000Z</time>
      </trkpt>
      <trkpt lat="43.57636" lon="6.42334">
        <ele>276</ele>
        <time>2026-02-25T12:01:28.000Z</time>
      </trkpt>
      <trkpt lat="43.57644" lon="6.42336">
        <ele>275</ele>
        <time>2026-02-25T12:01:37.000Z</time>
      </trkpt>
      <trkpt lat="43.57653" lon="6.42339">
        <ele>274</ele>
        <time>2026-02-25T12:01:49.000Z</time>
      </trkpt>
      <trkpt lat="43.57659" lon="6.42348">
        <ele>274</ele>
        <time>2026-02-25T12:01:58.000Z</time>
      </trkpt>
      <trkpt lat="43.57661" lon="6.4236">
        <ele>274</ele>
        <time>2026-02-25T12:02:13.000Z</time>
      </trkpt>
      <trkpt lat="43.57658" lon="6.42374">
        <ele>274</ele>
        <time>2026-02-25T12:02:22.000Z</time>
      </trkpt>
      <trkpt lat="43.57656" lon="6.42386">
        <ele>274</ele>
        <time>2026-02-25T12:02:31.000Z</time>
      </trkpt>
      <trkpt lat="43.57664" lon="6.42391">
        <ele>274</ele>
        <time>2026-02-25T12:03:01.000Z</time>
      </trkpt>
      <trkpt lat="43.57673" lon="6.42389">
        <ele>274</ele>
        <time>2026-02-25T12:03:19.000Z</time>
      </trkpt>
      <trkpt lat="43.57684" lon="6.42386">
        <ele>274</ele>
        <time>2026-02-25T12:03:31.000Z</time>
      </trkpt>
      <trkpt lat="43.57695" lon="6.42385">
        <ele>274</ele>
        <time>2026-02-25T12:03:49.000Z</time>
      </trkpt>
      <trkpt lat="43.57703" lon="6.42378">
        <ele>274</ele>
        <time>2026-02-25T12:04:01.000Z</time>
      </trkpt>
      <trkpt lat="43.57713" lon="6.42371">
        <ele>274</ele>
        <time>2026-02-25T12:04:13.000Z</time>
      </trkpt>
      <trkpt lat="43.57721" lon="6.42366">
        <ele>275</ele>
        <time>2026-02-25T12:06:51.000Z</time>
      </trkpt>
      <trkpt lat="43.57731" lon="6.42361">
        <ele>275</ele>
        <time>2026-02-25T12:08:03.000Z</time>
      </trkpt>
      <trkpt lat="43.5774" lon="6.42357">
        <ele>275</ele>
        <time>2026-02-25T12:08:12.000Z</time>
      </trkpt>
      <trkpt lat="43.57749" lon="6.42353">
        <ele>275</ele>
        <time>2026-02-25T12:08:21.000Z</time>
      </trkpt>
      <trkpt lat="43.57759" lon="6.42349">
        <ele>276</ele>
        <time>2026-02-25T12:08:33.000Z</time>
      </trkpt>
      <trkpt lat="43.57769" lon="6.42347">
        <ele>276</ele>
        <time>2026-02-25T12:08:45.000Z</time>
      </trkpt>
      <trkpt lat="43.57778" lon="6.42346">
        <ele>276</ele>
        <time>2026-02-25T12:08:54.000Z</time>
      </trkpt>
      <trkpt lat="43.57788" lon="6.42346">
        <ele>277</ele>
        <time>2026-02-25T12:09:06.000Z</time>
      </trkpt>
      <trkpt lat="43.57799" lon="6.42346">
        <ele>277</ele>
        <time>2026-02-25T12:09:21.000Z</time>
      </trkpt>
      <trkpt lat="43.57808" lon="6.42346">
        <ele>277</ele>
        <time>2026-02-25T12:09:36.000Z</time>
      </trkpt>
      <trkpt lat="43.57818" lon="6.42348">
        <ele>277</ele>
        <time>2026-02-25T12:09:48.000Z</time>
      </trkpt>
      <trkpt lat="43.57828" lon="6.42351">
        <ele>278</ele>
        <time>2026-02-25T12:10:00.000Z</time>
      </trkpt>
      <trkpt lat="43.57837" lon="6.42357">
        <ele>278</ele>
        <time>2026-02-25T12:10:12.000Z</time>
      </trkpt>
      <trkpt lat="43.57838" lon="6.42369">
        <ele>279</ele>
        <time>2026-02-25T12:10:27.000Z</time>
      </trkpt>
      <trkpt lat="43.57841" lon="6.4238">
        <ele>280</ele>
        <time>2026-02-25T12:10:42.000Z</time>
      </trkpt>
      <trkpt lat="43.57842" lon="6.42393">
        <ele>281</ele>
        <time>2026-02-25T12:10:54.000Z</time>
      </trkpt>
      <trkpt lat="43.57836" lon="6.42402">
        <ele>282</ele>
        <time>2026-02-25T12:11:03.000Z</time>
      </trkpt>
      <trkpt lat="43.57831" lon="6.42413">
        <ele>282</ele>
        <time>2026-02-25T12:11:15.000Z</time>
      </trkpt>
      <trkpt lat="43.57828" lon="6.42426">
        <ele>283</ele>
        <time>2026-02-25T12:12:09.000Z</time>
      </trkpt>
      <trkpt lat="43.57824" lon="6.42438">
        <ele>283</ele>
        <time>2026-02-25T12:12:39.000Z</time>
      </trkpt>
      <trkpt lat="43.57822" lon="6.4245">
        <ele>283</ele>
        <time>2026-02-25T12:12:48.000Z</time>
      </trkpt>
      <trkpt lat="43.57817" lon="6.4246">
        <ele>284</ele>
        <time>2026-02-25T12:12:54.000Z</time>
      </trkpt>
      <trkpt lat="43.57809" lon="6.42472">
        <ele>284</ele>
        <time>2026-02-25T12:13:06.000Z</time>
      </trkpt>
      <trkpt lat="43.578" lon="6.42478">
        <ele>283</ele>
        <time>2026-02-25T12:13:15.000Z</time>
      </trkpt>
      <trkpt lat="43.5779" lon="6.42481">
        <ele>283</ele>
        <time>2026-02-25T12:13:24.000Z</time>
      </trkpt>
      <trkpt lat="43.57781" lon="6.42483">
        <ele>282</ele>
        <time>2026-02-25T12:13:39.000Z</time>
      </trkpt>
      <trkpt lat="43.57773" lon="6.42489">
        <ele>281</ele>
        <time>2026-02-25T12:13:48.000Z</time>
      </trkpt>
      <trkpt lat="43.57765" lon="6.42499">
        <ele>281</ele>
        <time>2026-02-25T12:14:00.000Z</time>
      </trkpt>
      <trkpt lat="43.57757" lon="6.42508">
        <ele>280</ele>
        <time>2026-02-25T12:14:12.000Z</time>
      </trkpt>
      <trkpt lat="43.57749" lon="6.42515">
        <ele>280</ele>
        <time>2026-02-25T12:15:03.000Z</time>
      </trkpt>
      <trkpt lat="43.57741" lon="6.42521">
        <ele>280</ele>
        <time>2026-02-25T12:15:15.000Z</time>
      </trkpt>
      <trkpt lat="43.57732" lon="6.42525">
        <ele>280</ele>
        <time>2026-02-25T12:15:24.000Z</time>
      </trkpt>
      <trkpt lat="43.57723" lon="6.42529">
        <ele>280</ele>
        <time>2026-02-25T12:15:36.000Z</time>
      </trkpt>
      <trkpt lat="43.57713" lon="6.42533">
        <ele>279</ele>
        <time>2026-02-25T12:15:48.000Z</time>
      </trkpt>
      <trkpt lat="43.57704" lon="6.42537">
        <ele>279</ele>
        <time>2026-02-25T12:15:57.000Z</time>
      </trkpt>
      <trkpt lat="43.57693" lon="6.42539">
        <ele>279</ele>
        <time>2026-02-25T12:16:06.000Z</time>
      </trkpt>
      <trkpt lat="43.57683" lon="6.42541">
        <ele>279</ele>
        <time>2026-02-25T12:16:18.000Z</time>
      </trkpt>
      <trkpt lat="43.57673" lon="6.42542">
        <ele>279</ele>
        <time>2026-02-25T12:16:30.000Z</time>
      </trkpt>
      <trkpt lat="43.57663" lon="6.42542">
        <ele>279</ele>
        <time>2026-02-25T12:16:42.000Z</time>
      </trkpt>
      <trkpt lat="43.57653" lon="6.42539">
        <ele>279</ele>
        <time>2026-02-25T12:16:57.000Z</time>
      </trkpt>
      <trkpt lat="43.57645" lon="6.42534">
        <ele>279</ele>
        <time>2026-02-25T12:17:06.000Z</time>
      </trkpt>
      <trkpt lat="43.57634" lon="6.4253">
        <ele>280</ele>
        <time>2026-02-25T12:17:15.000Z</time>
      </trkpt>
      <trkpt lat="43.57625" lon="6.42524">
        <ele>280</ele>
        <time>2026-02-25T12:17:27.000Z</time>
      </trkpt>
      <trkpt lat="43.57618" lon="6.42516">
        <ele>280</ele>
        <time>2026-02-25T12:17:42.000Z</time>
      </trkpt>
      <trkpt lat="43.57611" lon="6.42506">
        <ele>280</ele>
        <time>2026-02-25T12:17:51.000Z</time>
      </trkpt>
      <trkpt lat="43.57608" lon="6.42493">
        <ele>280</ele>
        <time>2026-02-25T12:18:12.000Z</time>
      </trkpt>
      <trkpt lat="43.57612" lon="6.4248">
        <ele>280</ele>
        <time>2026-02-25T12:18:24.000Z</time>
      </trkpt>
      <trkpt lat="43.57616" lon="6.42467">
        <ele>280</ele>
        <time>2026-02-25T12:18:33.000Z</time>
      </trkpt>
      <trkpt lat="43.57622" lon="6.42456">
        <ele>280</ele>
        <time>2026-02-25T12:18:51.000Z</time>
      </trkpt>
      <trkpt lat="43.57629" lon="6.42447">
        <ele>280</ele>
        <time>2026-02-25T12:19:06.000Z</time>
      </trkpt>
      <trkpt lat="43.57638" lon="6.42441">
        <ele>280</ele>
        <time>2026-02-25T12:19:15.000Z</time>
      </trkpt>
      <trkpt lat="43.57647" lon="6.42436">
        <ele>280</ele>
        <time>2026-02-25T12:19:33.000Z</time>
      </trkpt>
      <trkpt lat="43.57655" lon="6.42428">
        <ele>280</ele>
        <time>2026-02-25T12:19:42.000Z</time>
      </trkpt>
      <trkpt lat="43.57656" lon="6.42415">
        <ele>280</ele>
        <time>2026-02-25T12:19:51.000Z</time>
      </trkpt>
      <trkpt lat="43.57652" lon="6.42404">
        <ele>279</ele>
        <time>2026-02-25T12:20:00.000Z</time>
      </trkpt>
      <trkpt lat="43.5765" lon="6.42392">
        <ele>279</ele>
        <time>2026-02-25T12:20:12.000Z</time>
      </trkpt>
      <trkpt lat="43.57656" lon="6.42384">
        <ele>278</ele>
        <time>2026-02-25T12:20:21.000Z</time>
      </trkpt>
      <trkpt lat="43.5766" lon="6.42374">
        <ele>278</ele>
        <time>2026-02-25T12:20:30.000Z</time>
      </trkpt>
      <trkpt lat="43.5766" lon="6.42361">
        <ele>278</ele>
        <time>2026-02-25T12:20:39.000Z</time>
      </trkpt>
      <trkpt lat="43.57659" lon="6.42348">
        <ele>278</ele>
        <time>2026-02-25T12:20:48.000Z</time>
      </trkpt>
      <trkpt lat="43.57652" lon="6.42341">
        <ele>278</ele>
        <time>2026-02-25T12:21:09.000Z</time>
      </trkpt>
      <trkpt lat="43.57644" lon="6.42336">
        <ele>279</ele>
        <time>2026-02-25T12:24:09.000Z</time>
      </trkpt>
      <trkpt lat="43.57635" lon="6.42334">
        <ele>279</ele>
        <time>2026-02-25T12:24:21.000Z</time>
      </trkpt>
      <trkpt lat="43.57626" lon="6.42328">
        <ele>280</ele>
        <time>2026-02-25T12:24:30.000Z</time>
      </trkpt>
      <trkpt lat="43.57617" lon="6.42325">
        <ele>280</ele>
        <time>2026-02-25T12:24:39.000Z</time>
      </trkpt>
      <trkpt lat="43.57607" lon="6.42324">
        <ele>280</ele>
        <time>2026-02-25T12:24:48.000Z</time>
      </trkpt>
      <trkpt lat="43.57598" lon="6.42323">
        <ele>280</ele>
        <time>2026-02-25T12:24:57.000Z</time>
      </trkpt>
      <trkpt lat="43.57588" lon="6.42317">
        <ele>280</ele>
        <time>2026-02-25T12:25:09.000Z</time>
      </trkpt>
      <trkpt lat="43.5758" lon="6.42312">
        <ele>280</ele>
        <time>2026-02-25T12:25:18.000Z</time>
      </trkpt>
      <trkpt lat="43.57571" lon="6.42312">
        <ele>280</ele>
        <time>2026-02-25T12:25:27.000Z</time>
      </trkpt>
      <trkpt lat="43.57562" lon="6.42315">
        <ele>279</ele>
        <time>2026-02-25T12:25:36.000Z</time>
      </trkpt>
      <trkpt lat="43.57554" lon="6.42317">
        <ele>279</ele>
        <time>2026-02-25T12:25:45.000Z</time>
      </trkpt>
      <trkpt lat="43.57544" lon="6.42319">
        <ele>279</ele>
        <time>2026-02-25T12:25:54.000Z</time>
      </trkpt>
      <trkpt lat="43.57535" lon="6.42323">
        <ele>279</ele>
        <time>2026-02-25T12:26:09.000Z</time>
      </trkpt>
      <trkpt lat="43.57527" lon="6.42329">
        <ele>279</ele>
        <time>2026-02-25T12:26:36.000Z</time>
      </trkpt>
      <trkpt lat="43.57516" lon="6.4234">
        <ele>279</ele>
        <time>2026-02-25T12:26:54.000Z</time>
      </trkpt>
      <trkpt lat="43.57506" lon="6.42346">
        <ele>279</ele>
        <time>2026-02-25T12:27:03.000Z</time>
      </trkpt>
      <trkpt lat="43.57497" lon="6.42353">
        <ele>278</ele>
        <time>2026-02-25T12:27:12.000Z</time>
      </trkpt>
      <trkpt lat="43.57489" lon="6.42359">
        <ele>278</ele>
        <time>2026-02-25T12:27:21.000Z</time>
      </trkpt>
      <trkpt lat="43.5748" lon="6.42357">
        <ele>277</ele>
        <time>2026-02-25T12:27:30.000Z</time>
      </trkpt>
      <trkpt lat="43.5747" lon="6.42353">
        <ele>276</ele>
        <time>2026-02-25T12:27:42.000Z</time>
      </trkpt>
      <trkpt lat="43.5746" lon="6.42352">
        <ele>275</ele>
        <time>2026-02-25T12:27:51.000Z</time>
      </trkpt>
      <trkpt lat="43.57449" lon="6.42349">
        <ele>275</ele>
        <time>2026-02-25T12:28:03.000Z</time>
      </trkpt>
      <trkpt lat="43.57439" lon="6.42347">
        <ele>275</ele>
        <time>2026-02-25T12:28:12.000Z</time>
      </trkpt>
      <trkpt lat="43.57428" lon="6.42346">
        <ele>275</ele>
        <time>2026-02-25T12:28:21.000Z</time>
      </trkpt>
      <trkpt lat="43.57417" lon="6.42343">
        <ele>274</ele>
        <time>2026-02-25T12:28:33.000Z</time>
      </trkpt>
      <trkpt lat="43.57407" lon="6.42343">
        <ele>274</ele>
        <time>2026-02-25T12:28:42.000Z</time>
      </trkpt>
      <trkpt lat="43.57396" lon="6.42344">
        <ele>274</ele>
        <time>2026-02-25T12:28:51.000Z</time>
      </trkpt>
      <trkpt lat="43.57386" lon="6.42343">
        <ele>273</ele>
        <time>2026-02-25T12:29:00.000Z</time>
      </trkpt>
      <trkpt lat="43.57375" lon="6.42341">
        <ele>273</ele>
        <time>2026-02-25T12:29:09.000Z</time>
      </trkpt>
      <trkpt lat="43.57366" lon="6.42341">
        <ele>273</ele>
        <time>2026-02-25T12:29:18.000Z</time>
      </trkpt>
      <trkpt lat="43.57356" lon="6.4234">
        <ele>272</ele>
        <time>2026-02-25T12:29:27.000Z</time>
      </trkpt>
      <trkpt lat="43.57346" lon="6.4234">
        <ele>272</ele>
        <time>2026-02-25T12:29:36.000Z</time>
      </trkpt>
      <trkpt lat="43.57336" lon="6.42338">
        <ele>272</ele>
        <time>2026-02-25T12:29:45.000Z</time>
      </trkpt>
      <trkpt lat="43.57326" lon="6.42338">
        <ele>272</ele>
        <time>2026-02-25T12:29:54.000Z</time>
      </trkpt>
      <trkpt lat="43.57316" lon="6.42336">
        <ele>272</ele>
        <time>2026-02-25T12:30:03.000Z</time>
      </trkpt>
      <trkpt lat="43.57308" lon="6.42331">
        <ele>272</ele>
        <time>2026-02-25T12:30:12.000Z</time>
      </trkpt>
      <trkpt lat="43.57298" lon="6.42327">
        <ele>272</ele>
        <time>2026-02-25T12:30:24.000Z</time>
      </trkpt>
      <trkpt lat="43.57289" lon="6.42325">
        <ele>272</ele>
        <time>2026-02-25T12:30:33.000Z</time>
      </trkpt>
      <trkpt lat="43.57279" lon="6.42323">
        <ele>272</ele>
        <time>2026-02-25T12:30:42.000Z</time>
      </trkpt>
      <trkpt lat="43.57269" lon="6.42322">
        <ele>272</ele>
        <time>2026-02-25T12:30:51.000Z</time>
      </trkpt>
      <trkpt lat="43.5726" lon="6.42321">
        <ele>272</ele>
        <time>2026-02-25T12:31:00.000Z</time>
      </trkpt>
      <trkpt lat="43.5725" lon="6.42316">
        <ele>272</ele>
        <time>2026-02-25T12:31:09.000Z</time>
      </trkpt>
      <trkpt lat="43.57241" lon="6.42312">
        <ele>272</ele>
        <time>2026-02-25T12:31:18.000Z</time>
      </trkpt>
      <trkpt lat="43.57232" lon="6.42309">
        <ele>272</ele>
        <time>2026-02-25T12:31:27.000Z</time>
      </trkpt>
      <trkpt lat="43.57223" lon="6.42305">
        <ele>272</ele>
        <time>2026-02-25T12:31:36.000Z</time>
      </trkpt>
      <trkpt lat="43.57213" lon="6.42298">
        <ele>272</ele>
        <time>2026-02-25T12:31:48.000Z</time>
      </trkpt>
      <trkpt lat="43.57204" lon="6.42294">
        <ele>272</ele>
        <time>2026-02-25T12:31:57.000Z</time>
      </trkpt>
      <trkpt lat="43.57194" lon="6.42289">
        <ele>272</ele>
        <time>2026-02-25T12:32:06.000Z</time>
      </trkpt>
      <trkpt lat="43.57185" lon="6.42283">
        <ele>272</ele>
        <time>2026-02-25T12:32:15.000Z</time>
      </trkpt>
      <trkpt lat="43.57176" lon="6.42278">
        <ele>271</ele>
        <time>2026-02-25T12:32:24.000Z</time>
      </trkpt>
      <trkpt lat="43.57168" lon="6.42272">
        <ele>271</ele>
        <time>2026-02-25T12:32:33.000Z</time>
      </trkpt>
      <trkpt lat="43.57159" lon="6.42264">
        <ele>271</ele>
        <time>2026-02-25T12:32:42.000Z</time>
      </trkpt>
      <trkpt lat="43.5715" lon="6.42255">
        <ele>271</ele>
        <time>2026-02-25T12:32:51.000Z</time>
      </trkpt>
      <trkpt lat="43.57142" lon="6.42246">
        <ele>271</ele>
        <time>2026-02-25T12:33:00.000Z</time>
      </trkpt>
      <trkpt lat="43.57134" lon="6.42234">
        <ele>271</ele>
        <time>2026-02-25T12:33:24.000Z</time>
      </trkpt>
      <trkpt lat="43.57126" lon="6.42224">
        <ele>271</ele>
        <time>2026-02-25T12:33:36.000Z</time>
      </trkpt>
      <trkpt lat="43.5712" lon="6.42214">
        <ele>271</ele>
        <time>2026-02-25T12:33:45.000Z</time>
      </trkpt>
      <trkpt lat="43.57115" lon="6.42201">
        <ele>271</ele>
        <time>2026-02-25T12:33:54.000Z</time>
      </trkpt>
      <trkpt lat="43.57109" lon="6.42191">
        <ele>270</ele>
        <time>2026-02-25T12:34:03.000Z</time>
      </trkpt>
      <trkpt lat="43.57101" lon="6.42182">
        <ele>270</ele>
        <time>2026-02-25T12:34:12.000Z</time>
      </trkpt>
      <trkpt lat="43.57095" lon="6.42172">
        <ele>269</ele>
        <time>2026-02-25T12:34:21.000Z</time>
      </trkpt>
      <trkpt lat="43.57089" lon="6.42164">
        <ele>268</ele>
        <time>2026-02-25T12:34:30.000Z</time>
      </trkpt>
      <trkpt lat="43.57081" lon="6.42155">
        <ele>267</ele>
        <time>2026-02-25T12:34:42.000Z</time>
      </trkpt>
      <trkpt lat="43.57073" lon="6.42148">
        <ele>267</ele>
        <time>2026-02-25T12:34:51.000Z</time>
      </trkpt>
      <trkpt lat="43.57064" lon="6.42143">
        <ele>267</ele>
        <time>2026-02-25T12:35:00.000Z</time>
      </trkpt>
      <trkpt lat="43.57055" lon="6.42138">
        <ele>267</ele>
        <time>2026-02-25T12:35:09.000Z</time>
      </trkpt>
      <trkpt lat="43.57046" lon="6.42132">
        <ele>267</ele>
        <time>2026-02-25T12:35:18.000Z</time>
      </trkpt>
      <trkpt lat="43.57037" lon="6.42129">
        <ele>268</ele>
        <time>2026-02-25T12:35:27.000Z</time>
      </trkpt>
      <trkpt lat="43.57027" lon="6.42127">
        <ele>268</ele>
        <time>2026-02-25T12:35:36.000Z</time>
      </trkpt>
      <trkpt lat="43.57017" lon="6.42125">
        <ele>268</ele>
        <time>2026-02-25T12:35:45.000Z</time>
      </trkpt>
      <trkpt lat="43.57007" lon="6.42125">
        <ele>268</ele>
        <time>2026-02-25T12:35:54.000Z</time>
      </trkpt>
      <trkpt lat="43.56996" lon="6.42124">
        <ele>268</ele>
        <time>2026-02-25T12:36:03.000Z</time>
      </trkpt>
      <trkpt lat="43.56986" lon="6.42122">
        <ele>268</ele>
        <time>2026-02-25T12:36:15.000Z</time>
      </trkpt>
      <trkpt lat="43.56977" lon="6.42116">
        <ele>267</ele>
        <time>2026-02-25T12:36:24.000Z</time>
      </trkpt>
      <trkpt lat="43.56968" lon="6.42109">
        <ele>267</ele>
        <time>2026-02-25T12:36:36.000Z</time>
      </trkpt>
      <trkpt lat="43.56958" lon="6.42102">
        <ele>267</ele>
        <time>2026-02-25T12:36:48.000Z</time>
      </trkpt>
      <trkpt lat="43.5695" lon="6.42096">
        <ele>266</ele>
        <time>2026-02-25T12:36:57.000Z</time>
      </trkpt>
      <trkpt lat="43.56941" lon="6.42092">
        <ele>266</ele>
        <time>2026-02-25T12:37:12.000Z</time>
      </trkpt>
      <trkpt lat="43.5693" lon="6.42092">
        <ele>266</ele>
        <time>2026-02-25T12:37:30.000Z</time>
      </trkpt>
      <trkpt lat="43.56921" lon="6.42094">
        <ele>266</ele>
        <time>2026-02-25T12:37:39.000Z</time>
      </trkpt>
      <trkpt lat="43.56912" lon="6.42096">
        <ele>266</ele>
        <time>2026-02-25T12:37:48.000Z</time>
      </trkpt>
      <trkpt lat="43.56901" lon="6.42097">
        <ele>266</ele>
        <time>2026-02-25T12:38:39.000Z</time>
      </trkpt>
      <trkpt lat="43.56892" lon="6.42098">
        <ele>266</ele>
        <time>2026-02-25T12:38:48.000Z</time>
      </trkpt>
      <trkpt lat="43.56883" lon="6.42094">
        <ele>267</ele>
        <time>2026-02-25T12:38:57.000Z</time>
      </trkpt>
      <trkpt lat="43.56877" lon="6.42082">
        <ele>268</ele>
        <time>2026-02-25T12:39:06.000Z</time>
      </trkpt>
      <trkpt lat="43.56874" lon="6.42068">
        <ele>268</ele>
        <time>2026-02-25T12:39:18.000Z</time>
      </trkpt>
      <trkpt lat="43.56872" lon="6.42054">
        <ele>269</ele>
        <time>2026-02-25T12:39:27.000Z</time>
      </trkpt>
      <trkpt lat="43.56868" lon="6.42041">
        <ele>270</ele>
        <time>2026-02-25T12:39:36.000Z</time>
      </trkpt>
      <trkpt lat="43.56862" lon="6.42029">
        <ele>271</ele>
        <time>2026-02-25T12:39:45.000Z</time>
      </trkpt>
      <trkpt lat="43.56856" lon="6.42017">
        <ele>271</ele>
        <time>2026-02-25T12:39:54.000Z</time>
      </trkpt>
      <trkpt lat="43.5685" lon="6.42004">
        <ele>271</ele>
        <time>2026-02-25T12:40:06.000Z</time>
      </trkpt>
      <trkpt lat="43.56843" lon="6.41997">
        <ele>272</ele>
        <time>2026-02-25T12:40:21.000Z</time>
      </trkpt>
      <trkpt lat="43.56834" lon="6.41997">
        <ele>271</ele>
        <time>2026-02-25T12:41:24.000Z</time>
      </trkpt>
      <trkpt lat="43.56828" lon="6.42006">
        <ele>271</ele>
        <time>2026-02-25T12:44:24.000Z</time>
      </trkpt>
      <trkpt lat="43.5682" lon="6.42013">
        <ele>271</ele>
        <time>2026-02-25T12:44:36.000Z</time>
      </trkpt>
      <trkpt lat="43.56812" lon="6.42023">
        <ele>271</ele>
        <time>2026-02-25T12:44:45.000Z</time>
      </trkpt>
      <trkpt lat="43.56807" lon="6.42033">
        <ele>270</ele>
        <time>2026-02-25T12:44:54.000Z</time>
      </trkpt>
      <trkpt lat="43.56799" lon="6.42038">
        <ele>270</ele>
        <time>2026-02-25T12:45:03.000Z</time>
      </trkpt>
      <trkpt lat="43.5679" lon="6.42044">
        <ele>269</ele>
        <time>2026-02-25T12:45:10.000Z</time>
      </trkpt>
      <trkpt lat="43.56781" lon="6.42052">
        <ele>268</ele>
        <time>2026-02-25T12:45:20.000Z</time>
      </trkpt>
      <trkpt lat="43.56773" lon="6.42059">
        <ele>268</ele>
        <time>2026-02-25T12:45:29.000Z</time>
      </trkpt>
      <trkpt lat="43.56766" lon="6.42069">
        <ele>267</ele>
        <time>2026-02-25T12:45:38.000Z</time>
      </trkpt>
      <trkpt lat="43.56759" lon="6.42077">
        <ele>266</ele>
        <time>2026-02-25T12:45:46.000Z</time>
      </trkpt>
      <trkpt lat="43.56754" lon="6.42087">
        <ele>266</ele>
        <time>2026-02-25T12:45:52.000Z</time>
      </trkpt>
      <trkpt lat="43.56746" lon="6.42095">
        <ele>265</ele>
        <time>2026-02-25T12:46:03.000Z</time>
      </trkpt>
      <trkpt lat="43.5674" lon="6.42108">
        <ele>264</ele>
        <time>2026-02-25T12:46:12.000Z</time>
      </trkpt>
      <trkpt lat="43.56733" lon="6.4212">
        <ele>263</ele>
        <time>2026-02-25T12:46:24.000Z</time>
      </trkpt>
      <trkpt lat="43.56725" lon="6.42132">
        <ele>263</ele>
        <time>2026-02-25T12:46:36.000Z</time>
      </trkpt>
      <trkpt lat="43.56718" lon="6.42141">
        <ele>263</ele>
        <time>2026-02-25T12:46:45.000Z</time>
      </trkpt>
      <trkpt lat="43.56709" lon="6.42145">
        <ele>263</ele>
        <time>2026-02-25T12:46:48.000Z</time>
      </trkpt>
      <trkpt lat="43.56701" lon="6.42148">
        <ele>262</ele>
        <time>2026-02-25T12:46:57.000Z</time>
      </trkpt>
      <trkpt lat="43.56692" lon="6.42153">
        <ele>262</ele>
        <time>2026-02-25T12:47:06.000Z</time>
      </trkpt>
      <trkpt lat="43.56683" lon="6.42159">
        <ele>262</ele>
        <time>2026-02-25T12:47:15.000Z</time>
      </trkpt>
      <trkpt lat="43.56674" lon="6.42165">
        <ele>262</ele>
        <time>2026-02-25T12:47:24.000Z</time>
      </trkpt>
      <trkpt lat="43.56664" lon="6.42172">
        <ele>262</ele>
        <time>2026-02-25T12:47:33.000Z</time>
      </trkpt>
      <trkpt lat="43.56653" lon="6.42182">
        <ele>261</ele>
        <time>2026-02-25T12:47:42.000Z</time>
      </trkpt>
      <trkpt lat="43.56645" lon="6.42193">
        <ele>261</ele>
        <time>2026-02-25T12:47:54.000Z</time>
      </trkpt>
      <trkpt lat="43.56637" lon="6.42202">
        <ele>261</ele>
        <time>2026-02-25T12:48:03.000Z</time>
      </trkpt>
      <trkpt lat="43.5663" lon="6.42211">
        <ele>261</ele>
        <time>2026-02-25T12:48:12.000Z</time>
      </trkpt>
      <trkpt lat="43.56621" lon="6.4222">
        <ele>261</ele>
        <time>2026-02-25T12:48:21.000Z</time>
      </trkpt>
      <trkpt lat="43.56613" lon="6.42229">
        <ele>261</ele>
        <time>2026-02-25T12:48:30.000Z</time>
      </trkpt>
      <trkpt lat="43.56603" lon="6.42237">
        <ele>260</ele>
        <time>2026-02-25T12:48:39.000Z</time>
      </trkpt>
      <trkpt lat="43.56594" lon="6.42246">
        <ele>259</ele>
        <time>2026-02-25T12:48:48.000Z</time>
      </trkpt>
      <trkpt lat="43.56585" lon="6.42254">
        <ele>259</ele>
        <time>2026-02-25T12:48:57.000Z</time>
      </trkpt>
      <trkpt lat="43.56574" lon="6.42262">
        <ele>258</ele>
        <time>2026-02-25T12:49:06.000Z</time>
      </trkpt>
      <trkpt lat="43.56564" lon="6.42266">
        <ele>258</ele>
        <time>2026-02-25T12:49:18.000Z</time>
      </trkpt>
      <trkpt lat="43.56554" lon="6.42268">
        <ele>258</ele>
        <time>2026-02-25T12:49:27.000Z</time>
      </trkpt>
      <trkpt lat="43.56544" lon="6.42267">
        <ele>257</ele>
        <time>2026-02-25T12:49:39.000Z</time>
      </trkpt>
      <trkpt lat="43.56532" lon="6.42268">
        <ele>257</ele>
        <time>2026-02-25T12:50:15.000Z</time>
      </trkpt>
      <trkpt lat="43.56521" lon="6.42268">
        <ele>257</ele>
        <time>2026-02-25T12:50:24.000Z</time>
      </trkpt>
      <trkpt lat="43.5651" lon="6.42269">
        <ele>257</ele>
        <time>2026-02-25T12:50:33.000Z</time>
      </trkpt>
      <trkpt lat="43.565" lon="6.42268">
        <ele>257</ele>
        <time>2026-02-25T12:50:42.000Z</time>
      </trkpt>
      <trkpt lat="43.56489" lon="6.42266">
        <ele>258</ele>
        <time>2026-02-25T12:50:51.000Z</time>
      </trkpt>
      <trkpt lat="43.56479" lon="6.4226">
        <ele>258</ele>
        <time>2026-02-25T12:51:00.000Z</time>
      </trkpt>
      <trkpt lat="43.56473" lon="6.42248">
        <ele>258</ele>
        <time>2026-02-25T12:51:09.000Z</time>
      </trkpt>
      <trkpt lat="43.56468" lon="6.42237">
        <ele>259</ele>
        <time>2026-02-25T12:51:21.000Z</time>
      </trkpt>
      <trkpt lat="43.56466" lon="6.42222">
        <ele>259</ele>
        <time>2026-02-25T12:51:30.000Z</time>
      </trkpt>
      <trkpt lat="43.56463" lon="6.42208">
        <ele>259</ele>
        <time>2026-02-25T12:51:39.000Z</time>
      </trkpt>
      <trkpt lat="43.56459" lon="6.42194">
        <ele>259</ele>
        <time>2026-02-25T12:51:48.000Z</time>
      </trkpt>
      <trkpt lat="43.56454" lon="6.42182">
        <ele>259</ele>
        <time>2026-02-25T12:51:57.000Z</time>
      </trkpt>
      <trkpt lat="43.56448" lon="6.42173">
        <ele>259</ele>
        <time>2026-02-25T12:52:15.000Z</time>
      </trkpt>
      <trkpt lat="43.56442" lon="6.42161">
        <ele>259</ele>
        <time>2026-02-25T12:52:27.000Z</time>
      </trkpt>
      <trkpt lat="43.56433" lon="6.42152">
        <ele>259</ele>
        <time>2026-02-25T12:52:36.000Z</time>
      </trkpt>
      <trkpt lat="43.56424" lon="6.42146">
        <ele>258</ele>
        <time>2026-02-25T12:52:45.000Z</time>
      </trkpt>
      <trkpt lat="43.56415" lon="6.42142">
        <ele>258</ele>
        <time>2026-02-25T12:52:54.000Z</time>
      </trkpt>
      <trkpt lat="43.56406" lon="6.42138">
        <ele>257</ele>
        <time>2026-02-25T12:53:03.000Z</time>
      </trkpt>
      <trkpt lat="43.56396" lon="6.42139">
        <ele>257</ele>
        <time>2026-02-25T12:53:12.000Z</time>
      </trkpt>
      <trkpt lat="43.56385" lon="6.42141">
        <ele>256</ele>
        <time>2026-02-25T12:53:21.000Z</time>
      </trkpt>
      <trkpt lat="43.56374" lon="6.42145">
        <ele>256</ele>
        <time>2026-02-25T12:53:30.000Z</time>
      </trkpt>
      <trkpt lat="43.56366" lon="6.4215">
        <ele>256</ele>
        <time>2026-02-25T12:53:39.000Z</time>
      </trkpt>
      <trkpt lat="43.56358" lon="6.42159">
        <ele>256</ele>
        <time>2026-02-25T12:53:48.000Z</time>
      </trkpt>
      <trkpt lat="43.56351" lon="6.42166">
        <ele>256</ele>
        <time>2026-02-25T12:53:57.000Z</time>
      </trkpt>
      <trkpt lat="43.56343" lon="6.42176">
        <ele>257</ele>
        <time>2026-02-25T12:54:06.000Z</time>
      </trkpt>
      <trkpt lat="43.56336" lon="6.42186">
        <ele>257</ele>
        <time>2026-02-25T12:54:15.000Z</time>
      </trkpt>
      <trkpt lat="43.56329" lon="6.42196">
        <ele>257</ele>
        <time>2026-02-25T12:54:24.000Z</time>
      </trkpt>
      <trkpt lat="43.56322" lon="6.42206">
        <ele>257</ele>
        <time>2026-02-25T12:54:33.000Z</time>
      </trkpt>
      <trkpt lat="43.56317" lon="6.42219">
        <ele>257</ele>
        <time>2026-02-25T12:54:42.000Z</time>
      </trkpt>
      <trkpt lat="43.56312" lon="6.42231">
        <ele>257</ele>
        <time>2026-02-25T12:54:51.000Z</time>
      </trkpt>
      <trkpt lat="43.56305" lon="6.42242">
        <ele>257</ele>
        <time>2026-02-25T12:55:00.000Z</time>
      </trkpt>
      <trkpt lat="43.56301" lon="6.42254">
        <ele>257</ele>
        <time>2026-02-25T12:55:12.000Z</time>
      </trkpt>
      <trkpt lat="43.56295" lon="6.42268">
        <ele>257</ele>
        <time>2026-02-25T12:55:21.000Z</time>
      </trkpt>
      <trkpt lat="43.56289" lon="6.4228">
        <ele>257</ele>
        <time>2026-02-25T12:55:30.000Z</time>
      </trkpt>
      <trkpt lat="43.56284" lon="6.42293">
        <ele>256</ele>
        <time>2026-02-25T12:55:39.000Z</time>
      </trkpt>
      <trkpt lat="43.56277" lon="6.42303">
        <ele>256</ele>
        <time>2026-02-25T12:55:48.000Z</time>
      </trkpt>
      <trkpt lat="43.5627" lon="6.42313">
        <ele>256</ele>
        <time>2026-02-25T12:55:57.000Z</time>
      </trkpt>
      <trkpt lat="43.56262" lon="6.42321">
        <ele>256</ele>
        <time>2026-02-25T12:56:06.000Z</time>
      </trkpt>
      <trkpt lat="43.56253" lon="6.42328">
        <ele>255</ele>
        <time>2026-02-25T12:56:15.000Z</time>
      </trkpt>
      <trkpt lat="43.56244" lon="6.42336">
        <ele>255</ele>
        <time>2026-02-25T12:56:24.000Z</time>
      </trkpt>
      <trkpt lat="43.56237" lon="6.42347">
        <ele>255</ele>
        <time>2026-02-25T12:56:33.000Z</time>
      </trkpt>
      <trkpt lat="43.56231" lon="6.42359">
        <ele>255</ele>
        <time>2026-02-25T12:56:42.000Z</time>
      </trkpt>
      <trkpt lat="43.56223" lon="6.42369">
        <ele>255</ele>
        <time>2026-02-25T12:56:51.000Z</time>
      </trkpt>
      <trkpt lat="43.56217" lon="6.42379">
        <ele>255</ele>
        <time>2026-02-25T12:57:00.000Z</time>
      </trkpt>
      <trkpt lat="43.56211" lon="6.42391">
        <ele>255</ele>
        <time>2026-02-25T12:57:10.000Z</time>
      </trkpt>
      <trkpt lat="43.56204" lon="6.42399">
        <ele>254</ele>
        <time>2026-02-25T12:57:19.000Z</time>
      </trkpt>
      <trkpt lat="43.56195" lon="6.42407">
        <ele>254</ele>
        <time>2026-02-25T12:57:28.000Z</time>
      </trkpt>
      <trkpt lat="43.56188" lon="6.42414">
        <ele>253</ele>
        <time>2026-02-25T12:57:37.000Z</time>
      </trkpt>
      <trkpt lat="43.5618" lon="6.42421">
        <ele>253</ele>
        <time>2026-02-25T12:57:46.000Z</time>
      </trkpt>
      <trkpt lat="43.56169" lon="6.42429">
        <ele>253</ele>
        <time>2026-02-25T12:57:55.000Z</time>
      </trkpt>
      <trkpt lat="43.5616" lon="6.42439">
        <ele>253</ele>
        <time>2026-02-25T12:58:07.000Z</time>
      </trkpt>
      <trkpt lat="43.56153" lon="6.42448">
        <ele>253</ele>
        <time>2026-02-25T12:58:16.000Z</time>
      </trkpt>
      <trkpt lat="43.56145" lon="6.42456">
        <ele>253</ele>
        <time>2026-02-25T12:58:25.000Z</time>
      </trkpt>
      <trkpt lat="43.56138" lon="6.42467">
        <ele>253</ele>
        <time>2026-02-25T12:58:34.000Z</time>
      </trkpt>
      <trkpt lat="43.5613" lon="6.42476">
        <ele>253</ele>
        <time>2026-02-25T12:58:43.000Z</time>
      </trkpt>
      <trkpt lat="43.56124" lon="6.42488">
        <ele>253</ele>
        <time>2026-02-25T12:58:52.000Z</time>
      </trkpt>
      <trkpt lat="43.56119" lon="6.42502">
        <ele>253</ele>
        <time>2026-02-25T12:59:01.000Z</time>
      </trkpt>
      <trkpt lat="43.56111" lon="6.42512">
        <ele>252</ele>
        <time>2026-02-25T12:59:10.000Z</time>
      </trkpt>
      <trkpt lat="43.56104" lon="6.4252">
        <ele>252</ele>
        <time>2026-02-25T12:59:19.000Z</time>
      </trkpt>
      <trkpt lat="43.56097" lon="6.42529">
        <ele>252</ele>
        <time>2026-02-25T12:59:28.000Z</time>
      </trkpt>
      <trkpt lat="43.56088" lon="6.42537">
        <ele>252</ele>
        <time>2026-02-25T12:59:37.000Z</time>
      </trkpt>
      <trkpt lat="43.56079" lon="6.42542">
        <ele>251</ele>
        <time>2026-02-25T12:59:46.000Z</time>
      </trkpt>
      <trkpt lat="43.56069" lon="6.42545">
        <ele>251</ele>
        <time>2026-02-25T12:59:55.000Z</time>
      </trkpt>
      <trkpt lat="43.56058" lon="6.42548">
        <ele>251</ele>
        <time>2026-02-25T13:00:04.000Z</time>
      </trkpt>
      <trkpt lat="43.56049" lon="6.42551">
        <ele>251</ele>
        <time>2026-02-25T13:00:13.000Z</time>
      </trkpt>
      <trkpt lat="43.5604" lon="6.42554">
        <ele>250</ele>
        <time>2026-02-25T13:00:22.000Z</time>
      </trkpt>
      <trkpt lat="43.56031" lon="6.42551">
        <ele>250</ele>
        <time>2026-02-25T13:00:31.000Z</time>
      </trkpt>
      <trkpt lat="43.56024" lon="6.42543">
        <ele>249</ele>
        <time>2026-02-25T13:00:40.000Z</time>
      </trkpt>
      <trkpt lat="43.56019" lon="6.42531">
        <ele>250</ele>
        <time>2026-02-25T13:00:49.000Z</time>
      </trkpt>
      <trkpt lat="43.56013" lon="6.4252">
        <ele>249</ele>
        <time>2026-02-25T13:00:58.000Z</time>
      </trkpt>
    </trkseg>
  </trk>
</gpx>